Darstellungsparameter: Aktuell verwendete Einstellungen:
Skalierung der Graphiken ... ?
xyx+y,   Skalierungsfaktor:      Skalierung: Modus: x, Faktor: 1
Darstellungszeitraum ... ?
Vom - - bis: - -   Zeitraum: 13.08.2003 - 12.11.2003
Min/Max/Avg-Anzeige ... ?
Zeige MMA aktuell
Zeige MMA Monat
Zeige MMA alles
Zeige --A aktuell
Zeige --A Monat
Zeige --A alles
Keine MMA-Anzeige
MMA:
Average (ber die Originaldaten)
MMA-Basis: 17.04.2019 - 19.05.2019
Quicknavigation für Darstellung... ?
Tage:      1T, 2T, 3T, 5T -1T -2T -3T -5T +1T +2T +3T +5T
Wochen: 1W, 2W, 3W -1W -2W -3W +1W +2W +3W
Monate: 1M, 3M, 6M -1M -3M -6M +1M +3M +6M
Jahre:    1J, 3J, 5J, 10J -1J -3J -5J -10J +1J +3J +5J +10J
Nutze für die Darstellung ... ?
Originaldaten oder Mittelwerte auf ...
Stundenbasis Tagesbasis Wochenbasis
Monatsbasis Jahresbasis      Datenbasis: Original-Daten
Darstellen als:
Statistik (Auto) Statistik J:M      Darstellung:
Zur Graphik,    zurück zur Übersicht aller Sensoren.
 
Tabellarische Datenbersicht: ?
 
Sensor: Nr:Datum:Temp:Abs-Feuchte:Windchill:Wind:
Aussen-T/F 1 13-08-2003 00:08:04 27.9 C 10.82 g/m*3 27.9 C 0 km/h
2 13-08-2003 00:18:04 27.6 C 10.38 g/m*3 27.6 C 0 km/h
3 13-08-2003 00:28:04 27.5 C 10.32 g/m*3 27.5 C 0 km/h
4 13-08-2003 00:38:04 27.3 C 10.2 g/m*3 27.3 C 0 km/h
5 13-08-2003 00:48:04 27.3 C 10.47 g/m*3 27.3 C 0 km/h
6 13-08-2003 00:58:04 27.1 C 10.35 g/m*3 27.1 C 0 km/h
7 13-08-2003 01:08:04 26.9 C 10.49 g/m*3 26.9 C 0 km/h
8 13-08-2003 01:18:04 26.6 C 10.32 g/m*3 26.6 C 0 km/h
9 13-08-2003 01:28:04 26.5 C 10.51 g/m*3 26.5 C 0 km/h
10 13-08-2003 01:38:04 26.2 C 10.34 g/m*3 26.2 C 0 km/h
11 13-08-2003 01:48:04 26.1 C 10.53 g/m*3 26.1 C 0 km/h
12 13-08-2003 01:58:04 25.9 C 10.65 g/m*3 25.9 C 0 km/h
13 13-08-2003 02:08:04 25.7 C 10.53 g/m*3 25.7 C 0 km/h
14 13-08-2003 02:18:04 25.6 C 10.71 g/m*3 25.6 C 0 km/h
15 13-08-2003 02:28:04 25.4 C 10.83 g/m*3 25.4 C 0 km/h
16 13-08-2003 02:38:04 25.2 C 10.71 g/m*3 25.2 C 0 km/h
17 13-08-2003 02:48:04 25.1 C 10.65 g/m*3 25.1 C 0 km/h
18 13-08-2003 02:58:04 24.9 C 10.76 g/m*3 24.9 C 0 km/h
19 13-08-2003 03:08:04 24.8 C 10.7 g/m*3 24.8 C 0 km/h
20 13-08-2003 03:18:04 24.7 C 10.64 g/m*3 24.7 C 0 km/h
21 13-08-2003 03:28:04 24.5 C 10.52 g/m*3 24.5 C 0 km/h
22 13-08-2003 03:38:04 24.3 C 10.62 g/m*3 24.3 C 0 km/h
23 13-08-2003 03:48:04 24.5 C 10.74 g/m*3 24.5 C 0 km/h
24 13-08-2003 03:58:04 23.7 C 10.69 g/m*3 23.7 C 0 km/h
25 13-08-2003 04:08:04 23.7 C 10.69 g/m*3 23.7 C 0 km/h
Sensor: Nr:Datum:Temp:Abs-Feuchte:Windchill:Wind:
Aussen-T/F 26 13-08-2003 04:18:04 23.6 C 10.63 g/m*3 23.6 C 0 km/h
27 13-08-2003 04:28:04 23.4 C 10.72 g/m*3 23.4 C 0 km/h
28 13-08-2003 04:38:04 23.2 C 10.81 g/m*3 23.2 C 0 km/h
29 13-08-2003 04:48:04 22.9 C 10.83 g/m*3 22.9 C 0 km/h
30 13-08-2003 04:58:04 22.5 C 10.99 g/m*3 22.5 C 0 km/h
31 13-08-2003 05:08:04 22.5 C 10.99 g/m*3 22.5 C 0 km/h
32 13-08-2003 05:18:04 22.5 C 10.99 g/m*3 22.5 C 0 km/h
33 13-08-2003 05:28:04 22.4 C 10.92 g/m*3 22.4 C 0 km/h
34 13-08-2003 05:38:04 22.3 C 10.86 g/m*3 22.3 C 0 km/h
35 13-08-2003 05:48:04 22.1 C 10.74 g/m*3 22.1 C 0 km/h
36 13-08-2003 05:58:04 21.9 C 11 g/m*3 21.9 C 0 km/h
37 13-08-2003 06:08:04 21.9 C 10.81 g/m*3 21.9 C 0 km/h
38 13-08-2003 06:18:04 21.8 C 10.94 g/m*3 21.8 C 0 km/h
39 13-08-2003 06:28:04 21.6 C 10.81 g/m*3 21.6 C 0 km/h
40 13-08-2003 06:38:00 21.6 C 11 g/m*3 21.6 C 0 km/h
41 13-08-2003 06:48:00 21.6 C 10.81 g/m*3 21.6 C 0 km/h
42 13-08-2003 06:58:00 21.6 C 11 g/m*3 21.6 C 0 km/h
43 13-08-2003 07:08:01 21.8 C 11.13 g/m*3 21.8 C 0 km/h
44 13-08-2003 07:18:01 21.8 C 11.13 g/m*3 21.8 C 0 km/h
45 13-08-2003 07:28:01 21.8 C 11.32 g/m*3 21.8 C 0 km/h
46 13-08-2003 07:38:01 21.9 C 11.58 g/m*3 21.9 C 0 km/h
47 13-08-2003 07:48:01 21.7 C 11.45 g/m*3 21.7 C 0 km/h
48 13-08-2003 07:58:01 21.9 C 11.58 g/m*3 21.9 C 0 km/h
49 13-08-2003 08:08:01 22 C 11.65 g/m*3 22 C 0 km/h
50 13-08-2003 08:18:01 22.4 C 11.72 g/m*3 22.4 C 0 km/h
Sensor: Nr:Datum:Temp:Abs-Feuchte:Windchill:Wind:
Aussen-T/F 51 13-08-2003 08:28:01 22.8 C 12.6 g/m*3 22.8 C 0 km/h
52 13-08-2003 08:38:01 23.5 C 13.11 g/m*3 23.5 C 0 km/h
53 13-08-2003 08:48:01 24.2 C 13.2 g/m*3 24.2 C 0 km/h
54 13-08-2003 08:58:01 24.5 C 13.2 g/m*3 24.5 C 0 km/h
55 13-08-2003 09:08:02 24.9 C 13.51 g/m*3 24.9 C 0 km/h
56 13-08-2003 09:18:02 25.1 C 13.2 g/m*3 25.1 C 0 km/h
57 13-08-2003 09:28:02 25.3 C 13.34 g/m*3 25.3 C 0 km/h
58 13-08-2003 09:38:02 25.7 C 13.41 g/m*3 25.7 C 0 km/h
59 13-08-2003 09:48:02 26 C 13.39 g/m*3 26 C 0 km/h
60 13-08-2003 09:58:02 26.1 C 13.22 g/m*3 26.1 C 0 km/h
61 13-08-2003 10:08:02 25.9 C 13.32 g/m*3 25.9 C 0 km/h
62 13-08-2003 10:18:02 26 C 12.9 g/m*3 26 C 0 km/h
63 13-08-2003 10:28:02 26.6 C 12.84 g/m*3 26.6 C 0 km/h
64 13-08-2003 10:38:01 26.4 C 12.45 g/m*3 26.4 C 0 km/h
65 13-08-2003 10:48:01 26.5 C 12.52 g/m*3 26.5 C 0 km/h
66 13-08-2003 10:58:01 26.6 C 12.59 g/m*3 26.6 C 0 km/h
67 13-08-2003 11:07:59 26.7 C 12.4 g/m*3 26.7 C 0 km/h
68 13-08-2003 11:17:59 27.7 C 12.57 g/m*3 27.7 C 0 km/h
69 13-08-2003 11:27:59 27.6 C 12.5 g/m*3 27.6 C 0 km/h
70 13-08-2003 11:38:01 27.7 C 12.57 g/m*3 27.7 C 0 km/h
71 13-08-2003 11:48:01 28.2 C 12.37 g/m*3 28.2 C 0 km/h
72 13-08-2003 11:58:01 28.1 C 12.3 g/m*3 28.1 C 0 km/h
73 13-08-2003 12:08:01 28.8 C 12.5 g/m*3 28.8 C 0 km/h
74 13-08-2003 12:18:01 29.2 C 12.49 g/m*3 29.2 C 0 km/h
75 13-08-2003 12:28:01 29.2 C 12.49 g/m*3 29.2 C 0 km/h
Sensor: Nr:Datum:Temp:Abs-Feuchte:Windchill:Wind:
Aussen-T/F 76 13-08-2003 12:38:02 29.3 C 12.55 g/m*3 29.3 C 0 km/h
77 13-08-2003 12:48:02 29.8 C 12.6 g/m*3 29.8 C 0 km/h
78 13-08-2003 12:58:02 30.2 C 12.26 g/m*3 30.2 C 0 km/h
79 13-08-2003 13:08:01 30.1 C 12.2 g/m*3 30.1 C 0 km/h
80 13-08-2003 13:18:01 30.8 C 12.03 g/m*3 30.8 C 0 km/h
81 13-08-2003 13:28:01 30.9 C 11.78 g/m*3 30.9 C 0 km/h
82 13-08-2003 13:38:01 31.5 C 11.5 g/m*3 31.5 C 0 km/h
83 13-08-2003 13:48:01 31.5 C 10.85 g/m*3 31.5 C 0 km/h
84 13-08-2003 13:58:01 31.8 C 10.35 g/m*3 31.8 C 0 km/h
85 13-08-2003 14:08:02 31.9 C 10.41 g/m*3 31.9 C 0 km/h
86 13-08-2003 14:18:02 31.3 C 10.41 g/m*3 31.3 C 0 km/h
87 13-08-2003 14:28:02 31.9 C 10.41 g/m*3 31.9 C 0 km/h
88 13-08-2003 14:38:02 32.1 C 10.18 g/m*3 32.1 C 0 km/h
89 13-08-2003 14:48:02 32.2 C 10.24 g/m*3 32.2 C 0 km/h
90 13-08-2003 14:58:02 32.4 C 10.35 g/m*3 32.4 C 0 km/h
91 13-08-2003 15:08:01 32.1 C 10.52 g/m*3 32.1 C 0 km/h
92 13-08-2003 15:18:01 32.8 C 9.86 g/m*3 32.8 C 0 km/h
93 13-08-2003 15:28:01 32.5 C 10.05 g/m*3 32.5 C 0 km/h
94 13-08-2003 15:38:01 32.6 C 10.11 g/m*3 32.6 C 0 km/h
95 13-08-2003 15:48:01 32.7 C 9.81 g/m*3 32.7 C 0 km/h
96 13-08-2003 15:58:01 33.3 C 9.4 g/m*3 33.3 C 0 km/h
97 13-08-2003 16:08:05 33.8 C 9.28 g/m*3 33.8 C 0 km/h
98 13-08-2003 16:18:05 33.5 C 9.14 g/m*3 33.5 C 0 km/h
99 13-08-2003 16:28:05 33.8 C 9.28 g/m*3 33.8 C 0 km/h
100 13-08-2003 16:38:02 33.9 C 8.96 g/m*3 33.9 C 0 km/h
Sensor: Nr:Datum:Temp:Abs-Feuchte:Windchill:Wind:
Aussen-T/F 101 13-08-2003 16:48:02 33.8 C 8.54 g/m*3 33.8 C 0 km/h
102 13-08-2003 16:58:02 34.1 C 8.68 g/m*3 34.1 C 0 km/h
103 13-08-2003 17:08:00 33.8 C 8.54 g/m*3 33.8 C 0 km/h
104 13-08-2003 17:18:00 33.6 C 8.82 g/m*3 33.6 C 0 km/h
105 13-08-2003 17:28:00 33.3 C 8.68 g/m*3 33.3 C 0 km/h
106 13-08-2003 17:38:02 32.9 C 8.85 g/m*3 32.9 C 0 km/h
107 13-08-2003 17:48:02 32.8 C 8.81 g/m*3 32.8 C 0 km/h
108 13-08-2003 17:58:02 32.8 C 8.81 g/m*3 32.8 C 0 km/h
109 13-08-2003 18:08:02 32.2 C 8.53 g/m*3 32.2 C 0 km/h
110 13-08-2003 18:18:02 32.1 C 8.48 g/m*3 32.1 C 0 km/h
111 13-08-2003 18:28:02 32.5 C 8.32 g/m*3 32.5 C 0 km/h
112 13-08-2003 18:38:02 32.4 C 7.59 g/m*3 32.4 C 0 km/h
113 13-08-2003 18:48:02 32.7 C 7.71 g/m*3 32.7 C 0 km/h
114 13-08-2003 18:58:02 32.3 C 7.55 g/m*3 32.3 C 0 km/h
115 13-08-2003 19:08:03 32.4 C 7.59 g/m*3 32.4 C 0 km/h
116 13-08-2003 19:18:03 32.3 C 7.55 g/m*3 32.3 C 0 km/h
117 13-08-2003 19:28:03 31.8 C 7.68 g/m*3 31.8 C 0 km/h
118 13-08-2003 19:38:02 31.3 C 7.81 g/m*3 31.3 C 0 km/h
119 13-08-2003 19:48:02 31 C 8.32 g/m*3 31 C 0 km/h
120 13-08-2003 19:58:02 30.9 C 7.96 g/m*3 30.9 C 0 km/h
121 13-08-2003 20:08:02 30.7 C 8.19 g/m*3 30.7 C 0 km/h
122 13-08-2003 20:18:02 30.1 C 8.54 g/m*3 30.1 C 0 km/h
123 13-08-2003 20:28:02 30 C 8.79 g/m*3 30 C 0 km/h
124 13-08-2003 20:38:02 29.8 C 9 g/m*3 29.8 C 0 km/h
125 13-08-2003 20:48:02 29.6 C 8.9 g/m*3 29.6 C 0 km/h
Sensor: Nr:Datum:Temp:Abs-Feuchte:Windchill:Wind:
Aussen-T/F 126 13-08-2003 20:58:02 29.3 C 8.76 g/m*3 29.3 C 0 km/h
127 13-08-2003 21:08:01 28.7 C 8.76 g/m*3 28.7 C 0 km/h
128 13-08-2003 21:18:01 28.5 C 8.94 g/m*3 28.5 C 0 km/h
129 13-08-2003 21:28:01 28.4 C 8.9 g/m*3 28.4 C 0 km/h
130 13-08-2003 21:38:02 27.9 C 8.65 g/m*3 27.9 C 0 km/h
131 13-08-2003 21:48:02 27.7 C 8.83 g/m*3 27.7 C 0 km/h
132 13-08-2003 21:58:02 27.4 C 8.95 g/m*3 27.4 C 0 km/h
133 13-08-2003 22:09:03 27.3 C 9.16 g/m*3 27.3 C 0 km/h
134 13-08-2003 22:19:03 27.1 C 9.06 g/m*3 27.1 C 0 km/h
135 13-08-2003 22:29:03 26.8 C 9.42 g/m*3 26.8 C 0 km/h
136 13-08-2003 22:39:03 26.9 C 9.47 g/m*3 26.9 C 0 km/h
137 13-08-2003 22:49:03 26.7 C 9.37 g/m*3 26.7 C 0 km/h
138 13-08-2003 22:59:03 26.5 C 9.26 g/m*3 26.5 C 0 km/h
139 13-08-2003 23:09:03 26.7 C 9.37 g/m*3 26.7 C 0 km/h
140 13-08-2003 23:19:03 26.5 C 9.51 g/m*3 26.5 C 0 km/h
141 13-08-2003 23:29:03 26.2 C 9.85 g/m*3 26.2 C 0 km/h
142 13-08-2003 23:39:03 26 C 9.74 g/m*3 26 C 0 km/h
143 13-08-2003 23:49:03 26 C 9.74 g/m*3 26 C 0 km/h
144 13-08-2003 23:59:03 25.9 C 9.68 g/m*3 25.9 C 0 km/h
145 14-08-2003 00:09:03 25.8 C 9.87 g/m*3 25.8 C 0 km/h
146 14-08-2003 00:19:03 25.4 C 9.89 g/m*3 25.4 C 0 km/h
147 14-08-2003 00:29:03 25.1 C 9.72 g/m*3 25.1 C 0 km/h
148 14-08-2003 00:39:03 24.8 C 10.24 g/m*3 24.8 C 0 km/h
149 14-08-2003 00:49:03 24.5 C 10.07 g/m*3 24.5 C 0 km/h
150 14-08-2003 00:59:03 24.4 C 10.01 g/m*3 24.4 C 0 km/h
Sensor: Nr:Datum:Temp:Abs-Feuchte:Windchill:Wind:
Aussen-T/F 151 14-08-2003 01:09:03 24.4 C 10.24 g/m*3 24.4 C 0 km/h
152 14-08-2003 01:19:03 24.2 C 10.12 g/m*3 24.2 C 0 km/h
153 14-08-2003 01:29:03 24.1 C 10.28 g/m*3 24.1 C 0 km/h
154 14-08-2003 01:39:03 24.1 C 10.28 g/m*3 24.1 C 0 km/h
155 14-08-2003 01:49:03 23.9 C 10.6 g/m*3 23.9 C 0 km/h
156 14-08-2003 01:59:03 23.9 C 10.6 g/m*3 23.9 C 0 km/h
157 14-08-2003 02:09:03 23.8 C 10.76 g/m*3 23.8 C 0 km/h
158 14-08-2003 02:19:03 23.7 C 10.69 g/m*3 23.7 C 0 km/h
159 14-08-2003 02:29:03 23.5 C 10.79 g/m*3 23.5 C 0 km/h
160 14-08-2003 02:39:03 23.4 C 10.93 g/m*3 23.4 C 0 km/h
161 14-08-2003 02:49:03 23.4 C 10.93 g/m*3 23.4 C 0 km/h
162 14-08-2003 02:59:03 23.3 C 10.87 g/m*3 23.3 C 0 km/h
163 14-08-2003 03:09:03 23.3 C 11.08 g/m*3 23.3 C 0 km/h
164 14-08-2003 03:19:03 22.7 C 10.91 g/m*3 22.7 C 0 km/h
165 14-08-2003 03:29:03 21.6 C 12.71 g/m*3 21.6 C 0 km/h
166 14-08-2003 03:39:03 21.6 C 12.9 g/m*3 21.6 C 0 km/h
167 14-08-2003 03:49:03 20.9 C 13.3 g/m*3 20.9 C 0 km/h
168 14-08-2003 03:59:03 20.6 C 13.24 g/m*3 20.6 C 0 km/h
169 14-08-2003 04:09:03 20.8 C 12.86 g/m*3 20.8 C 0 km/h
170 14-08-2003 04:19:03 21.2 C 12.23 g/m*3 21.2 C 0 km/h
171 14-08-2003 04:29:03 21.2 C 12.42 g/m*3 21.2 C 0 km/h
172 14-08-2003 04:39:03 21.3 C 12.3 g/m*3 21.3 C 0 km/h
173 14-08-2003 04:49:03 21.5 C 12.07 g/m*3 21.5 C 0 km/h
174 14-08-2003 04:59:03 21.3 C 12.3 g/m*3 21.3 C 0 km/h
175 14-08-2003 05:09:03 21.1 C 12.16 g/m*3 21.1 C 0 km/h
Sensor: Nr:Datum:Temp:Abs-Feuchte:Windchill:Wind:
Aussen-T/F 176 14-08-2003 05:19:03 21 C 12.27 g/m*3 21 C 0 km/h
177 14-08-2003 05:29:03 20.1 C 12.86 g/m*3 20.1 C 0 km/h
178 14-08-2003 05:39:03 20.1 C 12.86 g/m*3 20.1 C 0 km/h
179 14-08-2003 05:49:03 20.1 C 12.69 g/m*3 20.1 C 0 km/h
180 14-08-2003 05:59:03 20.4 C 12.91 g/m*3 20.4 C 0 km/h
181 14-08-2003 06:09:03 20.5 C 12.81 g/m*3 20.5 C 0 km/h
182 14-08-2003 06:19:03 20.6 C 12.53 g/m*3 20.6 C 0 km/h
183 14-08-2003 06:29:03 20.9 C 12.38 g/m*3 20.9 C 0 km/h
184 14-08-2003 06:39:03 20.5 C 12.28 g/m*3 20.5 C 0 km/h
185 14-08-2003 06:49:03 20.3 C 12.31 g/m*3 20.3 C 0 km/h
186 14-08-2003 06:59:03 20.3 C 12.66 g/m*3 20.3 C 0 km/h
187 14-08-2003 07:09:03 20.4 C 12.74 g/m*3 20.4 C 0 km/h
188 14-08-2003 07:19:03 20.8 C 12.67 g/m*3 20.8 C 0 km/h
189 14-08-2003 07:29:03 21 C 12.64 g/m*3 21 C 0 km/h
190 14-08-2003 07:39:03 21.2 C 12.79 g/m*3 21.2 C 0 km/h
191 14-08-2003 07:49:03 21.4 C 12.75 g/m*3 21.4 C 0 km/h
192 14-08-2003 07:59:03 21.4 C 12.56 g/m*3 21.4 C 0 km/h
193 14-08-2003 08:09:03 21.6 C 12.14 g/m*3 21.6 C 0 km/h
194 14-08-2003 08:19:03 21.8 C 12.47 g/m*3 21.8 C 0 km/h
195 14-08-2003 08:29:03 21.9 C 12.54 g/m*3 21.9 C 0 km/h
196 14-08-2003 08:39:03 21.9 C 12.35 g/m*3 21.9 C 0 km/h
197 14-08-2003 08:49:03 22.2 C 12.37 g/m*3 22.2 C 0 km/h
198 14-08-2003 08:59:03 22.4 C 12.31 g/m*3 22.4 C 0 km/h
199 14-08-2003 09:09:03 22.5 C 12.18 g/m*3 22.5 C 0 km/h
200 14-08-2003 09:19:03 22.7 C 12.32 g/m*3 22.7 C 0 km/h
Sensor: Nr:Datum:Temp:Abs-Feuchte:Windchill:Wind:
Aussen-T/F 201 14-08-2003 09:29:03 22.7 C 12.12 g/m*3 22.7 C 0 km/h
202 14-08-2003 09:39:01 23.2 C 12.06 g/m*3 23.2 C 0 km/h
203 14-08-2003 09:49:01 24.2 C 12.32 g/m*3 24.2 C 0 km/h
204 14-08-2003 09:59:01 24.4 C 12.02 g/m*3 24.4 C 0 km/h
205 14-08-2003 10:09:01 24.9 C 11.9 g/m*3 24.9 C 0 km/h
206 14-08-2003 10:19:01 24.6 C 11.48 g/m*3 24.6 C 0 km/h
207 14-08-2003 10:29:01 24.9 C 11.67 g/m*3 24.9 C 0 km/h
208 14-08-2003 10:39:00 25.3 C 11.47 g/m*3 25.3 C 0 km/h
209 14-08-2003 10:49:00 25.8 C 11.8 g/m*3 25.8 C 0 km/h
210 14-08-2003 10:59:00 26.6 C 12.59 g/m*3 26.6 C 0 km/h
211 14-08-2003 11:09:01 26.2 C 11.57 g/m*3 26.2 C 0 km/h
212 14-08-2003 11:19:01 26.3 C 11.88 g/m*3 26.3 C 0 km/h
213 14-08-2003 11:29:01 26.3 C 11.64 g/m*3 26.3 C 0 km/h
214 14-08-2003 11:39:00 26.6 C 11.83 g/m*3 26.6 C 0 km/h
215 14-08-2003 11:49:00 26.7 C 11.9 g/m*3 26.7 C 0 km/h
216 14-08-2003 11:59:00 27.1 C 11.65 g/m*3 27.1 C 0 km/h
217 14-08-2003 12:09:01 26.6 C 11.08 g/m*3 26.6 C 0 km/h
218 14-08-2003 12:19:01 26.6 C 10.57 g/m*3 26.6 C 0 km/h
219 14-08-2003 12:29:01 27.2 C 10.15 g/m*3 27.2 C 0 km/h
220 14-08-2003 12:39:01 27.5 C 10.32 g/m*3 27.5 C 0 km/h
221 14-08-2003 12:49:01 28 C 10.06 g/m*3 28 C 0 km/h
222 14-08-2003 12:59:01 28.8 C 10.23 g/m*3 28.8 C 0 km/h
223 14-08-2003 13:09:00 28.2 C 10.17 g/m*3 28.2 C 0 km/h
224 14-08-2003 13:19:00 28.2 C 10.45 g/m*3 28.2 C 0 km/h
225 14-08-2003 13:29:00 29 C 10.34 g/m*3 29 C 0 km/h
Sensor: Nr:Datum:Temp:Abs-Feuchte:Windchill:Wind:
Aussen-T/F 226 14-08-2003 13:39:02 28.6 C 10.12 g/m*3 28.6 C 0 km/h
227 14-08-2003 13:49:02 27.9 C 9.47 g/m*3 27.9 C 0 km/h
228 14-08-2003 13:59:02 27.8 C 9.68 g/m*3 27.8 C 0 km/h
229 14-08-2003 14:09:01 28.4 C 10.01 g/m*3 28.4 C 0 km/h
230 14-08-2003 14:19:01 28.4 C 9.73 g/m*3 28.4 C 0 km/h
231 14-08-2003 14:29:01 28.1 C 9.57 g/m*3 28.1 C 0 km/h
232 14-08-2003 14:39:01 27.9 C 9.47 g/m*3 27.9 C 0 km/h
233 14-08-2003 14:49:01 28.2 C 9.9 g/m*3 28.2 C 0 km/h
234 14-08-2003 14:59:01 28.8 C 10.23 g/m*3 28.8 C 0 km/h
235 14-08-2003 15:09:01 28.8 C 10.23 g/m*3 28.8 C 0 km/h
236 14-08-2003 15:19:01 27.4 C 10 g/m*3 27.4 C 0 km/h
237 14-08-2003 15:29:01 26.4 C 9.71 g/m*3 26.4 C 0 km/h
238 14-08-2003 15:39:02 26.6 C 9.82 g/m*3 26.6 C 0 km/h
239 14-08-2003 15:49:02 27 C 9.78 g/m*3 27 C 0 km/h
240 14-08-2003 15:59:02 26.8 C 9.42 g/m*3 26.8 C 0 km/h
241 14-08-2003 16:09:02 27.5 C 9.52 g/m*3 27.5 C 0 km/h
242 14-08-2003 16:19:02 26.8 C 9.67 g/m*3 26.8 C 0 km/h
243 14-08-2003 16:29:02 25.8 C 9.63 g/m*3 25.8 C 0 km/h
244 14-08-2003 16:39:01 25.9 C 9.68 g/m*3 25.9 C 0 km/h
245 14-08-2003 16:49:01 26.1 C 9.79 g/m*3 26.1 C 0 km/h
246 14-08-2003 16:59:01 26.6 C 9.57 g/m*3 26.6 C 0 km/h
247 14-08-2003 17:09:01 26.8 C 9.42 g/m*3 26.8 C 0 km/h
248 14-08-2003 17:19:01 26.6 C 8.81 g/m*3 26.6 C 0 km/h
249 14-08-2003 17:29:01 26.2 C 8.62 g/m*3 26.2 C 0 km/h
250 14-08-2003 17:39:02 25.7 C 8.62 g/m*3 25.7 C 0 km/h
Sensor: Nr:Datum:Temp:Abs-Feuchte:Windchill:Wind:
Aussen-T/F 251 14-08-2003 17:49:02 25.8 C 8.91 g/m*3 25.8 C 0 km/h
252 14-08-2003 17:59:02 25.5 C 8.29 g/m*3 25.5 C 0 km/h
253 14-08-2003 18:09:02 26.7 C 8.1 g/m*3 26.7 C 0 km/h
254 14-08-2003 18:19:02 26.8 C 7.64 g/m*3 26.8 C 0 km/h
255 14-08-2003 18:29:02 27 C 7.46 g/m*3 27 C 0 km/h
256 14-08-2003 18:39:02 26.8 C 7.13 g/m*3 26.8 C 0 km/h
257 14-08-2003 18:49:02 26.8 C 6.87 g/m*3 26.8 C 0 km/h
258 14-08-2003 18:59:02 26.7 C 7.59 g/m*3 26.7 C 0 km/h
259 14-08-2003 19:09:02 26.9 C 7.42 g/m*3 26.9 C 0 km/h
260 14-08-2003 19:19:02 26.2 C 6.89 g/m*3 26.2 C 0 km/h
261 14-08-2003 19:29:02 25.7 C 6.94 g/m*3 25.7 C 0 km/h
262 14-08-2003 19:39:01 25.2 C 7.22 g/m*3 25.2 C 0 km/h
263 14-08-2003 19:49:01 24.9 C 7.55 g/m*3 24.9 C 0 km/h
264 14-08-2003 19:59:01 24.7 C 7.7 g/m*3 24.7 C 0 km/h
265 14-08-2003 20:09:01 24.1 C 7.44 g/m*3 24.1 C 0 km/h
266 14-08-2003 20:19:01 24.1 C 7.44 g/m*3 24.1 C 0 km/h
267 14-08-2003 20:29:01 24 C 7.4 g/m*3 24 C 0 km/h
268 14-08-2003 20:39:02 23.9 C 7.57 g/m*3 23.9 C 0 km/h
269 14-08-2003 20:49:02 23.7 C 7.49 g/m*3 23.7 C 0 km/h
270 14-08-2003 20:59:02 23.5 C 7.4 g/m*3 23.5 C 0 km/h
271 14-08-2003 21:09:02 23.5 C 7.4 g/m*3 23.5 C 0 km/h
272 14-08-2003 21:19:02 23.6 C 7.44 g/m*3 23.6 C 0 km/h
273 14-08-2003 21:29:02 23.5 C 7.4 g/m*3 23.5 C 0 km/h
274 14-08-2003 21:39:01 23.3 C 7.32 g/m*3 23.3 C 0 km/h
275 14-08-2003 21:49:01 22.9 C 7.15 g/m*3 22.9 C 0 km/h
Sensor: Nr:Datum:Temp:Abs-Feuchte:Windchill:Wind:
Aussen-T/F 276 14-08-2003 21:59:01 22.6 C 7.03 g/m*3 22.6 C 0 km/h
277 14-08-2003 22:10:03 22.3 C 6.91 g/m*3 22.3 C 0 km/h
278 14-08-2003 22:20:03 21.9 C 6.95 g/m*3 21.9 C 0 km/h
279 14-08-2003 22:30:03 21.5 C 6.98 g/m*3 21.5 C 0 km/h
280 14-08-2003 22:40:03 21.1 C 6.45 g/m*3 21.1 C 0 km/h
281 14-08-2003 22:50:03 21 C 6.41 g/m*3 21 C 0 km/h
282 14-08-2003 23:00:03 21 C 6.41 g/m*3 21 C 0 km/h
283 14-08-2003 23:10:03 20.8 C 6.52 g/m*3 20.8 C 0 km/h
284 14-08-2003 23:20:03 20.7 C 6.48 g/m*3 20.7 C 0 km/h
285 14-08-2003 23:30:03 20.5 C 6.58 g/m*3 20.5 C 0 km/h
286 14-08-2003 23:40:03 20.4 C 6.72 g/m*3 20.4 C 0 km/h
287 14-08-2003 23:50:03 20.2 C 6.64 g/m*3 20.2 C 0 km/h
288 15-08-2003 00:00:03 20 C 6.74 g/m*3 20 C 0 km/h
289 15-08-2003 00:10:03 19.9 C 6.87 g/m*3 19.9 C 0 km/h
290 15-08-2003 00:20:03 19.5 C 6.71 g/m*3 19.5 C 0 km/h
291 15-08-2003 00:30:03 19.3 C 6.8 g/m*3 19.3 C 0 km/h
292 15-08-2003 00:40:03 19.2 C 6.93 g/m*3 19.2 C 0 km/h
293 15-08-2003 00:50:03 19 C 6.84 g/m*3 19 C 0 km/h
294 15-08-2003 01:00:03 18.8 C 7.09 g/m*3 18.8 C 0 km/h
295 15-08-2003 01:10:03 18.6 C 7.16 g/m*3 18.6 C 0 km/h
296 15-08-2003 01:20:03 18.3 C 7.04 g/m*3 18.3 C 0 km/h
297 15-08-2003 01:30:03 18.2 C 7.15 g/m*3 18.2 C 0 km/h
298 15-08-2003 01:40:03 17.9 C 7.33 g/m*3 17.9 C 0 km/h
299 15-08-2003 01:50:03 17.8 C 7.29 g/m*3 17.8 C 0 km/h
300 15-08-2003 02:00:03 17.7 C 7.39 g/m*3 17.7 C 0 km/h
Sensor: Nr:Datum:Temp:Abs-Feuchte:Windchill:Wind:
Aussen-T/F 301 15-08-2003 02:10:03 17.5 C 7.31 g/m*3 17.5 C 0 km/h
302 15-08-2003 02:20:03 17.3 C 7.37 g/m*3 17.3 C 0 km/h
303 15-08-2003 02:30:03 17.1 C 7.42 g/m*3 17.1 C 0 km/h
304 15-08-2003 02:40:03 16.9 C 7.48 g/m*3 16.9 C 0 km/h
305 15-08-2003 02:50:03 16.8 C 7.58 g/m*3 16.8 C 0 km/h
306 15-08-2003 03:00:03 16.6 C 7.63 g/m*3 16.6 C 0 km/h
307 15-08-2003 03:10:03 16.4 C 7.68 g/m*3 16.4 C 0 km/h
308 15-08-2003 03:20:03 16.2 C 7.72 g/m*3 16.2 C 0 km/h
309 15-08-2003 03:30:03 16.2 C 7.72 g/m*3 16.2 C 0 km/h
310 15-08-2003 03:40:03 15.9 C 7.85 g/m*3 15.9 C 0 km/h
311 15-08-2003 03:50:03 15.8 C 7.81 g/m*3 15.8 C 0 km/h
312 15-08-2003 04:00:03 15.6 C 7.85 g/m*3 15.6 C 0 km/h
313 15-08-2003 04:10:03 15.5 C 7.93 g/m*3 15.5 C 0 km/h
314 15-08-2003 04:20:03 15.2 C 7.92 g/m*3 15.2 C 0 km/h
315 15-08-2003 04:30:03 14.9 C 7.9 g/m*3 14.9 C 0 km/h
316 15-08-2003 04:40:03 14.7 C 7.93 g/m*3 14.7 C 0 km/h
317 15-08-2003 04:50:03 14.6 C 7.88 g/m*3 14.6 C 0 km/h
318 15-08-2003 05:00:03 14.5 C 7.96 g/m*3 14.5 C 0 km/h
319 15-08-2003 05:10:03 14.3 C 7.99 g/m*3 14.3 C 0 km/h
320 15-08-2003 05:20:03 14.3 C 7.99 g/m*3 14.3 C 0 km/h
321 15-08-2003 05:30:03 14.4 C 8.16 g/m*3 14.4 C 0 km/h
322 15-08-2003 05:40:03 14.2 C 8.06 g/m*3 14.2 C 0 km/h
323 15-08-2003 05:50:03 14 C 8.08 g/m*3 14 C 0 km/h
324 15-08-2003 06:00:03 13.8 C 8.1 g/m*3 13.8 C 0 km/h
325 15-08-2003 06:10:03 13.7 C 8.17 g/m*3 13.7 C 0 km/h
Sensor: Nr:Datum:Temp:Abs-Feuchte:Windchill:Wind:
Aussen-T/F 326 15-08-2003 06:20:03 13.6 C 8.12 g/m*3 13.6 C 0 km/h
327 15-08-2003 06:30:03 13.5 C 8.19 g/m*3 13.5 C 0 km/h
328 15-08-2003 06:40:03 13.5 C 8.42 g/m*3 13.5 C 0 km/h
329 15-08-2003 06:50:03 13.5 C 8.42 g/m*3 13.5 C 0 km/h
330 15-08-2003 07:00:03 13.6 C 8.47 g/m*3 13.6 C 0 km/h
331 15-08-2003 07:10:03 13.7 C 8.53 g/m*3 13.7 C 0 km/h
332 15-08-2003 07:20:03 13.8 C 8.58 g/m*3 13.8 C 0 km/h
333 15-08-2003 07:30:03 14 C 8.68 g/m*3 14 C 0 km/h
334 15-08-2003 07:40:03 14.1 C 8.62 g/m*3 14.1 C 0 km/h
335 15-08-2003 07:50:03 14.7 C 8.81 g/m*3 14.7 C 0 km/h
336 15-08-2003 08:00:03 15 C 8.46 g/m*3 15 C 0 km/h
337 15-08-2003 08:10:03 15 C 8.46 g/m*3 15 C 0 km/h
338 15-08-2003 08:20:03 15.2 C 8.7 g/m*3 15.2 C 0 km/h
339 15-08-2003 08:30:03 15.2 C 8.7 g/m*3 15.2 C 0 km/h
340 15-08-2003 08:40:01 15.3 C 8.88 g/m*3 15.3 C 0 km/h
341 15-08-2003 08:50:01 15.6 C 9.04 g/m*3 15.6 C 0 km/h
342 15-08-2003 09:00:01 15.6 C 9.04 g/m*3 15.6 C 0 km/h
343 15-08-2003 09:10:01 15.9 C 9.21 g/m*3 15.9 C 0 km/h
344 15-08-2003 09:20:01 16.1 C 9.18 g/m*3 16.1 C 0 km/h
345 15-08-2003 09:30:01 16.5 C 9.27 g/m*3 16.5 C 0 km/h
346 15-08-2003 09:40:01 17 C 9.12 g/m*3 17 C 0 km/h
347 15-08-2003 09:50:01 17.1 C 9.03 g/m*3 17.1 C 0 km/h
348 15-08-2003 10:00:01 18.1 C 9.27 g/m*3 18.1 C 0 km/h
349 15-08-2003 10:10:01 18.8 C 9.02 g/m*3 18.8 C 0 km/h
350 15-08-2003 10:20:01 19.4 C 9.18 g/m*3 19.4 C 0 km/h
Sensor: Nr:Datum:Temp:Abs-Feuchte:Windchill:Wind:
Aussen-T/F 351 15-08-2003 10:30:01 19.7 C 9.17 g/m*3 19.7 C 0 km/h
352 15-08-2003 10:40:02 20 C 8.81 g/m*3 20 C 0 km/h
353 15-08-2003 10:50:02 20.8 C 8.87 g/m*3 20.8 C 0 km/h
354 15-08-2003 11:00:02 20 C 8.64 g/m*3 20 C 0 km/h
355 15-08-2003 11:10:01 19.5 C 8.56 g/m*3 19.5 C 0 km/h
356 15-08-2003 11:20:01 20.4 C 8.49 g/m*3 20.4 C 0 km/h
357 15-08-2003 11:30:01 21.2 C 8.52 g/m*3 21.2 C 0 km/h
358 15-08-2003 11:40:01 20.3 C 8.09 g/m*3 20.3 C 0 km/h
359 15-08-2003 11:50:01 21.3 C 8.2 g/m*3 21.3 C 0 km/h
360 15-08-2003 12:00:01 21.9 C 7.91 g/m*3 21.9 C 0 km/h
361 15-08-2003 12:10:01 21.9 C 7.53 g/m*3 21.9 C 0 km/h
362 15-08-2003 12:20:01 22.1 C 7.81 g/m*3 22.1 C 0 km/h
363 15-08-2003 12:30:01 22.1 C 7.42 g/m*3 22.1 C 0 km/h
364 15-08-2003 12:40:01 22.2 C 7.46 g/m*3 22.2 C 0 km/h
365 15-08-2003 12:50:01 23.3 C 7.53 g/m*3 23.3 C 0 km/h
366 15-08-2003 13:00:01 24.5 C 7.39 g/m*3 24.5 C 0 km/h
367 15-08-2003 13:10:01 24.6 C 6.98 g/m*3 24.6 C 0 km/h
368 15-08-2003 13:20:01 24.8 C 7.06 g/m*3 24.8 C 0 km/h
369 15-08-2003 13:30:01 25.8 C 7.22 g/m*3 25.8 C 0 km/h
370 15-08-2003 13:40:00 25 C 7.14 g/m*3 25 C 0 km/h
371 15-08-2003 13:50:00 25.3 C 6.55 g/m*3 25.3 C 0 km/h
372 15-08-2003 14:00:00 25.2 C 6.75 g/m*3 25.2 C 0 km/h
373 15-08-2003 14:10:00 25.4 C 7.3 g/m*3 25.4 C 0 km/h
374 15-08-2003 14:20:00 26.3 C 6.93 g/m*3 26.3 C 0 km/h
375 15-08-2003 14:30:00 26.7 C 7.34 g/m*3 26.7 C 0 km/h
Sensor: Nr:Datum:Temp:Abs-Feuchte:Windchill:Wind:
Aussen-T/F 376 15-08-2003 14:40:01 26.7 C 7.09 g/m*3 26.7 C 0 km/h
377 15-08-2003 14:50:01 28 C 7.61 g/m*3 28 C 0 km/h
378 15-08-2003 15:00:01 28.7 C 7.35 g/m*3 28.7 C 0 km/h
379 15-08-2003 15:10:01 29.4 C 6.75 g/m*3 29.4 C 0 km/h
380 15-08-2003 15:20:01 29.2 C 7.26 g/m*3 29.2 C 0 km/h
381 15-08-2003 15:30:01 29.4 C 6.75 g/m*3 29.4 C 0 km/h
382 15-08-2003 15:40:01 28.6 C 6.74 g/m*3 28.6 C 0 km/h
383 15-08-2003 15:50:01 29.3 C 6.42 g/m*3 29.3 C 0 km/h
384 15-08-2003 16:00:01 30 C 6.37 g/m*3 30 C 0 km/h
385 15-08-2003 16:10:00 30.1 C 6.1 g/m*3 30.1 C 0 km/h
386 15-08-2003 16:20:00 30 C 6.06 g/m*3 30 C 0 km/h
387 15-08-2003 16:30:00 30.1 C 6.1 g/m*3 30.1 C 0 km/h
388 15-08-2003 16:40:02 29.5 C 5.9 g/m*3 29.5 C 0 km/h
389 15-08-2003 16:50:02 30.2 C 6.13 g/m*3 30.2 C 0 km/h
390 15-08-2003 17:00:02 30 C 6.06 g/m*3 30 C 0 km/h
391 15-08-2003 17:10:02 30.2 C 6.13 g/m*3 30.2 C 0 km/h
392 15-08-2003 17:20:02 29.8 C 6 g/m*3 29.8 C 0 km/h
393 15-08-2003 17:30:02 30.2 C 6.13 g/m*3 30.2 C 0 km/h
394 15-08-2003 17:40:02 30.3 C 6.16 g/m*3 30.3 C 0 km/h
395 15-08-2003 17:50:02 31 C 6.4 g/m*3 31 C 0 km/h
396 15-08-2003 18:00:02 31 C 6.4 g/m*3 31 C 0 km/h
397 15-08-2003 18:10:00 30.3 C 6.16 g/m*3 30.3 C 0 km/h
398 15-08-2003 18:20:00 29.8 C 6 g/m*3 29.8 C 0 km/h
399 15-08-2003 18:30:00 30.2 C 6.13 g/m*3 30.2 C 0 km/h
400 15-08-2003 18:40:01 30.6 C 6.26 g/m*3 30.6 C 0 km/h
Sensor: Nr:Datum:Temp:Abs-Feuchte:Windchill:Wind:
Aussen-T/F 401 15-08-2003 18:50:01 30.6 C 6.26 g/m*3 30.6 C 0 km/h
402 15-08-2003 19:00:01 30 C 6.06 g/m*3 30 C 0 km/h
403 15-08-2003 19:10:01 29.8 C 6 g/m*3 29.8 C 0 km/h
404 15-08-2003 19:20:01 28.6 C 5.62 g/m*3 28.6 C 0 km/h
405 15-08-2003 19:30:01 29.2 C 5.81 g/m*3 29.2 C 0 km/h
406 15-08-2003 19:40:01 28.9 C 5.71 g/m*3 28.9 C 0 km/h
407 15-08-2003 19:50:01 28.3 C 5.53 g/m*3 28.3 C 0 km/h
408 15-08-2003 20:00:01 27.6 C 5.59 g/m*3 27.6 C 0 km/h
409 15-08-2003 20:10:02 27.4 C 5.79 g/m*3 27.4 C 0 km/h
410 15-08-2003 20:20:02 25.9 C 6.05 g/m*3 25.9 C 0 km/h
411 15-08-2003 20:30:02 25 C 6.22 g/m*3 25 C 0 km/h
412 15-08-2003 20:40:01 24.6 C 6.3 g/m*3 24.6 C 0 km/h
413 15-08-2003 20:50:01 23.8 C 6.45 g/m*3 23.8 C 0 km/h
414 15-08-2003 21:00:01 23.1 C 6.41 g/m*3 23.1 C 0 km/h
415 15-08-2003 21:10:01 22.5 C 6.39 g/m*3 22.5 C 0 km/h
416 15-08-2003 21:20:01 22.2 C 6.68 g/m*3 22.2 C 0 km/h
417 15-08-2003 21:30:01 21.9 C 6.75 g/m*3 21.9 C 0 km/h
418 15-08-2003 21:40:01 21.5 C 6.79 g/m*3 21.5 C 0 km/h
419 15-08-2003 21:50:01 20.9 C 6.74 g/m*3 20.9 C 0 km/h
420 15-08-2003 22:00:01 20.3 C 6.86 g/m*3 20.3 C 0 km/h
421 15-08-2003 22:10:00 20.1 C 6.95 g/m*3 20.1 C 0 km/h
422 15-08-2003 22:20:00 20 C 6.91 g/m*3 20 C 0 km/h
423 15-08-2003 22:30:00 20 C 6.91 g/m*3 20 C 0 km/h
424 15-08-2003 22:41:03 19.6 C 6.92 g/m*3 19.6 C 0 km/h
425 15-08-2003 22:51:03 19.5 C 7.05 g/m*3 19.5 C 0 km/h
Sensor: Nr:Datum:Temp:Abs-Feuchte:Windchill:Wind:
Aussen-T/F 426 15-08-2003 23:01:03 19.5 C 7.05 g/m*3 19.5 C 0 km/h
427 15-08-2003 23:11:03 19.1 C 7.05 g/m*3 19.1 C 0 km/h
428 15-08-2003 23:21:03 18.9 C 7.13 g/m*3 18.9 C 0 km/h
429 15-08-2003 23:31:03 18.9 C 7.29 g/m*3 18.9 C 0 km/h
430 15-08-2003 23:41:03 18.7 C 7.2 g/m*3 18.7 C 0 km/h
431 15-08-2003 23:51:03 18.5 C 7.28 g/m*3 18.5 C 0 km/h
432 16-08-2003 00:01:03 18.2 C 7.46 g/m*3 18.2 C 0 km/h
433 16-08-2003 00:11:03 18 C 7.22 g/m*3 18 C 0 km/h
434 16-08-2003 00:21:03 17.8 C 7.29 g/m*3 17.8 C 0 km/h
435 16-08-2003 00:31:03 17.4 C 7.41 g/m*3 17.4 C 0 km/h
436 16-08-2003 00:41:03 17.4 C 7.26 g/m*3 17.4 C 0 km/h
437 16-08-2003 00:51:03 16.9 C 7.48 g/m*3 16.9 C 0 km/h
438 16-08-2003 01:01:03 16.9 C 7.62 g/m*3 16.9 C 0 km/h
439 16-08-2003 01:11:03 16.7 C 7.53 g/m*3 16.7 C 0 km/h
440 16-08-2003 01:21:03 16.7 C 7.67 g/m*3 16.7 C 0 km/h
441 16-08-2003 01:31:03 16.3 C 7.35 g/m*3 16.3 C 0 km/h
442 16-08-2003 01:41:03 16.3 C 7.63 g/m*3 16.3 C 0 km/h
443 16-08-2003 01:51:03 16 C 7.63 g/m*3 16 C 0 km/h
444 16-08-2003 02:01:03 15.8 C 7.81 g/m*3 15.8 C 0 km/h
445 16-08-2003 02:11:03 15.7 C 7.76 g/m*3 15.7 C 0 km/h
446 16-08-2003 02:21:03 15.5 C 7.67 g/m*3 15.5 C 0 km/h
447 16-08-2003 02:31:03 15.3 C 7.57 g/m*3 15.3 C 0 km/h
448 16-08-2003 02:41:03 15.2 C 7.66 g/m*3 15.2 C 0 km/h
449 16-08-2003 02:51:03 15 C 7.57 g/m*3 15 C 0 km/h
450 16-08-2003 03:01:03 15 C 7.69 g/m*3 15 C 0 km/h
Sensor: Nr:Datum:Temp:Abs-Feuchte:Windchill:Wind:
Aussen-T/F 451 16-08-2003 03:11:03 14.7 C 7.93 g/m*3 14.7 C 0 km/h
452 16-08-2003 03:21:03 14.7 C 7.93 g/m*3 14.7 C 0 km/h
453 16-08-2003 03:31:03 14.4 C 7.79 g/m*3 14.4 C 0 km/h
454 16-08-2003 03:41:03 14.4 C 7.79 g/m*3 14.4 C 0 km/h
455 16-08-2003 03:51:03 14.3 C 7.74 g/m*3 14.3 C 0 km/h
456 16-08-2003 04:01:03 14.2 C 7.69 g/m*3 14.2 C 0 km/h
457 16-08-2003 04:11:03 14.1 C 7.65 g/m*3 14.1 C 0 km/h
458 16-08-2003 04:21:03 13.9 C 7.79 g/m*3 13.9 C 0 km/h
459 16-08-2003 04:31:03 13.7 C 7.82 g/m*3 13.7 C 0 km/h
460 16-08-2003 04:41:03 13.5 C 7.84 g/m*3 13.5 C 0 km/h
461 16-08-2003 04:51:03 13.4 C 7.79 g/m*3 13.4 C 0 km/h
462 16-08-2003 05:01:03 13.4 C 7.79 g/m*3 13.4 C 0 km/h
463 16-08-2003 05:11:03 13.3 C 7.74 g/m*3 13.3 C 0 km/h
464 16-08-2003 05:21:03 13.2 C 7.81 g/m*3 13.2 C 0 km/h
465 16-08-2003 05:31:03 13.1 C 7.87 g/m*3 13.1 C 0 km/h
466 16-08-2003 05:41:03 12.9 C 8 g/m*3 12.9 C 0 km/h
467 16-08-2003 05:51:03 12.8 C 7.95 g/m*3 12.8 C 0 km/h
468 16-08-2003 06:01:03 12.7 C 8.01 g/m*3 12.7 C 0 km/h
469 16-08-2003 06:11:03 12.6 C 8.08 g/m*3 12.6 C 0 km/h
470 16-08-2003 06:21:03 12.5 C 8.03 g/m*3 12.5 C 0 km/h
471 16-08-2003 06:31:03 12.3 C 8.04 g/m*3 12.3 C 0 km/h
472 16-08-2003 06:41:03 12.2 C 7.99 g/m*3 12.2 C 0 km/h
473 16-08-2003 06:51:03 12.1 C 8.04 g/m*3 12.1 C 0 km/h
474 16-08-2003 07:01:03 12.2 C 7.99 g/m*3 12.2 C 0 km/h
475 16-08-2003 07:11:03 12.4 C 8.09 g/m*3 12.4 C 0 km/h
Sensor: Nr:Datum:Temp:Abs-Feuchte:Windchill:Wind:
Aussen-T/F 476 16-08-2003 07:21:03 12.5 C 8.14 g/m*3 12.5 C 0 km/h
477 16-08-2003 07:31:03 12.6 C 8.19 g/m*3 12.6 C 0 km/h
478 16-08-2003 07:41:03 12.7 C 8.13 g/m*3 12.7 C 0 km/h
479 16-08-2003 07:51:03 13 C 8.28 g/m*3 13 C 0 km/h
480 16-08-2003 08:01:03 13.1 C 8.33 g/m*3 13.1 C 0 km/h
481 16-08-2003 08:11:03 13.2 C 8.38 g/m*3 13.2 C 0 km/h
482 16-08-2003 08:21:03 13.5 C 8.42 g/m*3 13.5 C 0 km/h
483 16-08-2003 08:31:03 13.8 C 8.46 g/m*3 13.8 C 0 km/h
484 16-08-2003 08:41:03 14.5 C 8.46 g/m*3 14.5 C 0 km/h
485 16-08-2003 08:51:03 14.7 C 8.31 g/m*3 14.7 C 0 km/h
486 16-08-2003 09:01:03 15.2 C 8.44 g/m*3 15.2 C 0 km/h
487 16-08-2003 09:11:03 15.5 C 8.33 g/m*3 15.5 C 0 km/h
488 16-08-2003 09:21:03 15.9 C 8.26 g/m*3 15.9 C 0 km/h
489 16-08-2003 09:31:03 16.4 C 8.1 g/m*3 16.4 C 0 km/h
490 16-08-2003 09:41:03 16.8 C 8.29 g/m*3 16.8 C 0 km/h
491 16-08-2003 09:51:03 17.5 C 8.35 g/m*3 17.5 C 0 km/h
492 16-08-2003 10:01:03 18 C 8.29 g/m*3 18 C 0 km/h
493 16-08-2003 10:11:03 18.2 C 8.08 g/m*3 18.2 C 0 km/h
494 16-08-2003 10:21:03 18.8 C 8.37 g/m*3 18.8 C 0 km/h
495 16-08-2003 10:31:03 19.7 C 8.49 g/m*3 19.7 C 0 km/h
496 16-08-2003 10:41:02 20.4 C 8.31 g/m*3 20.4 C 0 km/h
497 16-08-2003 10:51:02 20.8 C 8.33 g/m*3 20.8 C 0 km/h
498 16-08-2003 11:01:02 21.2 C 8.34 g/m*3 21.2 C 0 km/h
499 16-08-2003 11:11:01 21.5 C 8.11 g/m*3 21.5 C 0 km/h
500 16-08-2003 11:21:01 21.8 C 8.44 g/m*3 21.8 C 0 km/h
Sensor: Nr:Datum:Temp:Abs-Feuchte:Windchill:Wind:
Aussen-T/F 501 16-08-2003 11:31:01 22.4 C 8.14 g/m*3 22.4 C 0 km/h
502 16-08-2003 11:41:01 22.9 C 7.97 g/m*3 22.9 C 0 km/h
503 16-08-2003 11:51:01 23.4 C 7.78 g/m*3 23.4 C 0 km/h
504 16-08-2003 12:01:01 23.8 C 7.53 g/m*3 23.8 C 0 km/h
505 16-08-2003 12:11:01 24.1 C 7.66 g/m*3 24.1 C 0 km/h
506 16-08-2003 12:21:01 24.2 C 7.48 g/m*3 24.2 C 0 km/h
507 16-08-2003 12:31:01 24.4 C 7.34 g/m*3 24.4 C 0 km/h
508 16-08-2003 12:41:01 24.5 C 7.16 g/m*3 24.5 C 0 km/h
509 16-08-2003 12:51:01 24.9 C 7.32 g/m*3 24.9 C 0 km/h
510 16-08-2003 13:01:01 25.6 C 7.38 g/m*3 25.6 C 0 km/h
511 16-08-2003 13:11:00 25.4 C 7.3 g/m*3 25.4 C 0 km/h
512 16-08-2003 13:21:00 25.8 C 7.46 g/m*3 25.8 C 0 km/h
513 16-08-2003 13:31:00 25.7 C 7.18 g/m*3 25.7 C 0 km/h
514 16-08-2003 13:41:02 26.6 C 7.05 g/m*3 26.6 C 0 km/h
515 16-08-2003 13:51:02 27 C 6.95 g/m*3 27 C 0 km/h
516 16-08-2003 14:01:02 27.6 C 6.92 g/m*3 27.6 C 0 km/h
517 16-08-2003 14:11:01 27.8 C 6.99 g/m*3 27.8 C 0 km/h
518 16-08-2003 14:21:01 27.7 C 6.69 g/m*3 27.7 C 0 km/h
519 16-08-2003 14:31:01 28.3 C 6.36 g/m*3 28.3 C 0 km/h
520 16-08-2003 14:41:02 29.1 C 6.35 g/m*3 29.1 C 0 km/h
521 16-08-2003 14:51:02 29.6 C 6.53 g/m*3 29.6 C 0 km/h
522 16-08-2003 15:01:02 28.9 C 6 g/m*3 28.9 C 0 km/h
523 16-08-2003 15:11:02 29.1 C 6.06 g/m*3 29.1 C 0 km/h
524 16-08-2003 15:21:02 29.2 C 5.81 g/m*3 29.2 C 0 km/h
525 16-08-2003 15:31:02 30.1 C 6.1 g/m*3 30.1 C 0 km/h
Sensor: Nr:Datum:Temp:Abs-Feuchte:Windchill:Wind:
Aussen-T/F 526 16-08-2003 15:41:02 29.8 C 6 g/m*3 29.8 C 0 km/h
527 16-08-2003 15:51:02 29.1 C 5.78 g/m*3 29.1 C 0 km/h
528 16-08-2003 16:01:02 29.3 C 5.84 g/m*3 29.3 C 0 km/h
529 16-08-2003 16:11:01 29.9 C 6.03 g/m*3 29.9 C 0 km/h
530 16-08-2003 16:21:01 30.7 C 6.3 g/m*3 30.7 C 0 km/h
531 16-08-2003 16:31:01 31 C 6.4 g/m*3 31 C 0 km/h
532 16-08-2003 16:41:02 30.2 C 6.13 g/m*3 30.2 C 0 km/h
533 16-08-2003 16:51:02 30.2 C 6.13 g/m*3 30.2 C 0 km/h
534 16-08-2003 17:01:02 30.2 C 6.13 g/m*3 30.2 C 0 km/h
535 16-08-2003 17:11:02 30.3 C 6.16 g/m*3 30.3 C 0 km/h
536 16-08-2003 17:21:02 30 C 6.06 g/m*3 30 C 0 km/h
537 16-08-2003 17:31:02 29.5 C 5.9 g/m*3 29.5 C 0 km/h
538 16-08-2003 17:41:01 29.5 C 5.9 g/m*3 29.5 C 0 km/h
539 16-08-2003 17:51:01 30.4 C 6.2 g/m*3 30.4 C 0 km/h
540 16-08-2003 18:01:01 30.1 C 6.1 g/m*3 30.1 C 0 km/h
541 16-08-2003 18:11:02 29.5 C 5.9 g/m*3 29.5 C 0 km/h
542 16-08-2003 18:21:02 29.2 C 5.81 g/m*3 29.2 C 0 km/h
543 16-08-2003 18:31:02 29.2 C 6.1 g/m*3 29.2 C 0 km/h
544 16-08-2003 18:41:01 29.1 C 5.78 g/m*3 29.1 C 0 km/h
545 16-08-2003 18:51:01 28.7 C 5.93 g/m*3 28.7 C 0 km/h
546 16-08-2003 19:01:01 28.7 C 5.93 g/m*3 28.7 C 0 km/h
547 16-08-2003 19:11:02 28.6 C 5.62 g/m*3 28.6 C 0 km/h
548 16-08-2003 19:21:02 27.9 C 5.68 g/m*3 27.9 C 0 km/h
549 16-08-2003 19:31:02 27.7 C 5.62 g/m*3 27.7 C 0 km/h
550 16-08-2003 19:41:01 27 C 5.4 g/m*3 27 C 0 km/h
Sensor: Nr:Datum:Temp:Abs-Feuchte:Windchill:Wind:
Aussen-T/F 551 16-08-2003 19:51:01 27.3 C 5.49 g/m*3 27.3 C 0 km/h
552 16-08-2003 20:01:01 26.9 C 5.63 g/m*3 26.9 C 0 km/h
553 16-08-2003 20:11:02 26.2 C 6.15 g/m*3 26.2 C 0 km/h
554 16-08-2003 20:21:02 25.7 C 6.7 g/m*3 25.7 C 0 km/h
555 16-08-2003 20:31:02 25 C 6.68 g/m*3 25 C 0 km/h
556 16-08-2003 20:41:01 24.3 C 6.64 g/m*3 24.3 C 0 km/h
557 16-08-2003 20:51:01 23.7 C 6.63 g/m*3 23.7 C 0 km/h
558 16-08-2003 21:01:01 23.1 C 6.61 g/m*3 23.1 C 0 km/h
559 16-08-2003 21:11:01 22.8 C 6.91 g/m*3 22.8 C 0 km/h
560 16-08-2003 21:21:01 22.7 C 6.87 g/m*3 22.7 C 0 km/h
561 16-08-2003 21:31:01 22.3 C 6.91 g/m*3 22.3 C 0 km/h
562 16-08-2003 21:41:57 22.1 C 6.83 g/m*3 22.1 C 0 km/h
563 16-08-2003 21:51:57 22.1 C 6.83 g/m*3 22.1 C 0 km/h
564 16-08-2003 22:01:57 21.9 C 6.95 g/m*3 21.9 C 0 km/h
565 16-08-2003 22:11:57 21.8 C 7.1 g/m*3 21.8 C 0 km/h
566 16-08-2003 22:21:02 21.8 C 7.1 g/m*3 21.8 C 0 km/h
567 16-08-2003 22:31:02 21.4 C 6.94 g/m*3 21.4 C 0 km/h
568 16-08-2003 22:42:01 21.1 C 7 g/m*3 21.1 C 0 km/h
569 16-08-2003 22:52:01 20.9 C 7.29 g/m*3 20.9 C 0 km/h
570 16-08-2003 23:02:01 20.7 C 7.2 g/m*3 20.7 C 0 km/h
571 16-08-2003 23:12:01 20.5 C 7.12 g/m*3 20.5 C 0 km/h
572 16-08-2003 23:22:01 20.3 C 7.21 g/m*3 20.3 C 0 km/h
573 16-08-2003 23:32:01 20.1 C 7.13 g/m*3 20.1 C 0 km/h
574 16-08-2003 23:42:01 20.1 C 6.95 g/m*3 20.1 C 0 km/h
575 16-08-2003 23:52:01 20 C 7.09 g/m*3 20 C 0 km/h
Sensor: Nr:Datum:Temp:Abs-Feuchte:Windchill:Wind:
Aussen-T/F 576 17-08-2003 00:02:01 19.7 C 7.13 g/m*3 19.7 C 0 km/h
577 17-08-2003 00:12:01 19.5 C 7.05 g/m*3 19.5 C 0 km/h
578 17-08-2003 00:22:01 19.3 C 7.13 g/m*3 19.3 C 0 km/h
579 17-08-2003 00:32:01 19.2 C 7.09 g/m*3 19.2 C 0 km/h
580 17-08-2003 00:42:01 19.1 C 7.05 g/m*3 19.1 C 0 km/h
581 17-08-2003 00:52:01 18.8 C 7.25 g/m*3 18.8 C 0 km/h
582 17-08-2003 01:02:01 18.7 C 7.2 g/m*3 18.7 C 0 km/h
583 17-08-2003 01:12:01 18.6 C 7.32 g/m*3 18.6 C 0 km/h
584 17-08-2003 01:22:01 18.5 C 7.28 g/m*3 18.5 C 0 km/h
585 17-08-2003 01:32:01 18.5 C 7.44 g/m*3 18.5 C 0 km/h
586 17-08-2003 01:42:01 18.3 C 7.51 g/m*3 18.3 C 0 km/h
587 17-08-2003 01:52:01 18.1 C 7.42 g/m*3 18.1 C 0 km/h
588 17-08-2003 02:02:01 18.1 C 7.26 g/m*3 18.1 C 0 km/h
589 17-08-2003 02:12:01 17.9 C 7.79 g/m*3 17.9 C 0 km/h
590 17-08-2003 02:22:01 17.6 C 7.35 g/m*3 17.6 C 0 km/h
591 17-08-2003 02:32:01 17.5 C 7.45 g/m*3 17.5 C 0 km/h
592 17-08-2003 02:42:01 17.4 C 7.26 g/m*3 17.4 C 0 km/h
593 17-08-2003 02:52:01 17.2 C 7.18 g/m*3 17.2 C 0 km/h
594 17-08-2003 03:02:01 17 C 7.23 g/m*3 17 C 0 km/h
595 17-08-2003 03:12:01 16.8 C 7.15 g/m*3 16.8 C 0 km/h
596 17-08-2003 03:22:01 16.6 C 7.06 g/m*3 16.6 C 0 km/h
597 17-08-2003 03:32:01 16.6 C 7.35 g/m*3 16.6 C 0 km/h
598 17-08-2003 03:42:01 16.4 C 7.26 g/m*3 16.4 C 0 km/h
599 17-08-2003 03:52:01 16.3 C 7.21 g/m*3 16.3 C 0 km/h
600 17-08-2003 04:02:01 16.2 C 7.31 g/m*3 16.2 C 0 km/h
Sensor: Nr:Datum:Temp:Abs-Feuchte:Windchill:Wind:
Aussen-T/F 601 17-08-2003 04:12:01 16.2 C 7.45 g/m*3 16.2 C 0 km/h
602 17-08-2003 04:22:01 16.1 C 7.4 g/m*3 16.1 C 0 km/h
603 17-08-2003 04:32:01 15.8 C 7.27 g/m*3 15.8 C 0 km/h
604 17-08-2003 04:42:01 15.7 C 7.36 g/m*3 15.7 C 0 km/h
605 17-08-2003 04:52:01 15.6 C 7.31 g/m*3 15.6 C 0 km/h
606 17-08-2003 05:02:01 15.5 C 7.27 g/m*3 15.5 C 0 km/h
607 17-08-2003 05:12:01 15.4 C 7.36 g/m*3 15.4 C 0 km/h
608 17-08-2003 05:22:01 15.3 C 7.31 g/m*3 15.3 C 0 km/h
609 17-08-2003 05:32:01 15 C 7.44 g/m*3 15 C 0 km/h
610 17-08-2003 05:42:01 15 C 7.31 g/m*3 15 C 0 km/h
611 17-08-2003 05:52:01 14.8 C 7.22 g/m*3 14.8 C 0 km/h
612 17-08-2003 06:02:01 14.8 C 7.6 g/m*3 14.8 C 0 km/h
613 17-08-2003 06:12:01 14.7 C 7.68 g/m*3 14.7 C 0 km/h
614 17-08-2003 06:22:01 14.7 C 7.68 g/m*3 14.7 C 0 km/h
615 17-08-2003 06:32:01 14.6 C 7.76 g/m*3 14.6 C 0 km/h
616 17-08-2003 06:42:01 14.7 C 7.93 g/m*3 14.7 C 0 km/h
617 17-08-2003 06:52:01 14.8 C 8.11 g/m*3 14.8 C 0 km/h
618 17-08-2003 07:02:01 14.8 C 8.11 g/m*3 14.8 C 0 km/h
619 17-08-2003 07:12:01 14.9 C 8.16 g/m*3 14.9 C 0 km/h
620 17-08-2003 07:22:01 15 C 8.08 g/m*3 15 C 0 km/h
621 17-08-2003 07:32:01 15.2 C 8.31 g/m*3 15.2 C 0 km/h
622 17-08-2003 07:42:01 15.3 C 8.1 g/m*3 15.3 C 0 km/h
623 17-08-2003 07:52:01 15.5 C 8.46 g/m*3 15.5 C 0 km/h
624 17-08-2003 08:02:01 15.7 C 8.43 g/m*3 15.7 C 0 km/h
625 17-08-2003 08:12:01 15.8 C 8.35 g/m*3 15.8 C 0 km/h
Sensor: Nr:Datum:Temp:Abs-Feuchte:Windchill:Wind:
Aussen-T/F 626 17-08-2003 08:22:01 16.2 C 8.41 g/m*3 16.2 C 0 km/h
627 17-08-2003 08:32:01 16.7 C 8.67 g/m*3 16.7 C 0 km/h
628 17-08-2003 08:42:01 17.2 C 8.64 g/m*3 17.2 C 0 km/h
629 17-08-2003 08:52:01 18.2 C 8.55 g/m*3 18.2 C 0 km/h
630 17-08-2003 09:02:01 18.6 C 8.75 g/m*3 18.6 C 0 km/h
631 17-08-2003 09:12:01 18.7 C 8.65 g/m*3 18.7 C 0 km/h
632 17-08-2003 09:22:01 19 C 8.31 g/m*3 19 C 0 km/h
633 17-08-2003 09:32:01 19.3 C 8.29 g/m*3 19.3 C 0 km/h
634 17-08-2003 09:42:01 19.7 C 8.32 g/m*3 19.7 C 0 km/h
635 17-08-2003 09:52:01 20.4 C 8.14 g/m*3 20.4 C 0 km/h
636 17-08-2003 10:02:01 21 C 7.88 g/m*3 21 C 0 km/h
637 17-08-2003 10:12:01 21.7 C 7.25 g/m*3 21.7 C 0 km/h
638 17-08-2003 10:22:01 22.2 C 7.26 g/m*3 22.2 C 0 km/h
639 17-08-2003 10:32:02 22.4 C 7.35 g/m*3 22.4 C 0 km/h
640 17-08-2003 10:42:02 22.5 C 7.39 g/m*3 22.5 C 0 km/h
641 17-08-2003 10:52:02 23 C 7.4 g/m*3 23 C 0 km/h
642 17-08-2003 11:02:02 23.4 C 7.15 g/m*3 23.4 C 0 km/h
643 17-08-2003 11:12:02 23.4 C 7.15 g/m*3 23.4 C 0 km/h
644 17-08-2003 11:22:02 24.2 C 7.26 g/m*3 24.2 C 0 km/h
645 17-08-2003 11:32:01 25.2 C 6.98 g/m*3 25.2 C 0 km/h
646 17-08-2003 11:42:01 25.7 C 7.42 g/m*3 25.7 C 0 km/h
647 17-08-2003 11:52:01 26.6 C 7.3 g/m*3 26.6 C 0 km/h
648 17-08-2003 12:02:03 26.4 C 6.97 g/m*3 26.4 C 0 km/h
649 17-08-2003 12:12:03 25.9 C 7.02 g/m*3 25.9 C 0 km/h
650 17-08-2003 12:22:03 25.8 C 7.22 g/m*3 25.8 C 0 km/h
Sensor: Nr:Datum:Temp:Abs-Feuchte:Windchill:Wind:
Aussen-T/F 651 17-08-2003 12:32:06 25.8 C 6.98 g/m*3 25.8 C 0 km/h
652 17-08-2003 12:42:06 25.6 C 7.62 g/m*3 25.6 C 0 km/h
653 17-08-2003 12:52:06 25.2 C 8.15 g/m*3 25.2 C 0 km/h
654 17-08-2003 13:02:02 25.3 C 7.96 g/m*3 25.3 C 0 km/h
655 17-08-2003 13:12:02 25.9 C 7.26 g/m*3 25.9 C 0 km/h
656 17-08-2003 13:22:02 27.2 C 7.29 g/m*3 27.2 C 0 km/h
657 17-08-2003 13:32:02 27.9 C 7.3 g/m*3 27.9 C 0 km/h
658 17-08-2003 13:42:02 28 C 7.07 g/m*3 28 C 0 km/h
659 17-08-2003 13:52:02 28.3 C 6.91 g/m*3 28.3 C 0 km/h
660 17-08-2003 14:02:03 28.6 C 7.03 g/m*3 28.6 C 0 km/h
661 17-08-2003 14:12:03 28.9 C 7.14 g/m*3 28.9 C 0 km/h
662 17-08-2003 14:22:03 29 C 7.18 g/m*3 29 C 0 km/h
663 17-08-2003 14:32:01 29.2 C 7.26 g/m*3 29.2 C 0 km/h
664 17-08-2003 14:42:01 29.3 C 7.3 g/m*3 29.3 C 0 km/h
665 17-08-2003 14:52:01 30.3 C 7.4 g/m*3 30.3 C 0 km/h
666 17-08-2003 15:02:00 30.3 C 7.4 g/m*3 30.3 C 0 km/h
667 17-08-2003 15:12:00 30.5 C 7.17 g/m*3 30.5 C 0 km/h
668 17-08-2003 15:22:00 30.7 C 6.93 g/m*3 30.7 C 0 km/h
669 17-08-2003 15:32:01 30.6 C 7.2 g/m*3 30.6 C 0 km/h
670 17-08-2003 15:42:01 30.3 C 7.4 g/m*3 30.3 C 0 km/h
671 17-08-2003 15:52:01 30 C 7.28 g/m*3 30 C 0 km/h
672 17-08-2003 16:02:00 29.4 C 8.22 g/m*3 29.4 C 0 km/h
673 17-08-2003 16:12:00 28 C 8.7 g/m*3 28 C 0 km/h
674 17-08-2003 16:22:00 27 C 9.01 g/m*3 27 C 0 km/h
675 17-08-2003 16:32:01 27.8 C 8.61 g/m*3 27.8 C 0 km/h
Sensor: Nr:Datum:Temp:Abs-Feuchte:Windchill:Wind:
Aussen-T/F 676 17-08-2003 16:42:01 28.6 C 8.43 g/m*3 28.6 C 0 km/h
677 17-08-2003 16:52:01 29.2 C 7.84 g/m*3 29.2 C 0 km/h
678 17-08-2003 17:02:07 29.6 C 8.31 g/m*3 29.6 C 0 km/h
679 17-08-2003 17:12:07 30 C 7.58 g/m*3 30 C 0 km/h
680 17-08-2003 17:22:07 30.1 C 7.32 g/m*3 30.1 C 0 km/h
681 17-08-2003 17:32:01 30.1 C 7.32 g/m*3 30.1 C 0 km/h
682 17-08-2003 17:42:01 30.1 C 7.32 g/m*3 30.1 C 0 km/h
683 17-08-2003 17:52:01 30.1 C 7.62 g/m*3 30.1 C 0 km/h
684 17-08-2003 18:02:00 30.3 C 7.7 g/m*3 30.3 C 0 km/h
685 17-08-2003 18:12:00 30.3 C 7.4 g/m*3 30.3 C 0 km/h
686 17-08-2003 18:22:00 30.4 C 7.44 g/m*3 30.4 C 0 km/h
687 17-08-2003 18:32:01 30.4 C 7.44 g/m*3 30.4 C 0 km/h
688 17-08-2003 18:42:01 30.5 C 7.48 g/m*3 30.5 C 0 km/h
689 17-08-2003 18:52:01 30.3 C 7.09 g/m*3 30.3 C 0 km/h
690 17-08-2003 19:02:00 30 C 7.28 g/m*3 30 C 0 km/h
691 17-08-2003 19:12:00 29.5 C 8.26 g/m*3 29.5 C 0 km/h
692 17-08-2003 19:22:00 28.8 C 8.52 g/m*3 28.8 C 0 km/h
693 17-08-2003 19:32:02 28.2 C 8.25 g/m*3 28.2 C 0 km/h
694 17-08-2003 19:42:02 28 C 8.16 g/m*3 28 C 0 km/h
695 17-08-2003 19:52:02 27.8 C 8.34 g/m*3 27.8 C 0 km/h
696 17-08-2003 20:02:26 27.5 C 8.47 g/m*3 27.5 C 0 km/h
697 17-08-2003 20:12:26 27.2 C 8.33 g/m*3 27.2 C 0 km/h
698 17-08-2003 20:22:26 21.6 C 6.07 g/m*3 21.6 C 0 km/h
699 17-08-2003 20:32:57 20.4 C 5.66 g/m*3 20.4 C 0 km/h
700 17-08-2003 20:42:57 20.1 C 5.91 g/m*3 20.1 C 0 km/h
Sensor: Nr:Datum:Temp:Abs-Feuchte:Windchill:Wind:
Aussen-T/F 701 17-08-2003 20:52:57 20.1 C 6.26 g/m*3 20.1 C 0 km/h
702 17-08-2003 21:02:02 19.9 C 6.53 g/m*3 19.9 C 0 km/h
703 17-08-2003 21:12:02 19.8 C 7.34 g/m*3 19.8 C 0 km/h
704 17-08-2003 21:22:02 19.5 C 8.06 g/m*3 19.5 C 0 km/h
705 17-08-2003 21:32:33 19.5 C 8.89 g/m*3 19.5 C 0 km/h
706 17-08-2003 21:42:15 19.8 C 9.91 g/m*3 19.8 C 0 km/h
707 17-08-2003 21:52:10 20 C 14.69 g/m*3 20 C 0 km/h
708 17-08-2003 22:03:01 19.9 C 14.6 g/m*3 19.9 C 0 km/h
709 17-08-2003 22:13:01 19.6 C 14.18 g/m*3 19.6 C 0 km/h
710 17-08-2003 22:23:01 19.4 C 14.18 g/m*3 19.4 C 0 km/h
711 17-08-2003 22:33:01 19.2 C 14.02 g/m*3 19.2 C 0 km/h
712 17-08-2003 22:43:01 19.1 C 13.93 g/m*3 19.1 C 0 km/h
713 17-08-2003 22:53:01 18.9 C 14.09 g/m*3 18.9 C 0 km/h
714 17-08-2003 23:03:01 19 C 14.18 g/m*3 19 C 0 km/h
715 17-08-2003 23:13:01 19.5 C 14.6 g/m*3 19.5 C 0 km/h
716 17-08-2003 23:23:01 19.5 C 14.43 g/m*3 19.5 C 0 km/h
717 17-08-2003 23:33:01 19.6 C 14.35 g/m*3 19.6 C 0 km/h
718 17-08-2003 23:43:01 19.4 C 14.18 g/m*3 19.4 C 0 km/h
719 17-08-2003 23:53:01 19.3 C 14.1 g/m*3 19.3 C 0 km/h
720 18-08-2003 00:03:01 18.9 C 13.93 g/m*3 18.9 C 0 km/h
721 18-08-2003 00:13:01 18.7 C 13.93 g/m*3 18.7 C 0 km/h
722 18-08-2003 00:23:01 18.6 C 13.69 g/m*3 18.6 C 0 km/h
723 18-08-2003 00:33:01 18.5 C 13.61 g/m*3 18.5 C 0 km/h
724 18-08-2003 00:43:01 18.4 C 13.53 g/m*3 18.4 C 0 km/h
725 18-08-2003 00:53:01 18.6 C 13.85 g/m*3 18.6 C 0 km/h
Sensor: Nr:Datum:Temp:Abs-Feuchte:Windchill:Wind:
Aussen-T/F 726 18-08-2003 01:03:01 18.6 C 13.69 g/m*3 18.6 C 0 km/h
727 18-08-2003 01:13:01 18.4 C 13.68 g/m*3 18.4 C 0 km/h
728 18-08-2003 01:23:01 18.3 C 13.6 g/m*3 18.3 C 0 km/h
729 18-08-2003 01:33:01 18.2 C 13.52 g/m*3 18.2 C 0 km/h
730 18-08-2003 01:43:01 18.1 C 13.44 g/m*3 18.1 C 0 km/h
731 18-08-2003 01:53:01 18.1 C 13.44 g/m*3 18.1 C 0 km/h
732 18-08-2003 02:03:01 18.1 C 13.44 g/m*3 18.1 C 0 km/h
733 18-08-2003 02:13:01 18 C 13.36 g/m*3 18 C 0 km/h
734 18-08-2003 02:23:01 18.1 C 13.44 g/m*3 18.1 C 0 km/h
735 18-08-2003 02:33:01 18.1 C 13.6 g/m*3 18.1 C 0 km/h
736 18-08-2003 02:43:01 18.1 C 13.6 g/m*3 18.1 C 0 km/h
737 18-08-2003 02:53:01 18.1 C 13.44 g/m*3 18.1 C 0 km/h
738 18-08-2003 03:03:01 18.1 C 13.6 g/m*3 18.1 C 0 km/h
739 18-08-2003 03:13:01 18.1 C 13.6 g/m*3 18.1 C 0 km/h
740 18-08-2003 03:23:01 18.1 C 13.6 g/m*3 18.1 C 0 km/h
741 18-08-2003 03:33:01 18.4 C 14.16 g/m*3 18.4 C 0 km/h
742 18-08-2003 03:43:01 18.5 C 14.08 g/m*3 18.5 C 0 km/h
743 18-08-2003 03:53:01 18.4 C 14 g/m*3 18.4 C 0 km/h
744 18-08-2003 04:03:01 18.4 C 14 g/m*3 18.4 C 0 km/h
745 18-08-2003 04:13:01 18.5 C 14.08 g/m*3 18.5 C 0 km/h
746 18-08-2003 04:23:01 18.5 C 14.08 g/m*3 18.5 C 0 km/h
747 18-08-2003 04:33:01 18.5 C 13.92 g/m*3 18.5 C 0 km/h
748 18-08-2003 04:43:01 18.5 C 13.92 g/m*3 18.5 C 0 km/h
749 18-08-2003 04:53:01 18.6 C 14.01 g/m*3 18.6 C 0 km/h
750 18-08-2003 05:03:01 18.6 C 14.32 g/m*3 18.6 C 0 km/h
Sensor: Nr:Datum:Temp:Abs-Feuchte:Windchill:Wind:
Aussen-T/F 751 18-08-2003 05:13:01 18.6 C 14.48 g/m*3 18.6 C 0 km/h
752 18-08-2003 05:23:01 18.5 C 14.4 g/m*3 18.5 C 0 km/h
753 18-08-2003 05:33:01 18.5 C 14.4 g/m*3 18.5 C 0 km/h
754 18-08-2003 05:43:01 18.6 C 14.64 g/m*3 18.6 C 0 km/h
755 18-08-2003 05:53:01 18.5 C 14.56 g/m*3 18.5 C 0 km/h
756 18-08-2003 06:03:01 18.5 C 14.71 g/m*3 18.5 C 0 km/h
757 18-08-2003 06:13:01 18.6 C 14.8 g/m*3 18.6 C 0 km/h
758 18-08-2003 06:23:01 18.7 C 14.89 g/m*3 18.7 C 0 km/h
759 18-08-2003 06:33:01 18.7 C 14.89 g/m*3 18.7 C 0 km/h
760 18-08-2003 06:43:01 18.6 C 14.96 g/m*3 18.6 C 0 km/h
761 18-08-2003 06:53:01 18.6 C 14.96 g/m*3 18.6 C 0 km/h
762 18-08-2003 07:03:25 18.7 C 15.05 g/m*3 18.7 C 0 km/h
763 18-08-2003 07:13:01 18.7 C 15.05 g/m*3 18.7 C 0 km/h
764 18-08-2003 07:23:01 18.7 C 15.05 g/m*3 18.7 C 0 km/h
765 18-08-2003 07:33:02 18.8 C 15.14 g/m*3 18.8 C 0 km/h
766 18-08-2003 07:43:02 19 C 15.32 g/m*3 19 C 0 km/h
767 18-08-2003 07:53:02 19.1 C 15.41 g/m*3 19.1 C 0 km/h
768 18-08-2003 08:03:02 19.4 C 15.68 g/m*3 19.4 C 0 km/h
769 18-08-2003 08:13:02 19.6 C 15.87 g/m*3 19.6 C 0 km/h
770 18-08-2003 08:23:02 19.8 C 15.89 g/m*3 19.8 C 0 km/h
771 18-08-2003 08:33:01 19.9 C 15.98 g/m*3 19.9 C 0 km/h
772 18-08-2003 08:43:01 20.5 C 16.19 g/m*3 20.5 C 0 km/h
773 18-08-2003 08:53:01 21 C 16.3 g/m*3 21 C 0 km/h
774 18-08-2003 09:03:01 21.3 C 16.03 g/m*3 21.3 C 0 km/h
775 18-08-2003 09:13:01 21.4 C 15.75 g/m*3 21.4 C 0 km/h
Sensor: Nr:Datum:Temp:Abs-Feuchte:Windchill:Wind:
Aussen-T/F 776 18-08-2003 09:23:01 21.5 C 15.84 g/m*3 21.5 C 0 km/h
777 18-08-2003 09:33:01 21.8 C 16.31 g/m*3 21.8 C 0 km/h
778 18-08-2003 09:43:01 21.9 C 16.21 g/m*3 21.9 C 0 km/h
779 18-08-2003 09:53:01 22.2 C 16.49 g/m*3 22.2 C 0 km/h
780 18-08-2003 10:03:01 22.3 C 16.39 g/m*3 22.3 C 0 km/h
781 18-08-2003 10:13:01 22.4 C 15.89 g/m*3 22.4 C 0 km/h
782 18-08-2003 10:23:01 22.7 C 15.96 g/m*3 22.7 C 0 km/h
783 18-08-2003 10:33:01 22.6 C 15.67 g/m*3 22.6 C 0 km/h
784 18-08-2003 10:43:01 22.6 C 15.27 g/m*3 22.6 C 0 km/h
785 18-08-2003 10:53:01 22.6 C 14.46 g/m*3 22.6 C 0 km/h
786 18-08-2003 11:03:00 22.4 C 14.5 g/m*3 22.4 C 0 km/h
787 18-08-2003 11:13:00 22.5 C 14.78 g/m*3 22.5 C 0 km/h
788 18-08-2003 11:23:00 22.3 C 14.81 g/m*3 22.3 C 0 km/h
789 18-08-2003 11:33:01 22 C 13.97 g/m*3 22 C 0 km/h
790 18-08-2003 11:43:01 22.1 C 14.25 g/m*3 22.1 C 0 km/h
791 18-08-2003 11:53:01 22.1 C 14.05 g/m*3 22.1 C 0 km/h
792 18-08-2003 12:03:02 20.2 C 14.51 g/m*3 20.2 C 0 km/h
793 18-08-2003 12:13:02 19.6 C 14.52 g/m*3 19.6 C 0 km/h
794 18-08-2003 12:23:02 19.6 C 14.69 g/m*3 19.6 C 0 km/h
795 18-08-2003 12:33:01 20.1 C 14.78 g/m*3 20.1 C 0 km/h
796 18-08-2003 12:43:01 20.7 C 15.12 g/m*3 20.7 C 0 km/h
797 18-08-2003 12:53:01 21 C 14.47 g/m*3 21 C 0 km/h
798 18-08-2003 13:03:01 20.6 C 13.96 g/m*3 20.6 C 0 km/h
799 18-08-2003 13:13:01 20.2 C 13.46 g/m*3 20.2 C 0 km/h
800 18-08-2003 13:23:01 20.4 C 13.27 g/m*3 20.4 C 0 km/h
Sensor: Nr:Datum:Temp:Abs-Feuchte:Windchill:Wind:
Aussen-T/F 801 18-08-2003 13:33:01 21.3 C 13.61 g/m*3 21.3 C 0 km/h
802 18-08-2003 13:43:01 21.8 C 13.43 g/m*3 21.8 C 0 km/h
803 18-08-2003 13:53:01 22.6 C 12.86 g/m*3 22.6 C 0 km/h
804 18-08-2003 14:03:02 23.2 C 12.27 g/m*3 23.2 C 0 km/h
805 18-08-2003 14:13:02 24.1 C 12.03 g/m*3 24.1 C 0 km/h
806 18-08-2003 14:23:02 24.1 C 11.6 g/m*3 24.1 C 0 km/h
807 18-08-2003 14:33:01 24.4 C 11.57 g/m*3 24.4 C 0 km/h
808 18-08-2003 14:43:01 24.5 C 11.86 g/m*3 24.5 C 0 km/h
809 18-08-2003 14:53:01 24.3 C 11.51 g/m*3 24.3 C 0 km/h
810 18-08-2003 15:03:02 24.6 C 11.03 g/m*3 24.6 C 0 km/h
811 18-08-2003 15:13:02 24.9 C 10.53 g/m*3 24.9 C 0 km/h
812 18-08-2003 15:23:02 24 C 10.23 g/m*3 24 C 0 km/h
813 18-08-2003 15:33:01 23.6 C 10.42 g/m*3 23.6 C 0 km/h
814 18-08-2003 15:43:01 24.3 C 10.62 g/m*3 24.3 C 0 km/h
815 18-08-2003 15:53:01 23.5 C 11 g/m*3 23.5 C 0 km/h
816 18-08-2003 16:03:01 22.7 C 10.91 g/m*3 22.7 C 0 km/h
817 18-08-2003 16:13:01 21.9 C 11 g/m*3 21.9 C 0 km/h
818 18-08-2003 16:23:01 21.3 C 11 g/m*3 21.3 C 0 km/h
819 18-08-2003 16:33:00 20.8 C 11.23 g/m*3 20.8 C 0 km/h
820 18-08-2003 16:43:00 20.8 C 11.41 g/m*3 20.8 C 0 km/h
821 18-08-2003 16:53:00 20.6 C 11.28 g/m*3 20.6 C 0 km/h
822 18-08-2003 17:03:01 19.9 C 12.03 g/m*3 19.9 C 0 km/h
823 18-08-2003 17:13:01 18.7 C 12.65 g/m*3 18.7 C 0 km/h
824 18-08-2003 17:23:01 18.4 C 12.74 g/m*3 18.4 C 0 km/h
825 18-08-2003 17:33:02 18 C 12.75 g/m*3 18 C 0 km/h
Sensor: Nr:Datum:Temp:Abs-Feuchte:Windchill:Wind:
Aussen-T/F 826 18-08-2003 17:43:02 17.9 C 13.13 g/m*3 17.9 C 0 km/h
827 18-08-2003 17:53:02 17.6 C 13.2 g/m*3 17.6 C 0 km/h
828 18-08-2003 18:03:01 17.5 C 13.12 g/m*3 17.5 C 0 km/h
829 18-08-2003 18:13:01 17.5 C 13.27 g/m*3 17.5 C 0 km/h
830 18-08-2003 18:23:01 17.6 C 13.35 g/m*3 17.6 C 0 km/h
831 18-08-2003 18:33:00 17.7 C 13.43 g/m*3 17.7 C 0 km/h
832 18-08-2003 18:43:00 17.7 C 13.58 g/m*3 17.7 C 0 km/h
833 18-08-2003 18:53:00 17.4 C 13.19 g/m*3 17.4 C 0 km/h
834 18-08-2003 19:03:01 17.6 C 13.5 g/m*3 17.6 C 0 km/h
835 18-08-2003 19:13:01 17.9 C 13.74 g/m*3 17.9 C 0 km/h
836 18-08-2003 19:23:01 17.9 C 13.74 g/m*3 17.9 C 0 km/h
837 18-08-2003 19:33:02 18 C 13.67 g/m*3 18 C 0 km/h
838 18-08-2003 19:43:02 17.9 C 13.74 g/m*3 17.9 C 0 km/h
839 18-08-2003 19:53:02 17.9 C 13.74 g/m*3 17.9 C 0 km/h
840 18-08-2003 20:03:01 17.9 C 13.74 g/m*3 17.9 C 0 km/h
841 18-08-2003 20:13:01 17.8 C 13.81 g/m*3 17.8 C 0 km/h
842 18-08-2003 20:23:01 17.6 C 13.65 g/m*3 17.6 C 0 km/h
843 18-08-2003 20:33:02 17.5 C 13.57 g/m*3 17.5 C 0 km/h
844 18-08-2003 20:43:02 17.6 C 13.65 g/m*3 17.6 C 0 km/h
845 18-08-2003 20:53:02 17.6 C 13.8 g/m*3 17.6 C 0 km/h
846 18-08-2003 21:03:01 17.6 C 13.8 g/m*3 17.6 C 0 km/h
847 18-08-2003 21:13:01 17.6 C 13.8 g/m*3 17.6 C 0 km/h
848 18-08-2003 21:23:01 17.6 C 13.95 g/m*3 17.6 C 0 km/h
849 18-08-2003 21:34:03 17.6 C 13.95 g/m*3 17.6 C 0 km/h
850 18-08-2003 21:44:03 17.7 C 14.03 g/m*3 17.7 C 0 km/h
Sensor: Nr:Datum:Temp:Abs-Feuchte:Windchill:Wind:
Aussen-T/F 851 18-08-2003 21:54:03 17.6 C 13.95 g/m*3 17.6 C 0 km/h
852 18-08-2003 22:04:03 17.6 C 13.95 g/m*3 17.6 C 0 km/h
853 18-08-2003 22:14:03 17.7 C 14.03 g/m*3 17.7 C 0 km/h
854 18-08-2003 22:24:03 17.6 C 13.95 g/m*3 17.6 C 0 km/h
855 18-08-2003 22:34:03 17.6 C 13.95 g/m*3 17.6 C 0 km/h
856 18-08-2003 22:44:03 17.7 C 14.03 g/m*3 17.7 C 0 km/h
857 18-08-2003 22:54:03 17.8 C 14.12 g/m*3 17.8 C 0 km/h
858 18-08-2003 23:04:03 17.9 C 14.05 g/m*3 17.9 C 0 km/h
859 18-08-2003 23:14:03 17.9 C 13.89 g/m*3 17.9 C 0 km/h
860 18-08-2003 23:24:03 18 C 13.67 g/m*3 18 C 0 km/h
861 18-08-2003 23:34:03 18 C 13.67 g/m*3 18 C 0 km/h
862 18-08-2003 23:44:03 18 C 13.67 g/m*3 18 C 0 km/h
863 18-08-2003 23:54:03 18.1 C 13.75 g/m*3 18.1 C 0 km/h
864 19-08-2003 00:04:03 18.2 C 13.83 g/m*3 18.2 C 0 km/h
865 19-08-2003 00:14:03 18.1 C 13.75 g/m*3 18.1 C 0 km/h
866 19-08-2003 00:24:03 18.1 C 13.75 g/m*3 18.1 C 0 km/h
867 19-08-2003 00:34:03 18.1 C 13.75 g/m*3 18.1 C 0 km/h
868 19-08-2003 00:44:03 18.1 C 13.75 g/m*3 18.1 C 0 km/h
869 19-08-2003 00:54:03 18.1 C 13.75 g/m*3 18.1 C 0 km/h
870 19-08-2003 01:04:03 18 C 13.67 g/m*3 18 C 0 km/h
871 19-08-2003 01:14:03 18 C 13.67 g/m*3 18 C 0 km/h
872 19-08-2003 01:24:03 17.9 C 13.89 g/m*3 17.9 C 0 km/h
873 19-08-2003 01:34:03 17.7 C 13.73 g/m*3 17.7 C 0 km/h
874 19-08-2003 01:44:03 17.6 C 13.65 g/m*3 17.6 C 0 km/h
875 19-08-2003 01:54:03 17.4 C 13.49 g/m*3 17.4 C 0 km/h
Sensor: Nr:Datum:Temp:Abs-Feuchte:Windchill:Wind:
Aussen-T/F 876 19-08-2003 02:04:03 17.3 C 13.55 g/m*3 17.3 C 0 km/h
877 19-08-2003 02:14:03 17.3 C 13.55 g/m*3 17.3 C 0 km/h
878 19-08-2003 02:24:03 17.3 C 13.55 g/m*3 17.3 C 0 km/h
879 19-08-2003 02:34:03 17.2 C 13.47 g/m*3 17.2 C 0 km/h
880 19-08-2003 02:44:03 17.2 C 13.47 g/m*3 17.2 C 0 km/h
881 19-08-2003 02:54:03 17.1 C 13.39 g/m*3 17.1 C 0 km/h
882 19-08-2003 03:04:03 17.2 C 13.47 g/m*3 17.2 C 0 km/h
883 19-08-2003 03:14:03 17.1 C 13.39 g/m*3 17.1 C 0 km/h
884 19-08-2003 03:24:03 17.1 C 13.39 g/m*3 17.1 C 0 km/h
885 19-08-2003 03:34:03 17.1 C 13.25 g/m*3 17.1 C 0 km/h
886 19-08-2003 03:44:03 17.1 C 13.39 g/m*3 17.1 C 0 km/h
887 19-08-2003 03:54:03 17.2 C 13.47 g/m*3 17.2 C 0 km/h
888 19-08-2003 04:04:03 17.4 C 13.49 g/m*3 17.4 C 0 km/h
889 19-08-2003 04:14:03 17.5 C 13.57 g/m*3 17.5 C 0 km/h
890 19-08-2003 04:24:03 17.6 C 13.65 g/m*3 17.6 C 0 km/h
891 19-08-2003 04:34:03 17.7 C 13.58 g/m*3 17.7 C 0 km/h
892 19-08-2003 04:44:03 17.7 C 13.43 g/m*3 17.7 C 0 km/h
893 19-08-2003 04:54:03 17.8 C 13.36 g/m*3 17.8 C 0 km/h
894 19-08-2003 05:04:03 17.8 C 12.9 g/m*3 17.8 C 0 km/h
895 19-08-2003 05:14:03 17.8 C 12.9 g/m*3 17.8 C 0 km/h
896 19-08-2003 05:24:03 17.9 C 12.98 g/m*3 17.9 C 0 km/h
897 19-08-2003 05:34:01 17.9 C 12.98 g/m*3 17.9 C 0 km/h
898 19-08-2003 05:44:01 17.8 C 12.9 g/m*3 17.8 C 0 km/h
899 19-08-2003 05:54:01 17.7 C 12.98 g/m*3 17.7 C 0 km/h
900 19-08-2003 06:04:02 17.7 C 13.13 g/m*3 17.7 C 0 km/h
Sensor: Nr:Datum:Temp:Abs-Feuchte:Windchill:Wind:
Aussen-T/F 901 19-08-2003 06:14:02 17.6 C 13.2 g/m*3 17.6 C 0 km/h
902 19-08-2003 06:24:02 17.9 C 13.28 g/m*3 17.9 C 0 km/h
903 19-08-2003 06:34:00 17.9 C 13.13 g/m*3 17.9 C 0 km/h
904 19-08-2003 06:44:00 18.2 C 13.06 g/m*3 18.2 C 0 km/h
905 19-08-2003 06:54:00 18.5 C 13.13 g/m*3 18.5 C 0 km/h
906 19-08-2003 07:04:01 18.5 C 12.97 g/m*3 18.5 C 0 km/h
907 19-08-2003 07:14:01 18.6 C 13.05 g/m*3 18.6 C 0 km/h
908 19-08-2003 07:24:01 18.7 C 13.13 g/m*3 18.7 C 0 km/h
909 19-08-2003 07:34:01 18.7 C 13.13 g/m*3 18.7 C 0 km/h
910 19-08-2003 07:44:01 18.9 C 13.28 g/m*3 18.9 C 0 km/h
911 19-08-2003 07:54:01 18.9 C 13.12 g/m*3 18.9 C 0 km/h
912 19-08-2003 08:04:01 19.3 C 13.27 g/m*3 19.3 C 0 km/h
913 19-08-2003 08:14:01 19.2 C 13.03 g/m*3 19.2 C 0 km/h
914 19-08-2003 08:24:01 19.3 C 13.1 g/m*3 19.3 C 0 km/h
915 19-08-2003 08:34:02 19.5 C 13.09 g/m*3 19.5 C 0 km/h
916 19-08-2003 08:44:02 19.7 C 13.25 g/m*3 19.7 C 0 km/h
917 19-08-2003 08:54:02 19.7 C 13.25 g/m*3 19.7 C 0 km/h
918 19-08-2003 09:04:01 19.8 C 13.49 g/m*3 19.8 C 0 km/h
919 19-08-2003 09:14:01 19.7 C 13.25 g/m*3 19.7 C 0 km/h
920 19-08-2003 09:24:01 20.3 C 13.37 g/m*3 20.3 C 0 km/h
921 19-08-2003 09:34:01 20.4 C 13.09 g/m*3 20.4 C 0 km/h
922 19-08-2003 09:44:01 20.6 C 13.24 g/m*3 20.6 C 0 km/h
923 19-08-2003 09:54:01 20.6 C 12.89 g/m*3 20.6 C 0 km/h
924 19-08-2003 10:04:02 20.7 C 13.14 g/m*3 20.7 C 0 km/h
925 19-08-2003 10:14:02 20.8 C 13.04 g/m*3 20.8 C 0 km/h
Sensor: Nr:Datum:Temp:Abs-Feuchte:Windchill:Wind:
Aussen-T/F 926 19-08-2003 10:24:02 21 C 13.01 g/m*3 21 C 0 km/h
927 19-08-2003 10:34:01 21.3 C 12.86 g/m*3 21.3 C 0 km/h
928 19-08-2003 10:44:01 21.9 C 13.12 g/m*3 21.9 C 0 km/h
929 19-08-2003 10:54:01 21.7 C 12.59 g/m*3 21.7 C 0 km/h
930 19-08-2003 11:04:01 22.1 C 12.69 g/m*3 22.1 C 0 km/h
931 19-08-2003 11:14:01 22.3 C 12.83 g/m*3 22.3 C 0 km/h
932 19-08-2003 11:24:01 22.2 C 12.57 g/m*3 22.2 C 0 km/h
933 19-08-2003 11:34:02 22.5 C 12.78 g/m*3 22.5 C 0 km/h
934 19-08-2003 11:44:02 22.5 C 12.58 g/m*3 22.5 C 0 km/h
935 19-08-2003 11:54:02 23.1 C 12.61 g/m*3 23.1 C 0 km/h
936 19-08-2003 12:04:01 23.6 C 12.76 g/m*3 23.6 C 0 km/h
937 19-08-2003 12:14:01 23.8 C 12.48 g/m*3 23.8 C 0 km/h
938 19-08-2003 12:24:01 23.9 C 12.33 g/m*3 23.9 C 0 km/h
939 19-08-2003 12:34:01 24.3 C 12.17 g/m*3 24.3 C 0 km/h
940 19-08-2003 12:44:01 23.9 C 12.11 g/m*3 23.9 C 0 km/h
941 19-08-2003 12:54:01 24.4 C 12.24 g/m*3 24.4 C 0 km/h
942 19-08-2003 13:04:01 24.8 C 11.84 g/m*3 24.8 C 0 km/h
943 19-08-2003 13:14:01 25.7 C 11.73 g/m*3 25.7 C 0 km/h
944 19-08-2003 13:24:01 25.7 C 11.73 g/m*3 25.7 C 0 km/h
945 19-08-2003 13:34:00 25.2 C 11.41 g/m*3 25.2 C 0 km/h
946 19-08-2003 13:44:00 24.7 C 11.77 g/m*3 24.7 C 0 km/h
947 19-08-2003 13:54:00 24.4 C 11.57 g/m*3 24.4 C 0 km/h
948 19-08-2003 14:04:01 24.8 C 11.84 g/m*3 24.8 C 0 km/h
949 19-08-2003 14:14:01 24.7 C 11.54 g/m*3 24.7 C 0 km/h
950 19-08-2003 14:24:01 24.1 C 11.38 g/m*3 24.1 C 0 km/h
Sensor: Nr:Datum:Temp:Abs-Feuchte:Windchill:Wind:
Aussen-T/F 951 19-08-2003 14:34:02 23.8 C 12.05 g/m*3 23.8 C 0 km/h
952 19-08-2003 14:44:02 23.9 C 12.11 g/m*3 23.9 C 0 km/h
953 19-08-2003 14:54:02 23.6 C 12.34 g/m*3 23.6 C 0 km/h
954 19-08-2003 15:04:01 23.7 C 11.98 g/m*3 23.7 C 0 km/h
955 19-08-2003 15:14:01 22 C 13.97 g/m*3 22 C 0 km/h
956 19-08-2003 15:24:01 21.6 C 14.03 g/m*3 21.6 C 0 km/h
957 19-08-2003 15:34:01 22 C 13.78 g/m*3 22 C 0 km/h
958 19-08-2003 15:44:01 22.6 C 13.46 g/m*3 22.6 C 0 km/h
959 19-08-2003 15:54:01 22.6 C 13.06 g/m*3 22.6 C 0 km/h
960 19-08-2003 16:04:01 23.1 C 12.82 g/m*3 23.1 C 0 km/h
961 19-08-2003 16:14:01 23.4 C 12.83 g/m*3 23.4 C 0 km/h
962 19-08-2003 16:24:01 24.1 C 12.69 g/m*3 24.1 C 0 km/h
963 19-08-2003 16:34:52 25.1 C 12.5 g/m*3 25.1 C 0 km/h
964 19-08-2003 16:44:52 25.3 C 11.94 g/m*3 25.3 C 0 km/h
965 19-08-2003 16:54:00 25.6 C 11.9 g/m*3 25.6 C 0 km/h
966 19-08-2003 17:04:01 24.5 C 11.86 g/m*3 24.5 C 0 km/h
967 19-08-2003 17:14:01 24.8 C 12.06 g/m*3 24.8 C 0 km/h
968 19-08-2003 17:24:01 24.7 C 12.22 g/m*3 24.7 C 0 km/h
969 19-08-2003 17:34:01 24.9 C 11.9 g/m*3 24.9 C 0 km/h
970 19-08-2003 17:44:01 24.6 C 11.48 g/m*3 24.6 C 0 km/h
971 19-08-2003 17:54:01 24.4 C 11.57 g/m*3 24.4 C 0 km/h
972 19-08-2003 18:04:02 24.5 C 11.41 g/m*3 24.5 C 0 km/h
973 19-08-2003 18:14:02 24.6 C 11.25 g/m*3 24.6 C 0 km/h
974 19-08-2003 18:24:02 24.6 C 10.35 g/m*3 24.6 C 0 km/h
975 19-08-2003 18:34:01 24.5 C 10.3 g/m*3 24.5 C 0 km/h
Sensor: Nr:Datum:Temp:Abs-Feuchte:Windchill:Wind:
Aussen-T/F 976 19-08-2003 18:44:01 24.3 C 11.06 g/m*3 24.3 C 0 km/h
977 19-08-2003 18:54:01 23.9 C 12.11 g/m*3 23.9 C 0 km/h
978 19-08-2003 19:04:01 23.6 C 11.91 g/m*3 23.6 C 0 km/h
979 19-08-2003 19:14:01 23.3 C 11.5 g/m*3 23.3 C 0 km/h
980 19-08-2003 19:24:01 23.3 C 10.66 g/m*3 23.3 C 0 km/h
981 19-08-2003 19:34:01 23.3 C 11.08 g/m*3 23.3 C 0 km/h
982 19-08-2003 19:44:01 23.2 C 11.23 g/m*3 23.2 C 0 km/h
983 19-08-2003 19:54:01 23.1 C 10.34 g/m*3 23.1 C 0 km/h
984 19-08-2003 20:04:01 23 C 10.28 g/m*3 23 C 0 km/h
985 19-08-2003 20:14:01 22.9 C 10.42 g/m*3 22.9 C 0 km/h
986 19-08-2003 20:24:01 22.8 C 10.97 g/m*3 22.8 C 0 km/h
987 19-08-2003 20:34:01 22.4 C 11.12 g/m*3 22.4 C 0 km/h
988 19-08-2003 20:44:01 22.3 C 11.26 g/m*3 22.3 C 0 km/h
989 19-08-2003 20:54:01 22.1 C 10.93 g/m*3 22.1 C 0 km/h
990 19-08-2003 21:05:03 22 C 11.26 g/m*3 22 C 0 km/h
991 19-08-2003 21:15:03 22 C 11.45 g/m*3 22 C 0 km/h
992 19-08-2003 21:25:03 21.9 C 10.23 g/m*3 21.9 C 0 km/h
993 19-08-2003 21:35:03 21.9 C 10.23 g/m*3 21.9 C 0 km/h
994 19-08-2003 21:45:03 21.9 C 10.23 g/m*3 21.9 C 0 km/h
995 19-08-2003 21:55:03 21.9 C 10.03 g/m*3 21.9 C 0 km/h
996 19-08-2003 22:05:03 21.9 C 10.61 g/m*3 21.9 C 0 km/h
997 19-08-2003 22:15:03 21.8 C 10.55 g/m*3 21.8 C 0 km/h
998 19-08-2003 22:25:03 21.6 C 10.24 g/m*3 21.6 C 0 km/h
999 19-08-2003 22:35:03 21.5 C 10.56 g/m*3 21.5 C 0 km/h
1000 19-08-2003 22:45:03 21.2 C 10.56 g/m*3 21.2 C 0 km/h
Sensor: Nr:Datum:Temp:Abs-Feuchte:Windchill:Wind:
Aussen-T/F 1001 19-08-2003 22:55:03 21.1 C 10.5 g/m*3 21.1 C 0 km/h
1002 19-08-2003 23:05:03 20.9 C 10.56 g/m*3 20.9 C 0 km/h
1003 19-08-2003 23:15:03 20.5 C 10.5 g/m*3 20.5 C 0 km/h
1004 19-08-2003 23:25:03 20.3 C 10.2 g/m*3 20.3 C 0 km/h
1005 19-08-2003 23:35:03 19.9 C 10.31 g/m*3 19.9 C 0 km/h
1006 19-08-2003 23:45:03 19.9 C 10.14 g/m*3 19.9 C 0 km/h
1007 19-08-2003 23:55:03 19.6 C 10.13 g/m*3 19.6 C 0 km/h
1008 20-08-2003 00:05:03 19.4 C 10.18 g/m*3 19.4 C 0 km/h
1009 20-08-2003 00:15:03 19.1 C 9.84 g/m*3 19.1 C 0 km/h
1010 20-08-2003 00:25:03 19.1 C 9.84 g/m*3 19.1 C 0 km/h
1011 20-08-2003 00:35:03 18.8 C 9.99 g/m*3 18.8 C 0 km/h
1012 20-08-2003 00:45:03 18.7 C 10.09 g/m*3 18.7 C 0 km/h
1013 20-08-2003 00:55:03 18.8 C 10.15 g/m*3 18.8 C 0 km/h
1014 20-08-2003 01:05:03 18.9 C 10.53 g/m*3 18.9 C 0 km/h
1015 20-08-2003 01:15:03 18.7 C 10.41 g/m*3 18.7 C 0 km/h
1016 20-08-2003 01:25:03 18.4 C 10.07 g/m*3 18.4 C 0 km/h
1017 20-08-2003 01:35:03 18.3 C 9.85 g/m*3 18.3 C 0 km/h
1018 20-08-2003 01:45:03 18.1 C 9.89 g/m*3 18.1 C 0 km/h
1019 20-08-2003 01:55:03 17.8 C 10.02 g/m*3 17.8 C 0 km/h
1020 20-08-2003 02:05:03 17.4 C 9.93 g/m*3 17.4 C 0 km/h
1021 20-08-2003 02:15:03 17.2 C 9.96 g/m*3 17.2 C 0 km/h
1022 20-08-2003 02:25:03 17.1 C 10.04 g/m*3 17.1 C 0 km/h
1023 20-08-2003 02:35:03 16.9 C 10.21 g/m*3 16.9 C 0 km/h
1024 20-08-2003 02:45:03 16.6 C 10.03 g/m*3 16.6 C 0 km/h
1025 20-08-2003 02:55:03 16.6 C 10.03 g/m*3 16.6 C 0 km/h
Sensor: Nr:Datum:Temp:Abs-Feuchte:Windchill:Wind:
Aussen-T/F 1026 20-08-2003 03:05:03 16.6 C 10.03 g/m*3 16.6 C 0 km/h
1027 20-08-2003 03:15:03 16.2 C 9.79 g/m*3 16.2 C 0 km/h
1028 20-08-2003 03:25:03 16 C 9.81 g/m*3 16 C 0 km/h
1029 20-08-2003 03:35:03 15.8 C 9.96 g/m*3 15.8 C 0 km/h
1030 20-08-2003 03:45:03 15.6 C 9.97 g/m*3 15.6 C 0 km/h
1031 20-08-2003 03:55:03 15.4 C 9.85 g/m*3 15.4 C 0 km/h
1032 20-08-2003 04:05:03 15.2 C 9.99 g/m*3 15.2 C 0 km/h
1033 20-08-2003 04:15:03 15 C 9.87 g/m*3 15 C 0 km/h
1034 20-08-2003 04:25:03 14.9 C 10.2 g/m*3 14.9 C 0 km/h
1035 20-08-2003 04:35:03 14.8 C 10.13 g/m*3 14.8 C 0 km/h
1036 20-08-2003 04:45:03 14.8 C 10.13 g/m*3 14.8 C 0 km/h
1037 20-08-2003 04:55:03 14.8 C 10.13 g/m*3 14.8 C 0 km/h
1038 20-08-2003 05:05:03 14.8 C 10.26 g/m*3 14.8 C 0 km/h
1039 20-08-2003 05:15:03 14.7 C 10.07 g/m*3 14.7 C 0 km/h
1040 20-08-2003 05:25:03 15 C 10.26 g/m*3 15 C 0 km/h
1041 20-08-2003 05:35:03 14.9 C 10.2 g/m*3 14.9 C 0 km/h
1042 20-08-2003 05:45:03 14.6 C 10.14 g/m*3 14.6 C 0 km/h
1043 20-08-2003 05:55:03 14.4 C 9.89 g/m*3 14.4 C 0 km/h
1044 20-08-2003 06:05:03 14.2 C 9.89 g/m*3 14.2 C 0 km/h
1045 20-08-2003 06:15:03 14.1 C 10.07 g/m*3 14.1 C 0 km/h
1046 20-08-2003 06:25:03 14.1 C 10.07 g/m*3 14.1 C 0 km/h
1047 20-08-2003 06:35:01 13.7 C 9.95 g/m*3 13.7 C 0 km/h
1048 20-08-2003 06:45:01 13.7 C 9.95 g/m*3 13.7 C 0 km/h
1049 20-08-2003 06:55:01 13.8 C 10.13 g/m*3 13.8 C 0 km/h
1050 20-08-2003 07:05:00 13.8 C 10.13 g/m*3 13.8 C 0 km/h
Sensor: Nr:Datum:Temp:Abs-Feuchte:Windchill:Wind:
Aussen-T/F 1051 20-08-2003 07:15:00 13.8 C 10.13 g/m*3 13.8 C 0 km/h
1052 20-08-2003 07:25:00 14 C 10.25 g/m*3 14 C 0 km/h
1053 20-08-2003 07:35:01 14 C 10.25 g/m*3 14 C 0 km/h
1054 20-08-2003 07:45:01 14.3 C 10.44 g/m*3 14.3 C 0 km/h
1055 20-08-2003 07:55:01 14.2 C 10.38 g/m*3 14.2 C 0 km/h
1056 20-08-2003 08:05:41 14.3 C 10.44 g/m*3 14.3 C 0 km/h
1057 20-08-2003 08:15:29 14.5 C 10.45 g/m*3 14.5 C 0 km/h
1058 20-08-2003 08:25:40 14.6 C 10.51 g/m*3 14.6 C 0 km/h
1059 20-08-2003 08:35:01 14.8 C 10.51 g/m*3 14.8 C 0 km/h
1060 20-08-2003 08:45:01 15 C 10.51 g/m*3 15 C 0 km/h
1061 20-08-2003 08:55:01 15.3 C 10.45 g/m*3 15.3 C 0 km/h
1062 20-08-2003 09:05:02 15.6 C 10.51 g/m*3 15.6 C 0 km/h
1063 20-08-2003 09:15:02 15.8 C 10.36 g/m*3 15.8 C 0 km/h
1064 20-08-2003 09:25:02 16.1 C 10.28 g/m*3 16.1 C 0 km/h
1065 20-08-2003 09:35:01 16.5 C 10.53 g/m*3 16.5 C 0 km/h
1066 20-08-2003 09:45:01 17 C 10.56 g/m*3 17 C 0 km/h
1067 20-08-2003 09:55:01 17.5 C 10.59 g/m*3 17.5 C 0 km/h
1068 20-08-2003 10:05:01 18 C 10.6 g/m*3 18 C 0 km/h
1069 20-08-2003 10:15:01 18.4 C 10.7 g/m*3 18.4 C 0 km/h
1070 20-08-2003 10:25:01 18.9 C 10.85 g/m*3 18.9 C 0 km/h
1071 20-08-2003 10:35:01 19.3 C 10.62 g/m*3 19.3 C 0 km/h
1072 20-08-2003 10:45:01 19.7 C 10.7 g/m*3 19.7 C 0 km/h
1073 20-08-2003 10:55:01 20.1 C 10.26 g/m*3 20.1 C 0 km/h
1074 20-08-2003 11:05:02 20.5 C 10.32 g/m*3 20.5 C 0 km/h
1075 20-08-2003 11:15:02 21.2 C 10.19 g/m*3 21.2 C 0 km/h
Sensor: Nr:Datum:Temp:Abs-Feuchte:Windchill:Wind:
Aussen-T/F 1076 20-08-2003 11:25:02 21.5 C 10.18 g/m*3 21.5 C 0 km/h
1077 20-08-2003 11:35:01 21.8 C 9.4 g/m*3 21.8 C 0 km/h
1078 20-08-2003 11:45:01 22.3 C 9.68 g/m*3 22.3 C 0 km/h
1079 20-08-2003 11:55:01 22.6 C 9.44 g/m*3 22.6 C 0 km/h
1080 20-08-2003 12:05:01 22.8 C 9.35 g/m*3 22.8 C 0 km/h
1081 20-08-2003 12:15:01 23 C 9.04 g/m*3 23 C 0 km/h
1082 20-08-2003 12:25:01 23.3 C 8.78 g/m*3 23.3 C 0 km/h
1083 20-08-2003 12:35:01 23.7 C 8.77 g/m*3 23.7 C 0 km/h
1084 20-08-2003 12:45:01 23.9 C 8.44 g/m*3 23.9 C 0 km/h
1085 20-08-2003 12:55:01 23.7 C 8.34 g/m*3 23.7 C 0 km/h
1086 20-08-2003 13:05:02 24.8 C 8.42 g/m*3 24.8 C 0 km/h
1087 20-08-2003 13:15:02 25.3 C 8.19 g/m*3 25.3 C 0 km/h
1088 20-08-2003 13:25:02 25.5 C 7.58 g/m*3 25.5 C 0 km/h
1089 20-08-2003 13:35:01 25.7 C 7.42 g/m*3 25.7 C 0 km/h
1090 20-08-2003 13:45:01 26.4 C 7.97 g/m*3 26.4 C 0 km/h
1091 20-08-2003 13:55:01 27.5 C 7.94 g/m*3 27.5 C 0 km/h
1092 20-08-2003 14:04:01 27.2 C 7.55 g/m*3 27.2 C 0 km/h
1093 20-08-2003 14:16:01 25.9 C 7.51 g/m*3 25.9 C 0 km/h
1094 20-08-2003 14:28:01 26.7 C 7.59 g/m*3 26.7 C 0 km/h
1095 20-08-2003 14:40:01 26.1 C 7.34 g/m*3 26.1 C 0 km/h
1096 20-08-2003 14:52:01 28.2 C 7.7 g/m*3 28.2 C 0 km/h
1097 20-08-2003 15:04:01 28.7 C 7.35 g/m*3 28.7 C 0 km/h
1098 20-08-2003 15:16:01 28.8 C 7.67 g/m*3 28.8 C 0 km/h
1099 20-08-2003 15:28:01 29 C 7.18 g/m*3 29 C 0 km/h
1100 20-08-2003 15:40:00 29.1 C 6.93 g/m*3 29.1 C 0 km/h
Sensor: Nr:Datum:Temp:Abs-Feuchte:Windchill:Wind:
Aussen-T/F 1101 20-08-2003 15:52:00 29.4 C 7.34 g/m*3 29.4 C 0 km/h
1102 20-08-2003 16:04:01 28.4 C 6.67 g/m*3 28.4 C 0 km/h
1103 20-08-2003 16:16:01 28.8 C 7.1 g/m*3 28.8 C 0 km/h
1104 20-08-2003 16:28:01 29.1 C 6.35 g/m*3 29.1 C 0 km/h
1105 20-08-2003 16:40:01 29.6 C 7.42 g/m*3 29.6 C 0 km/h
1106 20-08-2003 16:52:01 28.9 C 6.57 g/m*3 28.9 C 0 km/h
1107 20-08-2003 17:04:01 29.7 C 6.86 g/m*3 29.7 C 0 km/h
1108 20-08-2003 17:16:01 29.3 C 6.42 g/m*3 29.3 C 0 km/h
1109 20-08-2003 17:28:01 28.8 C 6.82 g/m*3 28.8 C 0 km/h
1110 20-08-2003 17:40:00 29.6 C 6.53 g/m*3 29.6 C 0 km/h
1111 20-08-2003 17:52:00 28.9 C 6.57 g/m*3 28.9 C 0 km/h
1112 20-08-2003 18:04:02 28.9 C 7.14 g/m*3 28.9 C 0 km/h
1113 20-08-2003 18:16:02 29.1 C 6.93 g/m*3 29.1 C 0 km/h
1114 20-08-2003 18:28:02 28.4 C 6.95 g/m*3 28.4 C 0 km/h
1115 20-08-2003 18:40:02 28.5 C 6.99 g/m*3 28.5 C 0 km/h
1116 20-08-2003 18:52:02 27.6 C 6.92 g/m*3 27.6 C 0 km/h
1117 20-08-2003 19:04:01 27.9 C 7.3 g/m*3 27.9 C 0 km/h
1118 20-08-2003 19:16:01 27.6 C 7.18 g/m*3 27.6 C 0 km/h
1119 20-08-2003 19:28:01 26.9 C 7.42 g/m*3 26.9 C 0 km/h
1120 20-08-2003 19:40:02 26.9 C 7.68 g/m*3 26.9 C 0 km/h
1121 20-08-2003 19:52:02 26.1 C 7.34 g/m*3 26.1 C 0 km/h
1122 20-08-2003 20:04:01 25.6 C 7.38 g/m*3 25.6 C 0 km/h
1123 20-08-2003 20:16:01 24.9 C 8.01 g/m*3 24.9 C 0 km/h
1124 20-08-2003 20:28:01 24 C 8.27 g/m*3 24 C 0 km/h
1125 20-08-2003 20:40:01 22.7 C 8.49 g/m*3 22.7 C 0 km/h
Sensor: Nr:Datum:Temp:Abs-Feuchte:Windchill:Wind:
Aussen-T/F 1126 20-08-2003 20:52:01 21.6 C 8.35 g/m*3 21.6 C 0 km/h
1127 20-08-2003 21:04:02 21.3 C 8.39 g/m*3 21.3 C 0 km/h
1128 20-08-2003 21:16:02 21 C 8.43 g/m*3 21 C 0 km/h
1129 20-08-2003 21:28:02 20.6 C 8.41 g/m*3 20.6 C 0 km/h
1130 20-08-2003 21:40:01 20.3 C 8.44 g/m*3 20.3 C 0 km/h
1131 20-08-2003 21:52:01 19.8 C 8.54 g/m*3 19.8 C 0 km/h
1132 20-08-2003 22:04:01 19.4 C 8.34 g/m*3 19.4 C 0 km/h
1133 20-08-2003 22:16:01 19.4 C 8.68 g/m*3 19.4 C 0 km/h
1134 20-08-2003 22:28:01 19.3 C 8.29 g/m*3 19.3 C 0 km/h
1135 20-08-2003 22:41:01 18.9 C 8.59 g/m*3 18.9 C 0 km/h
1136 20-08-2003 22:53:01 18.7 C 8.65 g/m*3 18.7 C 0 km/h
1137 20-08-2003 23:05:01 18.6 C 8.59 g/m*3 18.6 C 0 km/h
1138 20-08-2003 23:17:01 18.4 C 8.65 g/m*3 18.4 C 0 km/h
1139 20-08-2003 23:29:01 18.1 C 8.5 g/m*3 18.1 C 0 km/h
1140 20-08-2003 23:41:01 17.9 C 9.01 g/m*3 17.9 C 0 km/h
1141 20-08-2003 23:53:01 17.3 C 8.99 g/m*3 17.3 C 0 km/h
1142 21-08-2003 00:05:01 17.2 C 8.79 g/m*3 17.2 C 0 km/h
1143 21-08-2003 00:17:01 17.1 C 8.73 g/m*3 17.1 C 0 km/h
1144 21-08-2003 00:29:01 16.8 C 9.01 g/m*3 16.8 C 0 km/h
1145 21-08-2003 00:41:01 16.8 C 9.01 g/m*3 16.8 C 0 km/h
1146 21-08-2003 00:53:01 16.6 C 8.9 g/m*3 16.6 C 0 km/h
1147 21-08-2003 01:05:01 16.3 C 9.02 g/m*3 16.3 C 0 km/h
1148 21-08-2003 01:17:01 16.2 C 8.96 g/m*3 16.2 C 0 km/h
1149 21-08-2003 01:29:01 16.2 C 9.1 g/m*3 16.2 C 0 km/h
1150 21-08-2003 01:41:01 16.3 C 9.16 g/m*3 16.3 C 0 km/h
Sensor: Nr:Datum:Temp:Abs-Feuchte:Windchill:Wind:
Aussen-T/F 1151 21-08-2003 01:53:01 16.1 C 9.18 g/m*3 16.1 C 0 km/h
1152 21-08-2003 02:05:01 15.8 C 9.29 g/m*3 15.8 C 0 km/h
1153 21-08-2003 02:17:01 15.6 C 9.18 g/m*3 15.6 C 0 km/h
1154 21-08-2003 02:29:01 15.4 C 9.07 g/m*3 15.4 C 0 km/h
1155 21-08-2003 02:41:01 15.2 C 9.35 g/m*3 15.2 C 0 km/h
1156 21-08-2003 02:53:01 15.1 C 9.29 g/m*3 15.1 C 0 km/h
1157 21-08-2003 03:05:01 14.8 C 9.12 g/m*3 14.8 C 0 km/h
1158 21-08-2003 03:17:01 14.7 C 9.19 g/m*3 14.7 C 0 km/h
1159 21-08-2003 03:29:01 14.5 C 9.2 g/m*3 14.5 C 0 km/h
1160 21-08-2003 03:41:01 14.4 C 9.15 g/m*3 14.4 C 0 km/h
1161 21-08-2003 03:53:01 14.2 C 9.04 g/m*3 14.2 C 0 km/h
1162 21-08-2003 04:05:01 14.2 C 9.28 g/m*3 14.2 C 0 km/h
1163 21-08-2003 04:17:01 13.9 C 9.23 g/m*3 13.9 C 0 km/h
1164 21-08-2003 04:29:01 13.8 C 9.17 g/m*3 13.8 C 0 km/h
1165 21-08-2003 04:41:01 13.7 C 9.35 g/m*3 13.7 C 0 km/h
1166 21-08-2003 04:53:01 13.5 C 9.36 g/m*3 13.5 C 0 km/h
1167 21-08-2003 05:05:01 13.4 C 9.18 g/m*3 13.4 C 0 km/h
1168 21-08-2003 05:17:01 13.3 C 9.13 g/m*3 13.3 C 0 km/h
1169 21-08-2003 05:29:01 13.1 C 9.01 g/m*3 13.1 C 0 km/h
1170 21-08-2003 05:41:01 13 C 8.96 g/m*3 13 C 0 km/h
1171 21-08-2003 05:53:01 12.9 C 9.24 g/m*3 12.9 C 0 km/h
1172 21-08-2003 06:05:01 12.8 C 9.3 g/m*3 12.8 C 0 km/h
1173 21-08-2003 06:17:01 12.7 C 9.24 g/m*3 12.7 C 0 km/h
1174 21-08-2003 06:29:01 12.5 C 9.13 g/m*3 12.5 C 0 km/h
1175 21-08-2003 06:41:01 12.5 C 9.13 g/m*3 12.5 C 0 km/h
Sensor: Nr:Datum:Temp:Abs-Feuchte:Windchill:Wind:
Aussen-T/F 1176 21-08-2003 06:53:01 12.5 C 9.13 g/m*3 12.5 C 0 km/h
1177 21-08-2003 07:05:01 12.5 C 9.24 g/m*3 12.5 C 0 km/h
1178 21-08-2003 07:17:01 12.5 C 9.24 g/m*3 12.5 C 0 km/h
1179 21-08-2003 07:29:01 12.7 C 9.24 g/m*3 12.7 C 0 km/h
1180 21-08-2003 07:41:01 12.7 C 9.35 g/m*3 12.7 C 0 km/h
1181 21-08-2003 07:53:01 12.9 C 9.47 g/m*3 12.9 C 0 km/h
1182 21-08-2003 08:05:01 13 C 9.53 g/m*3 13 C 0 km/h
1183 21-08-2003 08:17:01 13 C 9.41 g/m*3 13 C 0 km/h
1184 21-08-2003 08:29:01 13.3 C 9.47 g/m*3 13.3 C 0 km/h
1185 21-08-2003 08:41:01 13.6 C 9.42 g/m*3 13.6 C 0 km/h
1186 21-08-2003 08:53:01 13.9 C 9.47 g/m*3 13.9 C 0 km/h
1187 21-08-2003 09:05:01 14.1 C 9.47 g/m*3 14.1 C 0 km/h
1188 21-08-2003 09:17:01 14.6 C 9.64 g/m*3 14.6 C 0 km/h
1189 21-08-2003 09:29:01 15.1 C 9.55 g/m*3 15.1 C 0 km/h
1190 21-08-2003 09:41:01 15.6 C 9.71 g/m*3 15.6 C 0 km/h
1191 21-08-2003 09:53:01 16.2 C 9.79 g/m*3 16.2 C 0 km/h
1192 21-08-2003 10:05:02 16.8 C 9.58 g/m*3 16.8 C 0 km/h
1193 21-08-2003 10:17:02 17.4 C 9.19 g/m*3 17.4 C 0 km/h
1194 21-08-2003 10:29:02 18.1 C 8.96 g/m*3 18.1 C 0 km/h
1195 21-08-2003 10:41:01 18.7 C 9.45 g/m*3 18.7 C 0 km/h
1196 21-08-2003 10:53:01 19.3 C 9.45 g/m*3 19.3 C 0 km/h
1197 21-08-2003 11:05:01 20 C 9.51 g/m*3 20 C 0 km/h
1198 21-08-2003 11:17:01 20.9 C 9.65 g/m*3 20.9 C 0 km/h
1199 21-08-2003 11:29:01 21.7 C 9.16 g/m*3 21.7 C 0 km/h
1200 21-08-2003 11:41:00 22.4 C 9.33 g/m*3 22.4 C 0 km/h
Sensor: Nr:Datum:Temp:Abs-Feuchte:Windchill:Wind:
Aussen-T/F 1201 21-08-2003 11:53:00 23 C 9.04 g/m*3 23 C 0 km/h
1202 21-08-2003 12:05:01 23.8 C 9.25 g/m*3 23.8 C 0 km/h
1203 21-08-2003 12:17:01 23.8 C 8.82 g/m*3 23.8 C 0 km/h
1204 21-08-2003 12:29:01 24.4 C 8.23 g/m*3 24.4 C 0 km/h
1205 21-08-2003 12:41:01 24.9 C 8.24 g/m*3 24.9 C 0 km/h
1206 21-08-2003 12:53:01 25.4 C 7.77 g/m*3 25.4 C 0 km/h
1207 21-08-2003 13:05:01 25.7 C 7.66 g/m*3 25.7 C 0 km/h
1208 21-08-2003 13:17:01 25.4 C 7.53 g/m*3 25.4 C 0 km/h
1209 21-08-2003 13:29:01 25.7 C 8.14 g/m*3 25.7 C 0 km/h
1210 21-08-2003 13:41:01 26 C 7.55 g/m*3 26 C 0 km/h
1211 21-08-2003 13:53:01 26 C 7.3 g/m*3 26 C 0 km/h
1212 21-08-2003 14:05:01 26.5 C 7.26 g/m*3 26.5 C 0 km/h
1213 21-08-2003 14:17:01 27.3 C 7.06 g/m*3 27.3 C 0 km/h
1214 21-08-2003 14:29:01 27.7 C 6.95 g/m*3 27.7 C 0 km/h
1215 21-08-2003 14:41:01 27.4 C 6.58 g/m*3 27.4 C 0 km/h
1216 21-08-2003 14:53:01 28.1 C 6.84 g/m*3 28.1 C 0 km/h
1217 21-08-2003 15:05:02 28.7 C 7.06 g/m*3 28.7 C 0 km/h
1218 21-08-2003 15:17:02 29 C 6.61 g/m*3 29 C 0 km/h
1219 21-08-2003 15:29:02 28.7 C 6.5 g/m*3 28.7 C 0 km/h
1220 21-08-2003 15:41:01 29.7 C 6.86 g/m*3 29.7 C 0 km/h
1221 21-08-2003 15:53:01 29.5 C 6.2 g/m*3 29.5 C 0 km/h
1222 21-08-2003 16:05:02 30.4 C 6.51 g/m*3 30.4 C 0 km/h
1223 21-08-2003 16:17:02 30.1 C 6.4 g/m*3 30.1 C 0 km/h
1224 21-08-2003 16:29:02 30.5 C 6.54 g/m*3 30.5 C 0 km/h
1225 21-08-2003 16:41:01 30.6 C 6.26 g/m*3 30.6 C 0 km/h
Sensor: Nr:Datum:Temp:Abs-Feuchte:Windchill:Wind:
Aussen-T/F 1226 21-08-2003 16:53:01 31 C 6.4 g/m*3 31 C 0 km/h
1227 21-08-2003 17:05:01 29.6 C 5.94 g/m*3 29.6 C 0 km/h
1228 21-08-2003 17:17:01 30 C 6.06 g/m*3 30 C 0 km/h
1229 21-08-2003 17:29:01 30 C 6.06 g/m*3 30 C 0 km/h
1230 21-08-2003 17:41:00 30.4 C 6.51 g/m*3 30.4 C 0 km/h
1231 21-08-2003 17:53:00 30.3 C 6.47 g/m*3 30.3 C 0 km/h
1232 21-08-2003 18:05:01 30.1 C 6.1 g/m*3 30.1 C 0 km/h
1233 21-08-2003 18:17:01 30.2 C 6.74 g/m*3 30.2 C 0 km/h
1234 21-08-2003 18:29:01 30.2 C 7.05 g/m*3 30.2 C 0 km/h
1235 21-08-2003 18:41:01 29 C 7.18 g/m*3 29 C 0 km/h
1236 21-08-2003 18:53:01 29.5 C 7.97 g/m*3 29.5 C 0 km/h
1237 21-08-2003 19:05:01 28.8 C 8.24 g/m*3 28.8 C 0 km/h
1238 21-08-2003 19:17:01 28.3 C 8.29 g/m*3 28.3 C 0 km/h
1239 21-08-2003 19:29:01 27.6 C 8.51 g/m*3 27.6 C 0 km/h
1240 21-08-2003 19:41:01 27.3 C 9.42 g/m*3 27.3 C 0 km/h
1241 21-08-2003 19:53:01 26.6 C 9.82 g/m*3 26.6 C 0 km/h
1242 21-08-2003 20:05:02 25.7 C 9.82 g/m*3 25.7 C 0 km/h
1243 21-08-2003 20:17:02 24.9 C 9.61 g/m*3 24.9 C 0 km/h
1244 21-08-2003 20:29:02 24.4 C 9.35 g/m*3 24.4 C 0 km/h
1245 21-08-2003 20:41:00 23.4 C 9.04 g/m*3 23.4 C 0 km/h
1246 21-08-2003 20:53:00 22.9 C 8.99 g/m*3 22.9 C 0 km/h
1247 21-08-2003 21:05:01 22.4 C 9.14 g/m*3 22.4 C 0 km/h
1248 21-08-2003 21:17:01 21.9 C 9.26 g/m*3 21.9 C 0 km/h
1249 21-08-2003 21:29:01 21.6 C 9.29 g/m*3 21.6 C 0 km/h
1250 21-08-2003 21:42:01 21.3 C 9.32 g/m*3 21.3 C 0 km/h
Sensor: Nr:Datum:Temp:Abs-Feuchte:Windchill:Wind:
Aussen-T/F 1251 21-08-2003 21:54:01 21.1 C 9.4 g/m*3 21.1 C 0 km/h
1252 21-08-2003 22:06:01 21 C 9.34 g/m*3 21 C 0 km/h
1253 21-08-2003 22:18:01 20.9 C 9.29 g/m*3 20.9 C 0 km/h
1254 21-08-2003 22:30:01 20.5 C 9.07 g/m*3 20.5 C 0 km/h
1255 21-08-2003 22:42:01 20.5 C 9.25 g/m*3 20.5 C 0 km/h
1256 21-08-2003 22:54:01 20.1 C 9.21 g/m*3 20.1 C 0 km/h
1257 21-08-2003 23:06:01 20 C 9.51 g/m*3 20 C 0 km/h
1258 21-08-2003 23:18:01 19.7 C 9.85 g/m*3 19.7 C 0 km/h
1259 21-08-2003 23:30:01 19.5 C 9.73 g/m*3 19.5 C 0 km/h
1260 21-08-2003 23:42:01 19.3 C 9.79 g/m*3 19.3 C 0 km/h
1261 21-08-2003 23:54:01 19.1 C 9.84 g/m*3 19.1 C 0 km/h
1262 22-08-2003 00:06:01 18.9 C 9.88 g/m*3 18.9 C 0 km/h
1263 22-08-2003 00:18:01 18.6 C 9.87 g/m*3 18.6 C 0 km/h
1264 22-08-2003 00:30:01 18.4 C 9.91 g/m*3 18.4 C 0 km/h
1265 22-08-2003 00:42:01 18.1 C 9.73 g/m*3 18.1 C 0 km/h
1266 22-08-2003 00:54:01 17.9 C 10.08 g/m*3 17.9 C 0 km/h
1267 22-08-2003 01:06:01 18 C 9.83 g/m*3 18 C 0 km/h
1268 22-08-2003 01:18:01 17.8 C 10.02 g/m*3 17.8 C 0 km/h
1269 22-08-2003 01:30:01 17.6 C 10.05 g/m*3 17.6 C 0 km/h
1270 22-08-2003 01:42:01 17.5 C 9.99 g/m*3 17.5 C 0 km/h
1271 22-08-2003 01:54:01 17.3 C 9.87 g/m*3 17.3 C 0 km/h
1272 22-08-2003 02:06:01 17.1 C 10.04 g/m*3 17.1 C 0 km/h
1273 22-08-2003 02:18:01 17 C 9.98 g/m*3 17 C 0 km/h
1274 22-08-2003 02:30:01 16.9 C 10.07 g/m*3 16.9 C 0 km/h
1275 22-08-2003 02:42:01 16.6 C 10.03 g/m*3 16.6 C 0 km/h
Sensor: Nr:Datum:Temp:Abs-Feuchte:Windchill:Wind:
Aussen-T/F 1276 22-08-2003 02:54:01 16.3 C 9.99 g/m*3 16.3 C 0 km/h
1277 22-08-2003 03:06:01 16.2 C 9.93 g/m*3 16.2 C 0 km/h
1278 22-08-2003 03:18:01 16.2 C 9.93 g/m*3 16.2 C 0 km/h
1279 22-08-2003 03:30:01 16 C 9.81 g/m*3 16 C 0 km/h
1280 22-08-2003 03:42:01 15.8 C 9.96 g/m*3 15.8 C 0 km/h
1281 22-08-2003 03:54:01 15.8 C 9.96 g/m*3 15.8 C 0 km/h
1282 22-08-2003 04:06:01 15.6 C 9.84 g/m*3 15.6 C 0 km/h
1283 22-08-2003 04:18:01 15.4 C 9.85 g/m*3 15.4 C 0 km/h
1284 22-08-2003 04:30:01 15.3 C 9.92 g/m*3 15.3 C 0 km/h
1285 22-08-2003 04:42:01 15.1 C 9.93 g/m*3 15.1 C 0 km/h
1286 22-08-2003 04:54:01 14.9 C 10.07 g/m*3 14.9 C 0 km/h
1287 22-08-2003 05:06:01 14.8 C 10.01 g/m*3 14.8 C 0 km/h
1288 22-08-2003 05:18:01 14.7 C 9.95 g/m*3 14.7 C 0 km/h
1289 22-08-2003 05:30:01 14.4 C 9.89 g/m*3 14.4 C 0 km/h
1290 22-08-2003 05:42:01 14.3 C 9.83 g/m*3 14.3 C 0 km/h
1291 22-08-2003 05:54:01 14.3 C 9.83 g/m*3 14.3 C 0 km/h
1292 22-08-2003 06:06:01 14.1 C 9.71 g/m*3 14.1 C 0 km/h
1293 22-08-2003 06:18:01 14 C 9.65 g/m*3 14 C 0 km/h
1294 22-08-2003 06:30:01 13.9 C 9.71 g/m*3 13.9 C 0 km/h
1295 22-08-2003 06:42:01 13.8 C 9.65 g/m*3 13.8 C 0 km/h
1296 22-08-2003 06:54:01 13.7 C 9.71 g/m*3 13.7 C 0 km/h
1297 22-08-2003 07:06:01 13.6 C 9.65 g/m*3 13.6 C 0 km/h
1298 22-08-2003 07:18:01 13.6 C 9.65 g/m*3 13.6 C 0 km/h
1299 22-08-2003 07:30:01 13.6 C 9.65 g/m*3 13.6 C 0 km/h
1300 22-08-2003 07:42:01 13.8 C 9.77 g/m*3 13.8 C 0 km/h
Sensor: Nr:Datum:Temp:Abs-Feuchte:Windchill:Wind:
Aussen-T/F 1301 22-08-2003 07:54:01 13.9 C 9.83 g/m*3 13.9 C 0 km/h
1302 22-08-2003 08:06:01 14.1 C 9.71 g/m*3 14.1 C 0 km/h
1303 22-08-2003 08:18:01 14.4 C 9.77 g/m*3 14.4 C 0 km/h
1304 22-08-2003 08:30:01 14.7 C 9.82 g/m*3 14.7 C 0 km/h
1305 22-08-2003 08:42:02 15 C 9.87 g/m*3 15 C 0 km/h
1306 22-08-2003 08:54:02 15.5 C 9.78 g/m*3 15.5 C 0 km/h
1307 22-08-2003 09:06:02 15.7 C 9.63 g/m*3 15.7 C 0 km/h
1308 22-08-2003 09:18:02 16 C 9.67 g/m*3 16 C 0 km/h
1309 22-08-2003 09:30:02 16.7 C 9.66 g/m*3 16.7 C 0 km/h
1310 22-08-2003 09:42:01 17.2 C 9.23 g/m*3 17.2 C 0 km/h
1311 22-08-2003 09:54:01 17.6 C 8.85 g/m*3 17.6 C 0 km/h
1312 22-08-2003 10:06:02 18 C 8.29 g/m*3 18 C 0 km/h
1313 22-08-2003 10:18:02 18.5 C 8.54 g/m*3 18.5 C 0 km/h
1314 22-08-2003 10:30:02 18.9 C 8.26 g/m*3 18.9 C 0 km/h
1315 22-08-2003 10:42:01 19.5 C 8.39 g/m*3 19.5 C 0 km/h
1316 22-08-2003 10:54:01 20.1 C 8.34 g/m*3 20.1 C 0 km/h
1317 22-08-2003 11:06:01 20.7 C 8.1 g/m*3 20.7 C 0 km/h
1318 22-08-2003 11:18:01 21 C 8.06 g/m*3 21 C 0 km/h
1319 22-08-2003 11:30:01 21.3 C 7.83 g/m*3 21.3 C 0 km/h
1320 22-08-2003 11:42:01 21.5 C 7.73 g/m*3 21.5 C 0 km/h
1321 22-08-2003 11:54:01 21.9 C 7.91 g/m*3 21.9 C 0 km/h
1322 22-08-2003 12:06:01 22.3 C 7.7 g/m*3 22.3 C 0 km/h
1323 22-08-2003 12:18:01 22.5 C 7.79 g/m*3 22.5 C 0 km/h
1324 22-08-2003 12:30:01 22.5 C 7.59 g/m*3 22.5 C 0 km/h
1325 22-08-2003 12:42:01 22.6 C 7.83 g/m*3 22.6 C 0 km/h
Sensor: Nr:Datum:Temp:Abs-Feuchte:Windchill:Wind:
Aussen-T/F 1326 22-08-2003 12:54:01 23 C 7.81 g/m*3 23 C 0 km/h
1327 22-08-2003 13:06:00 23.3 C 7.95 g/m*3 23.3 C 0 km/h
1328 22-08-2003 13:18:00 24.6 C 8.1 g/m*3 24.6 C 0 km/h
1329 22-08-2003 13:30:00 24.7 C 8.15 g/m*3 24.7 C 0 km/h
1330 22-08-2003 13:42:01 24.6 C 8.33 g/m*3 24.6 C 0 km/h
1331 22-08-2003 13:54:01 25.1 C 8.1 g/m*3 25.1 C 0 km/h
1332 22-08-2003 14:06:02 24.8 C 8.19 g/m*3 24.8 C 0 km/h
1333 22-08-2003 14:18:02 25.3 C 8.19 g/m*3 25.3 C 0 km/h
1334 22-08-2003 14:30:02 25.1 C 8.33 g/m*3 25.1 C 0 km/h
1335 22-08-2003 14:42:01 25.5 C 8.29 g/m*3 25.5 C 0 km/h
1336 22-08-2003 14:54:01 25.4 C 8.48 g/m*3 25.4 C 0 km/h
1337 22-08-2003 15:06:02 25.4 C 8.24 g/m*3 25.4 C 0 km/h
1338 22-08-2003 15:18:02 25.8 C 8.43 g/m*3 25.8 C 0 km/h
1339 22-08-2003 15:30:02 26 C 8.28 g/m*3 26 C 0 km/h
1340 22-08-2003 15:42:00 26.2 C 8.12 g/m*3 26.2 C 0 km/h
1341 22-08-2003 15:54:00 26.4 C 8.21 g/m*3 26.4 C 0 km/h
1342 22-08-2003 16:06:01 26.8 C 8.14 g/m*3 26.8 C 0 km/h
1343 22-08-2003 16:18:01 26.6 C 8.05 g/m*3 26.6 C 0 km/h
1344 22-08-2003 16:30:01 27 C 8.24 g/m*3 27 C 0 km/h
1345 22-08-2003 16:42:01 27.1 C 8.02 g/m*3 27.1 C 0 km/h
1346 22-08-2003 16:54:01 26.9 C 8.19 g/m*3 26.9 C 0 km/h
1347 22-08-2003 17:06:01 27.4 C 8.16 g/m*3 27.4 C 0 km/h
1348 22-08-2003 17:18:01 27.1 C 8.28 g/m*3 27.1 C 0 km/h
1349 22-08-2003 17:30:01 26.9 C 8.19 g/m*3 26.9 C 0 km/h
1350 22-08-2003 17:42:01 27.1 C 8.28 g/m*3 27.1 C 0 km/h
Sensor: Nr:Datum:Temp:Abs-Feuchte:Windchill:Wind:
Aussen-T/F 1351 22-08-2003 17:54:01 27.3 C 8.11 g/m*3 27.3 C 0 km/h
1352 22-08-2003 18:06:01 27.2 C 8.33 g/m*3 27.2 C 0 km/h
1353 22-08-2003 18:18:01 27.4 C 8.42 g/m*3 27.4 C 0 km/h
1354 22-08-2003 18:30:01 27.1 C 8.02 g/m*3 27.1 C 0 km/h
1355 22-08-2003 18:42:01 26.6 C 8.31 g/m*3 26.6 C 0 km/h
1356 22-08-2003 18:54:01 26.6 C 8.31 g/m*3 26.6 C 0 km/h
1357 22-08-2003 19:06:02 26.5 C 8.51 g/m*3 26.5 C 0 km/h
1358 22-08-2003 19:18:02 26.3 C 8.42 g/m*3 26.3 C 0 km/h
1359 22-08-2003 19:30:02 26.3 C 8.66 g/m*3 26.3 C 0 km/h
1360 22-08-2003 19:42:00 25.1 C 8.33 g/m*3 25.1 C 0 km/h
1361 22-08-2003 19:54:00 24.6 C 8.55 g/m*3 24.6 C 0 km/h
1362 22-08-2003 20:06:01 23.9 C 8.65 g/m*3 23.9 C 0 km/h
1363 22-08-2003 20:18:01 23.6 C 8.93 g/m*3 23.6 C 0 km/h
1364 22-08-2003 20:30:01 23 C 8.84 g/m*3 23 C 0 km/h
1365 22-08-2003 20:42:01 22.6 C 9.04 g/m*3 22.6 C 0 km/h
1366 22-08-2003 20:54:01 22.1 C 9.17 g/m*3 22.1 C 0 km/h
1367 22-08-2003 21:06:00 21.9 C 9.26 g/m*3 21.9 C 0 km/h
1368 22-08-2003 21:18:00 21.6 C 9.29 g/m*3 21.6 C 0 km/h
1369 22-08-2003 21:30:00 21.3 C 9.32 g/m*3 21.3 C 0 km/h
1370 22-08-2003 21:42:01 21.1 C 9.58 g/m*3 21.1 C 0 km/h
1371 22-08-2003 21:54:01 20.8 C 9.6 g/m*3 20.8 C 0 km/h
1372 22-08-2003 22:06:01 20.4 C 9.38 g/m*3 20.4 C 0 km/h
1373 22-08-2003 22:18:01 20 C 9.51 g/m*3 20 C 0 km/h
1374 22-08-2003 22:30:01 19.7 C 9.51 g/m*3 19.7 C 0 km/h
1375 22-08-2003 22:43:04 19.5 C 9.73 g/m*3 19.5 C 0 km/h
Sensor: Nr:Datum:Temp:Abs-Feuchte:Windchill:Wind:
Aussen-T/F 1376 22-08-2003 22:55:04 19 C 9.78 g/m*3 19 C 0 km/h
1377 22-08-2003 23:07:04 19.1 C 9.67 g/m*3 19.1 C 0 km/h
1378 22-08-2003 23:19:04 19 C 9.61 g/m*3 19 C 0 km/h
1379 22-08-2003 23:31:04 18.8 C 9.99 g/m*3 18.8 C 0 km/h
1380 22-08-2003 23:43:04 19.2 C 9.73 g/m*3 19.2 C 0 km/h
1381 22-08-2003 23:55:04 19.3 C 9.79 g/m*3 19.3 C 0 km/h
1382 23-08-2003 00:07:04 19.1 C 9.67 g/m*3 19.1 C 0 km/h
1383 23-08-2003 00:19:04 18.9 C 9.88 g/m*3 18.9 C 0 km/h
1384 23-08-2003 00:31:04 18.9 C 9.88 g/m*3 18.9 C 0 km/h
1385 23-08-2003 00:43:04 19 C 9.78 g/m*3 19 C 0 km/h
1386 23-08-2003 00:55:04 19 C 9.78 g/m*3 19 C 0 km/h
1387 23-08-2003 01:07:04 18.9 C 9.88 g/m*3 18.9 C 0 km/h
1388 23-08-2003 01:19:04 18.8 C 9.99 g/m*3 18.8 C 0 km/h
1389 23-08-2003 01:31:04 18.5 C 9.97 g/m*3 18.5 C 0 km/h
1390 23-08-2003 01:43:04 18.3 C 10.01 g/m*3 18.3 C 0 km/h
1391 23-08-2003 01:55:04 18.2 C 10.1 g/m*3 18.2 C 0 km/h
1392 23-08-2003 02:07:04 18.1 C 10.04 g/m*3 18.1 C 0 km/h
1393 23-08-2003 02:19:04 18.2 C 10.1 g/m*3 18.2 C 0 km/h
1394 23-08-2003 02:31:04 18.1 C 10.04 g/m*3 18.1 C 0 km/h
1395 23-08-2003 02:43:04 18.1 C 10.04 g/m*3 18.1 C 0 km/h
1396 23-08-2003 02:55:04 17.8 C 10.17 g/m*3 17.8 C 0 km/h
1397 23-08-2003 03:07:04 17.4 C 10.08 g/m*3 17.4 C 0 km/h
1398 23-08-2003 03:19:04 17 C 9.98 g/m*3 17 C 0 km/h
1399 23-08-2003 03:31:04 17 C 10.13 g/m*3 17 C 0 km/h
1400 23-08-2003 03:43:04 16.8 C 10.29 g/m*3 16.8 C 0 km/h
Sensor: Nr:Datum:Temp:Abs-Feuchte:Windchill:Wind:
Aussen-T/F 1401 23-08-2003 03:55:04 16.8 C 10.29 g/m*3 16.8 C 0 km/h
1402 23-08-2003 04:07:04 16.9 C 10.21 g/m*3 16.9 C 0 km/h
1403 23-08-2003 04:19:04 16.6 C 10.31 g/m*3 16.6 C 0 km/h
1404 23-08-2003 04:31:04 16.6 C 10.31 g/m*3 16.6 C 0 km/h
1405 23-08-2003 04:43:04 16.4 C 10.19 g/m*3 16.4 C 0 km/h
1406 23-08-2003 04:55:04 16.4 C 10.33 g/m*3 16.4 C 0 km/h
1407 23-08-2003 05:07:04 16.3 C 10.27 g/m*3 16.3 C 0 km/h
1408 23-08-2003 05:19:04 16.2 C 10.2 g/m*3 16.2 C 0 km/h
1409 23-08-2003 05:31:04 16.1 C 10.14 g/m*3 16.1 C 0 km/h
1410 23-08-2003 05:43:04 16 C 10.22 g/m*3 16 C 0 km/h
1411 23-08-2003 05:55:04 15.9 C 10.43 g/m*3 15.9 C 0 km/h
1412 23-08-2003 06:07:04 15.8 C 10.36 g/m*3 15.8 C 0 km/h
1413 23-08-2003 06:19:04 15.6 C 10.37 g/m*3 15.6 C 0 km/h
1414 23-08-2003 06:31:04 15.5 C 10.31 g/m*3 15.5 C 0 km/h
1415 23-08-2003 06:43:04 15.4 C 10.25 g/m*3 15.4 C 0 km/h
1416 23-08-2003 06:55:04 15.4 C 10.38 g/m*3 15.4 C 0 km/h
1417 23-08-2003 07:07:04 15.4 C 10.38 g/m*3 15.4 C 0 km/h
1418 23-08-2003 07:19:04 15.4 C 10.38 g/m*3 15.4 C 0 km/h
1419 23-08-2003 07:31:04 15.4 C 10.38 g/m*3 15.4 C 0 km/h
1420 23-08-2003 07:43:04 15.6 C 10.37 g/m*3 15.6 C 0 km/h
1421 23-08-2003 07:55:04 16 C 10.35 g/m*3 16 C 0 km/h
1422 23-08-2003 08:07:04 16.2 C 10.34 g/m*3 16.2 C 0 km/h
1423 23-08-2003 08:19:04 16.6 C 10.45 g/m*3 16.6 C 0 km/h
1424 23-08-2003 08:31:04 16.9 C 10.5 g/m*3 16.9 C 0 km/h
1425 23-08-2003 08:43:01 16.9 C 10.64 g/m*3 16.9 C 0 km/h
Sensor: Nr:Datum:Temp:Abs-Feuchte:Windchill:Wind:
Aussen-T/F 1426 23-08-2003 08:55:01 17.2 C 10.54 g/m*3 17.2 C 0 km/h
1427 23-08-2003 09:07:01 17.7 C 10.71 g/m*3 17.7 C 0 km/h
1428 23-08-2003 09:19:01 18.1 C 10.82 g/m*3 18.1 C 0 km/h
1429 23-08-2003 09:31:01 19 C 10.92 g/m*3 19 C 0 km/h
1430 23-08-2003 09:43:01 19.4 C 10.84 g/m*3 19.4 C 0 km/h
1431 23-08-2003 09:55:01 19.8 C 10.93 g/m*3 19.8 C 0 km/h
1432 23-08-2003 10:07:02 20.2 C 10.67 g/m*3 20.2 C 0 km/h
1433 23-08-2003 10:19:02 20.8 C 10.86 g/m*3 20.8 C 0 km/h
1434 23-08-2003 10:31:02 21.8 C 10.74 g/m*3 21.8 C 0 km/h
1435 23-08-2003 10:43:02 22.1 C 10.54 g/m*3 22.1 C 0 km/h
1436 23-08-2003 10:55:02 22.5 C 10.79 g/m*3 22.5 C 0 km/h
1437 23-08-2003 11:07:02 22.1 C 10.74 g/m*3 22.1 C 0 km/h
1438 23-08-2003 11:19:02 22.1 C 10.93 g/m*3 22.1 C 0 km/h
1439 23-08-2003 11:31:02 22.1 C 11.32 g/m*3 22.1 C 0 km/h
1440 23-08-2003 11:43:01 23.5 C 10.79 g/m*3 23.5 C 0 km/h
1441 23-08-2003 11:55:01 24 C 10.23 g/m*3 24 C 0 km/h
1442 23-08-2003 12:07:02 24.2 C 10.56 g/m*3 24.2 C 0 km/h
1443 23-08-2003 12:19:02 24.4 C 10.68 g/m*3 24.4 C 0 km/h
1444 23-08-2003 12:31:02 25.4 C 10.83 g/m*3 25.4 C 0 km/h
1445 23-08-2003 12:43:00 25.6 C 10.48 g/m*3 25.6 C 0 km/h
1446 23-08-2003 12:55:00 25.7 C 10.53 g/m*3 25.7 C 0 km/h
1447 23-08-2003 13:07:00 26.1 C 10.28 g/m*3 26.1 C 0 km/h
1448 23-08-2003 13:19:00 25.9 C 10.89 g/m*3 25.9 C 0 km/h
1449 23-08-2003 13:31:00 25.5 C 11.13 g/m*3 25.5 C 0 km/h
1450 23-08-2003 13:43:01 25.2 C 11.64 g/m*3 25.2 C 0 km/h
Sensor: Nr:Datum:Temp:Abs-Feuchte:Windchill:Wind:
Aussen-T/F 1451 23-08-2003 13:55:01 25 C 11.28 g/m*3 25 C 0 km/h
1452 23-08-2003 14:07:02 25.2 C 10.71 g/m*3 25.2 C 0 km/h
1453 23-08-2003 14:19:02 25.8 C 10.83 g/m*3 25.8 C 0 km/h
1454 23-08-2003 14:31:02 26.5 C 10.76 g/m*3 26.5 C 0 km/h
1455 23-08-2003 14:43:01 27.7 C 10.97 g/m*3 27.7 C 0 km/h
1456 23-08-2003 14:55:01 28.3 C 10.78 g/m*3 28.3 C 0 km/h
1457 23-08-2003 15:07:01 28.1 C 10.94 g/m*3 28.1 C 0 km/h
1458 23-08-2003 15:19:01 28.6 C 10.68 g/m*3 28.6 C 0 km/h
1459 23-08-2003 15:31:01 27.8 C 10.76 g/m*3 27.8 C 0 km/h
1460 23-08-2003 15:43:01 27.5 C 10.85 g/m*3 27.5 C 0 km/h
1461 23-08-2003 15:55:01 26.6 C 10.57 g/m*3 26.6 C 0 km/h
1462 23-08-2003 16:07:02 26.5 C 10.51 g/m*3 26.5 C 0 km/h
1463 23-08-2003 16:19:02 27.5 C 10.32 g/m*3 27.5 C 0 km/h
1464 23-08-2003 16:31:02 27.5 C 10.85 g/m*3 27.5 C 0 km/h
1465 23-08-2003 16:43:01 27.5 C 10.85 g/m*3 27.5 C 0 km/h
1466 23-08-2003 16:55:01 27.4 C 11.05 g/m*3 27.4 C 0 km/h
1467 23-08-2003 17:07:03 26.9 C 10.75 g/m*3 26.9 C 0 km/h
1468 23-08-2003 17:19:03 27.2 C 10.41 g/m*3 27.2 C 0 km/h
1469 23-08-2003 17:31:03 27.7 C 10.43 g/m*3 27.7 C 0 km/h
1470 23-08-2003 17:43:01 27.9 C 10.55 g/m*3 27.9 C 0 km/h
1471 23-08-2003 17:55:01 28 C 10.06 g/m*3 28 C 0 km/h
1472 23-08-2003 18:07:01 27.6 C 10.38 g/m*3 27.6 C 0 km/h
1473 23-08-2003 18:19:01 26.6 C 10.57 g/m*3 26.6 C 0 km/h
1474 23-08-2003 18:31:01 26.3 C 10.64 g/m*3 26.3 C 0 km/h
1475 23-08-2003 18:43:08 25.9 C 10.89 g/m*3 25.9 C 0 km/h
Sensor: Nr:Datum:Temp:Abs-Feuchte:Windchill:Wind:
Aussen-T/F 1476 23-08-2003 18:55:08 25.5 C 10.89 g/m*3 25.5 C 0 km/h
1477 23-08-2003 19:07:01 26.5 C 10.76 g/m*3 26.5 C 0 km/h
1478 23-08-2003 19:19:01 27.2 C 10.93 g/m*3 27.2 C 0 km/h
1479 23-08-2003 19:31:01 26.4 C 10.46 g/m*3 26.4 C 0 km/h
1480 23-08-2003 19:43:01 26.2 C 10.59 g/m*3 26.2 C 0 km/h
1481 23-08-2003 19:55:01 26.1 C 10.77 g/m*3 26.1 C 0 km/h
1482 23-08-2003 20:07:01 25.5 C 11.36 g/m*3 25.5 C 0 km/h
1483 23-08-2003 20:19:01 24.5 C 11.41 g/m*3 24.5 C 0 km/h
1484 23-08-2003 20:31:01 24.5 C 11.64 g/m*3 24.5 C 0 km/h
1485 23-08-2003 20:43:02 23.8 C 11.62 g/m*3 23.8 C 0 km/h
1486 23-08-2003 20:55:02 23.9 C 11.68 g/m*3 23.9 C 0 km/h
1487 23-08-2003 21:07:01 23.5 C 11.63 g/m*3 23.5 C 0 km/h
1488 23-08-2003 21:19:01 23.3 C 11.71 g/m*3 23.3 C 0 km/h
1489 23-08-2003 21:31:01 23.1 C 11.78 g/m*3 23.1 C 0 km/h
1490 23-08-2003 21:44:01 22.7 C 11.72 g/m*3 22.7 C 0 km/h
1491 23-08-2003 21:56:01 22.2 C 11.78 g/m*3 22.2 C 0 km/h
1492 23-08-2003 22:08:01 22 C 12.03 g/m*3 22 C 0 km/h
1493 23-08-2003 22:20:01 21.7 C 12.02 g/m*3 21.7 C 0 km/h
1494 23-08-2003 22:32:01 21.5 C 11.88 g/m*3 21.5 C 0 km/h
1495 23-08-2003 22:44:01 21.6 C 11.76 g/m*3 21.6 C 0 km/h
1496 23-08-2003 22:56:01 21.6 C 11.95 g/m*3 21.6 C 0 km/h
1497 23-08-2003 23:08:01 21.2 C 11.86 g/m*3 21.2 C 0 km/h
1498 23-08-2003 23:20:01 20.9 C 12.02 g/m*3 20.9 C 0 km/h
1499 23-08-2003 23:32:01 20.8 C 11.95 g/m*3 20.8 C 0 km/h
1500 23-08-2003 23:44:01 20.7 C 12.06 g/m*3 20.7 C 0 km/h
Sensor: Nr:Datum:Temp:Abs-Feuchte:Windchill:Wind:
Aussen-T/F 1501 23-08-2003 23:56:01 20.4 C 12.03 g/m*3 20.4 C 0 km/h
1502 24-08-2003 00:08:01 20.3 C 11.96 g/m*3 20.3 C 0 km/h
1503 24-08-2003 00:20:01 20.1 C 11.82 g/m*3 20.1 C 0 km/h
1504 24-08-2003 00:32:01 20.1 C 11.99 g/m*3 20.1 C 0 km/h
1505 24-08-2003 00:44:01 19.9 C 12.03 g/m*3 19.9 C 0 km/h
1506 24-08-2003 00:56:01 20 C 11.92 g/m*3 20 C 0 km/h
1507 24-08-2003 01:08:01 19.7 C 12.06 g/m*3 19.7 C 0 km/h
1508 24-08-2003 01:20:01 19.5 C 11.92 g/m*3 19.5 C 0 km/h
1509 24-08-2003 01:32:01 19.3 C 11.61 g/m*3 19.3 C 0 km/h
1510 24-08-2003 01:44:01 19.3 C 11.61 g/m*3 19.3 C 0 km/h
1511 24-08-2003 01:56:01 19.1 C 11.31 g/m*3 19.1 C 0 km/h
1512 24-08-2003 02:08:01 19 C 11.24 g/m*3 19 C 0 km/h
1513 24-08-2003 02:20:01 18.7 C 11.05 g/m*3 18.7 C 0 km/h
1514 24-08-2003 02:32:01 18.6 C 10.98 g/m*3 18.6 C 0 km/h
1515 24-08-2003 02:44:01 18.5 C 11.08 g/m*3 18.5 C 0 km/h
1516 24-08-2003 02:56:01 18.2 C 10.88 g/m*3 18.2 C 0 km/h
1517 24-08-2003 03:08:01 18.1 C 10.82 g/m*3 18.1 C 0 km/h
1518 24-08-2003 03:20:01 17.8 C 10.93 g/m*3 17.8 C 0 km/h
1519 24-08-2003 03:32:01 17.6 C 10.95 g/m*3 17.6 C 0 km/h
1520 24-08-2003 03:44:01 17.4 C 10.82 g/m*3 17.4 C 0 km/h
1521 24-08-2003 03:56:01 17.3 C 10.75 g/m*3 17.3 C 0 km/h
1522 24-08-2003 04:08:01 17.1 C 10.77 g/m*3 17.1 C 0 km/h
1523 24-08-2003 04:20:01 16.8 C 10.72 g/m*3 16.8 C 0 km/h
1524 24-08-2003 04:32:01 16.6 C 10.74 g/m*3 16.6 C 0 km/h
1525 24-08-2003 04:44:01 16.5 C 10.53 g/m*3 16.5 C 0 km/h
Sensor: Nr:Datum:Temp:Abs-Feuchte:Windchill:Wind:
Aussen-T/F 1526 24-08-2003 04:56:01 16.3 C 10.54 g/m*3 16.3 C 0 km/h
1527 24-08-2003 05:08:01 16.2 C 10.48 g/m*3 16.2 C 0 km/h
1528 24-08-2003 05:20:01 16.1 C 10.42 g/m*3 16.1 C 0 km/h
1529 24-08-2003 05:32:01 16 C 10.49 g/m*3 16 C 0 km/h
1530 24-08-2003 05:44:01 15.7 C 10.3 g/m*3 15.7 C 0 km/h
1531 24-08-2003 05:56:01 15.7 C 10.57 g/m*3 15.7 C 0 km/h
1532 24-08-2003 06:08:01 15.4 C 10.25 g/m*3 15.4 C 0 km/h
1533 24-08-2003 06:20:01 15.2 C 10.25 g/m*3 15.2 C 0 km/h
1534 24-08-2003 06:32:01 15 C 10.13 g/m*3 15 C 0 km/h
1535 24-08-2003 06:44:01 15 C 10.13 g/m*3 15 C 0 km/h
1536 24-08-2003 06:56:01 14.8 C 10.13 g/m*3 14.8 C 0 km/h
1537 24-08-2003 07:08:01 14.8 C 10.26 g/m*3 14.8 C 0 km/h
1538 24-08-2003 07:20:01 14.8 C 10.26 g/m*3 14.8 C 0 km/h
1539 24-08-2003 07:32:01 14.8 C 10.26 g/m*3 14.8 C 0 km/h
1540 24-08-2003 07:44:01 14.8 C 10.13 g/m*3 14.8 C 0 km/h
1541 24-08-2003 07:56:01 14.9 C 10.2 g/m*3 14.9 C 0 km/h
1542 24-08-2003 08:08:01 15.1 C 10.32 g/m*3 15.1 C 0 km/h
1543 24-08-2003 08:20:01 15.2 C 10.25 g/m*3 15.2 C 0 km/h
1544 24-08-2003 08:32:01 15.4 C 10.25 g/m*3 15.4 C 0 km/h
1545 24-08-2003 08:44:01 15.7 C 10.3 g/m*3 15.7 C 0 km/h
1546 24-08-2003 08:56:01 16.1 C 10.42 g/m*3 16.1 C 0 km/h
1547 24-08-2003 09:08:01 16.5 C 10.39 g/m*3 16.5 C 0 km/h
1548 24-08-2003 09:20:01 16.8 C 10.44 g/m*3 16.8 C 0 km/h
1549 24-08-2003 09:32:01 17.2 C 10.4 g/m*3 17.2 C 0 km/h
1550 24-08-2003 09:44:01 17.4 C 10.23 g/m*3 17.4 C 0 km/h
Sensor: Nr:Datum:Temp:Abs-Feuchte:Windchill:Wind:
Aussen-T/F 1551 24-08-2003 09:56:01 17.6 C 10.35 g/m*3 17.6 C 0 km/h
1552 24-08-2003 10:08:02 18.1 C 10.2 g/m*3 18.1 C 0 km/h
1553 24-08-2003 10:20:02 18.8 C 10.31 g/m*3 18.8 C 0 km/h
1554 24-08-2003 10:32:01 19.3 C 10.12 g/m*3 19.3 C 0 km/h
1555 24-08-2003 10:44:01 19.3 C 9.95 g/m*3 19.3 C 0 km/h
1556 24-08-2003 10:56:01 19.8 C 9.74 g/m*3 19.8 C 0 km/h
1557 24-08-2003 11:08:01 19.8 C 9.74 g/m*3 19.8 C 0 km/h
1558 24-08-2003 11:20:01 20.4 C 9.38 g/m*3 20.4 C 0 km/h
1559 24-08-2003 11:32:02 20.6 C 9.31 g/m*3 20.6 C 0 km/h
1560 24-08-2003 11:44:02 21.1 C 9.21 g/m*3 21.1 C 0 km/h
1561 24-08-2003 11:56:02 21.9 C 9.26 g/m*3 21.9 C 0 km/h
1562 24-08-2003 12:08:02 22.5 C 9.19 g/m*3 22.5 C 0 km/h
1563 24-08-2003 12:20:02 22.3 C 8.49 g/m*3 22.3 C 0 km/h
1564 24-08-2003 12:32:48 22.6 C 8.64 g/m*3 22.6 C 0 km/h
1565 24-08-2003 12:44:48 22.9 C 8.38 g/m*3 22.9 C 0 km/h
1566 24-08-2003 12:56:01 22.6 C 7.83 g/m*3 22.6 C 0 km/h
1567 24-08-2003 13:08:01 23.4 C 8.2 g/m*3 23.4 C 0 km/h
1568 24-08-2003 13:20:01 24 C 7.61 g/m*3 24 C 0 km/h
1569 24-08-2003 13:32:01 24 C 7.4 g/m*3 24 C 0 km/h
1570 24-08-2003 13:44:01 24.5 C 7.16 g/m*3 24.5 C 0 km/h
1571 24-08-2003 13:56:01 24.4 C 7.12 g/m*3 24.4 C 0 km/h
1572 24-08-2003 14:08:01 25 C 7.14 g/m*3 25 C 0 km/h
1573 24-08-2003 14:20:01 25.5 C 7.1 g/m*3 25.5 C 0 km/h
1574 24-08-2003 14:32:01 25.8 C 7.22 g/m*3 25.8 C 0 km/h
1575 24-08-2003 14:44:01 26.8 C 6.87 g/m*3 26.8 C 0 km/h
Sensor: Nr:Datum:Temp:Abs-Feuchte:Windchill:Wind:
Aussen-T/F 1576 24-08-2003 14:56:01 27 C 6.95 g/m*3 27 C 0 km/h
1577 24-08-2003 15:08:00 26.7 C 6.58 g/m*3 26.7 C 0 km/h
1578 24-08-2003 15:20:00 26.8 C 6.87 g/m*3 26.8 C 0 km/h
1579 24-08-2003 15:32:01 27.1 C 6.47 g/m*3 27.1 C 0 km/h
1580 24-08-2003 15:44:01 27.8 C 6.72 g/m*3 27.8 C 0 km/h
1581 24-08-2003 15:56:01 28.7 C 6.5 g/m*3 28.7 C 0 km/h
1582 24-08-2003 16:08:01 27.8 C 6.19 g/m*3 27.8 C 0 km/h
1583 24-08-2003 16:20:01 28.8 C 6.25 g/m*3 28.8 C 0 km/h
1584 24-08-2003 16:32:01 28.1 C 6.02 g/m*3 28.1 C 0 km/h
1585 24-08-2003 16:44:01 28 C 5.98 g/m*3 28 C 0 km/h
1586 24-08-2003 16:56:01 28.7 C 6.22 g/m*3 28.7 C 0 km/h
1587 24-08-2003 17:08:01 29.2 C 6.1 g/m*3 29.2 C 0 km/h
1588 24-08-2003 17:20:01 28.3 C 6.08 g/m*3 28.3 C 0 km/h
1589 24-08-2003 17:32:01 27.7 C 6.15 g/m*3 27.7 C 0 km/h
1590 24-08-2003 17:44:01 28 C 6.25 g/m*3 28 C 0 km/h
1591 24-08-2003 17:56:01 28.6 C 6.46 g/m*3 28.6 C 0 km/h
1592 24-08-2003 18:08:02 28.6 C 6.74 g/m*3 28.6 C 0 km/h
1593 24-08-2003 18:20:02 27.6 C 6.65 g/m*3 27.6 C 0 km/h
1594 24-08-2003 18:32:01 27.3 C 6.54 g/m*3 27.3 C 0 km/h
1595 24-08-2003 18:44:01 26.7 C 7.09 g/m*3 26.7 C 0 km/h
1596 24-08-2003 18:56:01 27.2 C 7.55 g/m*3 27.2 C 0 km/h
1597 24-08-2003 19:08:02 26 C 7.3 g/m*3 26 C 0 km/h
1598 24-08-2003 19:20:02 25.5 C 7.81 g/m*3 25.5 C 0 km/h
1599 24-08-2003 19:32:01 25.4 C 8 g/m*3 25.4 C 0 km/h
1600 24-08-2003 19:44:01 25 C 8.06 g/m*3 25 C 0 km/h
Sensor: Nr:Datum:Temp:Abs-Feuchte:Windchill:Wind:
Aussen-T/F 1601 24-08-2003 19:56:01 24.8 C 8.19 g/m*3 24.8 C 0 km/h
1602 24-08-2003 20:08:02 23.4 C 8.2 g/m*3 23.4 C 0 km/h
1603 24-08-2003 20:20:02 22.3 C 8.29 g/m*3 22.3 C 0 km/h
1604 24-08-2003 20:32:01 21.6 C 8.53 g/m*3 21.6 C 0 km/h
1605 24-08-2003 20:44:01 21.5 C 8.67 g/m*3 21.5 C 0 km/h
1606 24-08-2003 20:56:01 21.3 C 8.57 g/m*3 21.3 C 0 km/h
1607 24-08-2003 21:08:02 21 C 8.43 g/m*3 21 C 0 km/h
1608 24-08-2003 21:20:02 20.6 C 8.59 g/m*3 20.6 C 0 km/h
1609 24-08-2003 21:33:01 20.4 C 8.67 g/m*3 20.4 C 0 km/h
1610 24-08-2003 21:45:01 20.3 C 8.62 g/m*3 20.3 C 0 km/h
1611 24-08-2003 21:57:01 19.9 C 8.59 g/m*3 19.9 C 0 km/h
1612 24-08-2003 22:09:01 19.5 C 8.73 g/m*3 19.5 C 0 km/h
1613 24-08-2003 22:21:01 19.1 C 8.69 g/m*3 19.1 C 0 km/h
1614 24-08-2003 22:33:01 18.7 C 8.65 g/m*3 18.7 C 0 km/h
1615 24-08-2003 22:45:01 18.1 C 8.5 g/m*3 18.1 C 0 km/h
1616 24-08-2003 22:57:01 17.7 C 8.6 g/m*3 17.7 C 0 km/h
1617 24-08-2003 23:09:01 17.4 C 8.45 g/m*3 17.4 C 0 km/h
1618 24-08-2003 23:21:01 17.2 C 8.49 g/m*3 17.2 C 0 km/h
1619 24-08-2003 23:33:01 16.9 C 8.63 g/m*3 16.9 C 0 km/h
1620 24-08-2003 23:45:01 16.5 C 8.71 g/m*3 16.5 C 0 km/h
1621 24-08-2003 23:57:01 16.4 C 8.79 g/m*3 16.4 C 0 km/h
1622 25-08-2003 00:09:01 16.2 C 8.55 g/m*3 16.2 C 0 km/h
1623 25-08-2003 00:21:01 15.9 C 8.67 g/m*3 15.9 C 0 km/h
1624 25-08-2003 00:33:01 15.7 C 8.7 g/m*3 15.7 C 0 km/h
1625 25-08-2003 00:45:01 15.4 C 8.67 g/m*3 15.4 C 0 km/h
Sensor: Nr:Datum:Temp:Abs-Feuchte:Windchill:Wind:
Aussen-T/F 1626 25-08-2003 00:57:01 15.4 C 8.67 g/m*3 15.4 C 0 km/h
1627 25-08-2003 01:09:01 15.3 C 8.62 g/m*3 15.3 C 0 km/h
1628 25-08-2003 01:21:01 15.1 C 8.64 g/m*3 15.1 C 0 km/h
1629 25-08-2003 01:33:01 15.1 C 8.64 g/m*3 15.1 C 0 km/h
1630 25-08-2003 01:45:01 15 C 8.59 g/m*3 15 C 0 km/h
1631 25-08-2003 01:57:01 14.8 C 8.61 g/m*3 14.8 C 0 km/h
1632 25-08-2003 02:09:01 14.5 C 8.58 g/m*3 14.5 C 0 km/h
1633 25-08-2003 02:21:01 14.3 C 8.6 g/m*3 14.3 C 0 km/h
1634 25-08-2003 02:33:01 14.2 C 8.67 g/m*3 14.2 C 0 km/h
1635 25-08-2003 02:45:01 14.2 C 8.55 g/m*3 14.2 C 0 km/h
1636 25-08-2003 02:57:01 14.2 C 8.79 g/m*3 14.2 C 0 km/h
1637 25-08-2003 03:09:01 13.9 C 8.75 g/m*3 13.9 C 0 km/h
1638 25-08-2003 03:21:01 13.7 C 8.76 g/m*3 13.7 C 0 km/h
1639 25-08-2003 03:33:01 13.3 C 8.55 g/m*3 13.3 C 0 km/h
1640 25-08-2003 03:45:01 13.3 C 8.66 g/m*3 13.3 C 0 km/h
1641 25-08-2003 03:57:01 13.2 C 8.73 g/m*3 13.2 C 0 km/h
1642 25-08-2003 04:09:01 13 C 8.62 g/m*3 13 C 0 km/h
1643 25-08-2003 04:21:01 13 C 8.73 g/m*3 13 C 0 km/h
1644 25-08-2003 04:33:01 12.9 C 8.79 g/m*3 12.9 C 0 km/h
1645 25-08-2003 04:45:01 12.7 C 8.79 g/m*3 12.7 C 0 km/h
1646 25-08-2003 04:57:01 12.5 C 8.69 g/m*3 12.5 C 0 km/h
1647 25-08-2003 05:09:01 12.4 C 8.74 g/m*3 12.4 C 0 km/h
1648 25-08-2003 05:21:01 12.2 C 8.63 g/m*3 12.2 C 0 km/h
1649 25-08-2003 05:33:01 12.1 C 8.69 g/m*3 12.1 C 0 km/h
1650 25-08-2003 05:45:01 12 C 8.74 g/m*3 12 C 0 km/h
Sensor: Nr:Datum:Temp:Abs-Feuchte:Windchill:Wind:
Aussen-T/F 1651 25-08-2003 05:57:01 11.8 C 8.63 g/m*3 11.8 C 0 km/h
1652 25-08-2003 06:09:01 11.8 C 8.63 g/m*3 11.8 C 0 km/h
1653 25-08-2003 06:21:01 11.6 C 8.63 g/m*3 11.6 C 0 km/h
1654 25-08-2003 06:33:01 11.4 C 8.52 g/m*3 11.4 C 0 km/h
1655 25-08-2003 06:45:01 11.4 C 8.62 g/m*3 11.4 C 0 km/h
1656 25-08-2003 06:57:01 11.4 C 8.62 g/m*3 11.4 C 0 km/h
1657 25-08-2003 07:09:01 11.4 C 8.72 g/m*3 11.4 C 0 km/h
1658 25-08-2003 07:21:01 11.4 C 8.62 g/m*3 11.4 C 0 km/h
1659 25-08-2003 07:33:01 11.5 C 8.68 g/m*3 11.5 C 0 km/h
1660 25-08-2003 07:45:01 11.6 C 8.73 g/m*3 11.6 C 0 km/h
1661 25-08-2003 07:57:01 11.7 C 8.79 g/m*3 11.7 C 0 km/h
1662 25-08-2003 08:09:00 11.9 C 8.9 g/m*3 11.9 C 0 km/h
1663 25-08-2003 08:21:00 12.2 C 9.06 g/m*3 12.2 C 0 km/h
1664 25-08-2003 08:33:01 12.5 C 9.13 g/m*3 12.5 C 0 km/h
1665 25-08-2003 08:45:01 12.9 C 9.13 g/m*3 12.9 C 0 km/h
1666 25-08-2003 08:57:01 13.3 C 8.9 g/m*3 13.3 C 0 km/h
1667 25-08-2003 09:09:01 13.7 C 8.88 g/m*3 13.7 C 0 km/h
1668 25-08-2003 09:21:01 14 C 8.93 g/m*3 14 C 0 km/h
1669 25-08-2003 09:33:01 14.7 C 8.94 g/m*3 14.7 C 0 km/h
1670 25-08-2003 09:45:01 15.2 C 9.22 g/m*3 15.2 C 0 km/h
1671 25-08-2003 09:57:01 15.7 C 9.1 g/m*3 15.7 C 0 km/h
1672 25-08-2003 10:09:01 16.4 C 9.21 g/m*3 16.4 C 0 km/h
1673 25-08-2003 10:21:01 17.1 C 9.17 g/m*3 17.1 C 0 km/h
1674 25-08-2003 10:33:02 17.7 C 9.51 g/m*3 17.7 C 0 km/h
1675 25-08-2003 10:45:02 18.1 C 9.12 g/m*3 18.1 C 0 km/h
Sensor: Nr:Datum:Temp:Abs-Feuchte:Windchill:Wind:
Aussen-T/F 1676 25-08-2003 10:57:02 19.1 C 8.69 g/m*3 19.1 C 0 km/h
1677 25-08-2003 11:09:02 20 C 8.3 g/m*3 20 C 0 km/h
1678 25-08-2003 11:21:02 20.5 C 8.19 g/m*3 20.5 C 0 km/h
1679 25-08-2003 11:33:01 21.1 C 7.92 g/m*3 21.1 C 0 km/h
1680 25-08-2003 11:45:01 21.8 C 8.06 g/m*3 21.8 C 0 km/h
1681 25-08-2003 11:57:01 22 C 7.76 g/m*3 22 C 0 km/h
1682 25-08-2003 12:09:01 22.5 C 7.79 g/m*3 22.5 C 0 km/h
1683 25-08-2003 12:21:01 22.6 C 7.63 g/m*3 22.6 C 0 km/h
1684 25-08-2003 12:33:02 23 C 7.6 g/m*3 23 C 0 km/h
1685 25-08-2003 12:45:02 23.3 C 7.53 g/m*3 23.3 C 0 km/h
1686 25-08-2003 12:57:02 23.9 C 7.79 g/m*3 23.9 C 0 km/h
1687 25-08-2003 13:09:02 24.3 C 7.75 g/m*3 24.3 C 0 km/h
1688 25-08-2003 13:21:02 24.4 C 7.57 g/m*3 24.4 C 0 km/h
1689 25-08-2003 13:33:01 25.1 C 7.41 g/m*3 25.1 C 0 km/h
1690 25-08-2003 13:45:01 25.1 C 7.18 g/m*3 25.1 C 0 km/h
1691 25-08-2003 13:57:01 26 C 7.55 g/m*3 26 C 0 km/h
1692 25-08-2003 14:09:01 26.4 C 7.47 g/m*3 26.4 C 0 km/h
1693 25-08-2003 14:21:01 26.2 C 7.14 g/m*3 26.2 C 0 km/h
1694 25-08-2003 14:33:01 27.4 C 7.63 g/m*3 27.4 C 0 km/h
1695 25-08-2003 14:45:01 27.5 C 7.14 g/m*3 27.5 C 0 km/h
1696 25-08-2003 14:57:01 28.6 C 7.31 g/m*3 28.6 C 0 km/h
1697 25-08-2003 15:09:01 29.1 C 6.93 g/m*3 29.1 C 0 km/h
1698 25-08-2003 15:21:01 28.8 C 7.1 g/m*3 28.8 C 0 km/h
1699 25-08-2003 15:33:01 29.5 C 6.79 g/m*3 29.5 C 0 km/h
1700 25-08-2003 15:45:01 29 C 6.89 g/m*3 29 C 0 km/h
Sensor: Nr:Datum:Temp:Abs-Feuchte:Windchill:Wind:
Aussen-T/F 1701 25-08-2003 15:57:01 29.7 C 6.86 g/m*3 29.7 C 0 km/h
1702 25-08-2003 16:09:01 30 C 6.67 g/m*3 30 C 0 km/h
1703 25-08-2003 16:21:01 30.3 C 6.78 g/m*3 30.3 C 0 km/h
1704 25-08-2003 16:33:01 29.1 C 6.35 g/m*3 29.1 C 0 km/h
1705 25-08-2003 16:45:01 29.6 C 6.53 g/m*3 29.6 C 0 km/h
1706 25-08-2003 16:57:01 30.6 C 6.26 g/m*3 30.6 C 0 km/h
1707 25-08-2003 17:09:01 31 C 6.4 g/m*3 31 C 0 km/h
1708 25-08-2003 17:21:01 31.4 C 6.54 g/m*3 31.4 C 0 km/h
1709 25-08-2003 17:33:02 31.2 C 6.47 g/m*3 31.2 C 0 km/h
1710 25-08-2003 17:45:02 31.2 C 6.47 g/m*3 31.2 C 0 km/h
1711 25-08-2003 17:57:02 31.3 C 6.5 g/m*3 31.3 C 0 km/h
1712 25-08-2003 18:09:01 31.4 C 6.54 g/m*3 31.4 C 0 km/h
1713 25-08-2003 18:21:01 31.4 C 6.54 g/m*3 31.4 C 0 km/h
1714 25-08-2003 18:33:01 30.6 C 6.26 g/m*3 30.6 C 0 km/h
1715 25-08-2003 18:45:01 30.6 C 6.26 g/m*3 30.6 C 0 km/h
1716 25-08-2003 18:57:01 30.8 C 6.33 g/m*3 30.8 C 0 km/h
1717 25-08-2003 19:09:02 30.4 C 6.51 g/m*3 30.4 C 0 km/h
1718 25-08-2003 19:21:02 30 C 6.37 g/m*3 30 C 0 km/h
1719 25-08-2003 19:33:02 29.4 C 6.75 g/m*3 29.4 C 0 km/h
1720 25-08-2003 19:45:02 28.9 C 7.14 g/m*3 28.9 C 0 km/h
1721 25-08-2003 19:57:02 27.7 C 6.69 g/m*3 27.7 C 0 km/h
1722 25-08-2003 20:09:01 26.4 C 7.22 g/m*3 26.4 C 0 km/h
1723 25-08-2003 20:21:01 25.1 C 6.94 g/m*3 25.1 C 0 km/h
1724 25-08-2003 20:33:01 24 C 6.96 g/m*3 24 C 0 km/h
1725 25-08-2003 20:45:01 23.3 C 6.9 g/m*3 23.3 C 0 km/h
Sensor: Nr:Datum:Temp:Abs-Feuchte:Windchill:Wind:
Aussen-T/F 1726 25-08-2003 20:57:01 23 C 7.4 g/m*3 23 C 0 km/h
1727 25-08-2003 21:09:01 22.3 C 7.11 g/m*3 22.3 C 0 km/h
1728 25-08-2003 21:21:01 21.4 C 7.12 g/m*3 21.4 C 0 km/h
1729 25-08-2003 21:33:00 21.1 C 7.19 g/m*3 21.1 C 0 km/h
1730 25-08-2003 21:45:00 20.9 C 7.29 g/m*3 20.9 C 0 km/h
1731 25-08-2003 21:57:00 20.6 C 7.52 g/m*3 20.6 C 0 km/h
1732 25-08-2003 22:10:01 20.1 C 7.47 g/m*3 20.1 C 0 km/h
1733 25-08-2003 22:22:01 20 C 7.6 g/m*3 20 C 0 km/h
1734 25-08-2003 22:34:01 19.6 C 7.77 g/m*3 19.6 C 0 km/h
1735 25-08-2003 22:46:01 19.4 C 7.84 g/m*3 19.4 C 0 km/h
1736 25-08-2003 22:58:01 19 C 7.82 g/m*3 19 C 0 km/h
1737 25-08-2003 23:10:01 18.8 C 8.05 g/m*3 18.8 C 0 km/h
1738 25-08-2003 23:22:01 18.7 C 8.01 g/m*3 18.7 C 0 km/h
1739 25-08-2003 23:34:01 18.4 C 8.18 g/m*3 18.4 C 0 km/h
1740 25-08-2003 23:46:01 18.2 C 8.24 g/m*3 18.2 C 0 km/h
1741 25-08-2003 23:58:01 18.2 C 8.39 g/m*3 18.2 C 0 km/h
1742 26-08-2003 00:10:01 17.9 C 8.4 g/m*3 17.9 C 0 km/h
1743 26-08-2003 00:22:01 17.8 C 8.5 g/m*3 17.8 C 0 km/h
1744 26-08-2003 00:34:01 17.3 C 8.4 g/m*3 17.3 C 0 km/h
1745 26-08-2003 00:46:01 17.3 C 8.54 g/m*3 17.3 C 0 km/h
1746 26-08-2003 00:58:01 16.8 C 8.58 g/m*3 16.8 C 0 km/h
1747 26-08-2003 01:10:01 16.4 C 8.65 g/m*3 16.4 C 0 km/h
1748 26-08-2003 01:22:01 16.4 C 8.79 g/m*3 16.4 C 0 km/h
1749 26-08-2003 01:34:01 16.3 C 8.6 g/m*3 16.3 C 0 km/h
1750 26-08-2003 01:46:01 16.1 C 8.77 g/m*3 16.1 C 0 km/h
Sensor: Nr:Datum:Temp:Abs-Feuchte:Windchill:Wind:
Aussen-T/F 1751 26-08-2003 01:58:01 15.8 C 8.88 g/m*3 15.8 C 0 km/h
1752 26-08-2003 02:10:01 15.7 C 8.96 g/m*3 15.7 C 0 km/h
1753 26-08-2003 02:22:01 15.5 C 8.72 g/m*3 15.5 C 0 km/h
1754 26-08-2003 02:34:01 15.2 C 8.83 g/m*3 15.2 C 0 km/h
1755 26-08-2003 02:46:01 15 C 8.72 g/m*3 15 C 0 km/h
1756 26-08-2003 02:58:01 14.8 C 8.99 g/m*3 14.8 C 0 km/h
1757 26-08-2003 03:10:01 14.7 C 8.94 g/m*3 14.7 C 0 km/h
1758 26-08-2003 03:22:01 14.5 C 8.83 g/m*3 14.5 C 0 km/h
1759 26-08-2003 03:34:01 14.4 C 8.9 g/m*3 14.4 C 0 km/h
1760 26-08-2003 03:46:01 14.1 C 8.86 g/m*3 14.1 C 0 km/h
1761 26-08-2003 03:58:01 14.2 C 9.04 g/m*3 14.2 C 0 km/h
1762 26-08-2003 04:10:01 13.9 C 8.99 g/m*3 13.9 C 0 km/h
1763 26-08-2003 04:22:01 13.7 C 9 g/m*3 13.7 C 0 km/h
1764 26-08-2003 04:34:01 13.5 C 8.89 g/m*3 13.5 C 0 km/h
1765 26-08-2003 04:46:01 13.3 C 8.9 g/m*3 13.3 C 0 km/h
1766 26-08-2003 04:58:01 13.2 C 8.84 g/m*3 13.2 C 0 km/h
1767 26-08-2003 05:10:01 13.1 C 8.79 g/m*3 13.1 C 0 km/h
1768 26-08-2003 05:22:01 13 C 8.73 g/m*3 13 C 0 km/h
1769 26-08-2003 05:34:01 12.9 C 8.9 g/m*3 12.9 C 0 km/h
1770 26-08-2003 05:46:01 12.5 C 8.69 g/m*3 12.5 C 0 km/h
1771 26-08-2003 05:58:01 12.4 C 8.63 g/m*3 12.4 C 0 km/h
1772 26-08-2003 06:10:01 12.4 C 8.74 g/m*3 12.4 C 0 km/h
1773 26-08-2003 06:22:01 12.3 C 8.8 g/m*3 12.3 C 0 km/h
1774 26-08-2003 06:34:01 12.2 C 8.63 g/m*3 12.2 C 0 km/h
1775 26-08-2003 06:46:01 12.1 C 8.69 g/m*3 12.1 C 0 km/h
Sensor: Nr:Datum:Temp:Abs-Feuchte:Windchill:Wind:
Aussen-T/F 1776 26-08-2003 06:58:01 12 C 8.74 g/m*3 12 C 0 km/h
1777 26-08-2003 07:10:01 12.1 C 8.79 g/m*3 12.1 C 0 km/h
1778 26-08-2003 07:22:01 12.1 C 8.69 g/m*3 12.1 C 0 km/h
1779 26-08-2003 07:34:01 12.1 C 8.79 g/m*3 12.1 C 0 km/h
1780 26-08-2003 07:46:01 12.1 C 8.79 g/m*3 12.1 C 0 km/h
1781 26-08-2003 07:58:01 12.1 C 8.79 g/m*3 12.1 C 0 km/h
1782 26-08-2003 08:10:01 12.3 C 8.9 g/m*3 12.3 C 0 km/h
1783 26-08-2003 08:22:01 12.6 C 9.07 g/m*3 12.6 C 0 km/h
1784 26-08-2003 08:34:01 12.8 C 9.07 g/m*3 12.8 C 0 km/h
1785 26-08-2003 08:46:01 13.1 C 9.13 g/m*3 13.1 C 0 km/h
1786 26-08-2003 08:58:01 13.4 C 9.18 g/m*3 13.4 C 0 km/h
1787 26-08-2003 09:10:01 13.7 C 9.35 g/m*3 13.7 C 0 km/h
1788 26-08-2003 09:22:01 14.3 C 9.58 g/m*3 14.3 C 0 km/h
1789 26-08-2003 09:34:02 14.8 C 9.5 g/m*3 14.8 C 0 km/h
1790 26-08-2003 09:46:02 15.5 C 9.39 g/m*3 15.5 C 0 km/h
1791 26-08-2003 09:58:02 16.2 C 9.38 g/m*3 16.2 C 0 km/h
1792 26-08-2003 10:10:02 17 C 9.55 g/m*3 17 C 0 km/h
1793 26-08-2003 10:22:02 17.5 C 9.54 g/m*3 17.5 C 0 km/h
1794 26-08-2003 10:34:01 18.2 C 9.48 g/m*3 18.2 C 0 km/h
1795 26-08-2003 10:46:01 18.9 C 9.4 g/m*3 18.9 C 0 km/h
1796 26-08-2003 10:58:01 19.6 C 9.28 g/m*3 19.6 C 0 km/h
1797 26-08-2003 11:10:02 20.4 C 9.2 g/m*3 20.4 C 0 km/h
1798 26-08-2003 11:22:02 20.8 C 8.51 g/m*3 20.8 C 0 km/h
1799 26-08-2003 11:34:01 21.4 C 8.44 g/m*3 21.4 C 0 km/h
1800 26-08-2003 11:46:01 22.3 C 8.1 g/m*3 22.3 C 0 km/h
Sensor: Nr:Datum:Temp:Abs-Feuchte:Windchill:Wind:
Aussen-T/F 1801 26-08-2003 11:58:01 22.9 C 8.58 g/m*3 22.9 C 0 km/h
1802 26-08-2003 12:10:01 23.6 C 8.72 g/m*3 23.6 C 0 km/h
1803 26-08-2003 12:22:01 24.1 C 8.31 g/m*3 24.1 C 0 km/h
1804 26-08-2003 12:34:01 24.3 C 8.19 g/m*3 24.3 C 0 km/h
1805 26-08-2003 12:46:01 25.1 C 7.64 g/m*3 25.1 C 0 km/h
1806 26-08-2003 12:58:01 25.6 C 7.14 g/m*3 25.6 C 0 km/h
1807 26-08-2003 13:10:01 25.8 C 6.98 g/m*3 25.8 C 0 km/h
1808 26-08-2003 13:22:01 26.5 C 6.51 g/m*3 26.5 C 0 km/h
1809 26-08-2003 13:34:01 27.1 C 5.69 g/m*3 27.1 C 0 km/h
1810 26-08-2003 13:46:01 26.9 C 5.89 g/m*3 26.9 C 0 km/h
1811 26-08-2003 13:58:01 26.8 C 5.85 g/m*3 26.8 C 0 km/h
1812 26-08-2003 14:10:02 27.7 C 6.15 g/m*3 27.7 C 0 km/h
1813 26-08-2003 14:22:02 28.5 C 5.87 g/m*3 28.5 C 0 km/h
1814 26-08-2003 14:34:01 29 C 6.03 g/m*3 29 C 0 km/h
1815 26-08-2003 14:46:01 29.4 C 5.87 g/m*3 29.4 C 0 km/h
1816 26-08-2003 14:58:01 30 C 6.06 g/m*3 30 C 0 km/h
1817 26-08-2003 15:10:02 30.4 C 6.2 g/m*3 30.4 C 0 km/h
1818 26-08-2003 15:22:02 30 C 6.06 g/m*3 30 C 0 km/h
1819 26-08-2003 15:34:00 28.8 C 5.68 g/m*3 28.8 C 0 km/h
1820 26-08-2003 15:46:00 30.1 C 6.1 g/m*3 30.1 C 0 km/h
1821 26-08-2003 15:58:00 30.7 C 6.3 g/m*3 30.7 C 0 km/h
1822 26-08-2003 16:10:01 30.8 C 6.33 g/m*3 30.8 C 0 km/h
1823 26-08-2003 16:22:01 30.6 C 6.26 g/m*3 30.6 C 0 km/h
1824 26-08-2003 16:34:01 30.4 C 6.2 g/m*3 30.4 C 0 km/h
1825 26-08-2003 16:46:01 30.9 C 6.37 g/m*3 30.9 C 0 km/h
Sensor: Nr:Datum:Temp:Abs-Feuchte:Windchill:Wind:
Aussen-T/F 1826 26-08-2003 16:58:01 30 C 6.37 g/m*3 30 C 0 km/h
1827 26-08-2003 17:10:01 30.6 C 6.26 g/m*3 30.6 C 0 km/h
1828 26-08-2003 17:22:01 30.4 C 6.2 g/m*3 30.4 C 0 km/h
1829 26-08-2003 17:34:01 31 C 6.4 g/m*3 31 C 0 km/h
1830 26-08-2003 17:46:01 31.2 C 6.47 g/m*3 31.2 C 0 km/h
1831 26-08-2003 17:58:01 30.9 C 6.68 g/m*3 30.9 C 0 km/h
1832 26-08-2003 18:10:02 30.7 C 6.61 g/m*3 30.7 C 0 km/h
1833 26-08-2003 18:22:02 30 C 7.58 g/m*3 30 C 0 km/h
1834 26-08-2003 18:34:02 29 C 7.47 g/m*3 29 C 0 km/h
1835 26-08-2003 18:46:02 29.5 C 7.38 g/m*3 29.5 C 0 km/h
1836 26-08-2003 18:58:02 29 C 6.89 g/m*3 29 C 0 km/h
1837 26-08-2003 19:10:02 28.7 C 7.06 g/m*3 28.7 C 0 km/h
1838 26-08-2003 19:22:02 27.5 C 7.14 g/m*3 27.5 C 0 km/h
1839 26-08-2003 19:34:01 26.9 C 7.68 g/m*3 26.9 C 0 km/h
1840 26-08-2003 19:46:01 26.8 C 7.64 g/m*3 26.8 C 0 km/h
1841 26-08-2003 19:58:01 25.8 C 7.46 g/m*3 25.8 C 0 km/h
1842 26-08-2003 20:10:01 25.2 C 7.45 g/m*3 25.2 C 0 km/h
1843 26-08-2003 20:22:01 24.7 C 7.7 g/m*3 24.7 C 0 km/h
1844 26-08-2003 20:34:00 24.2 C 7.92 g/m*3 24.2 C 0 km/h
1845 26-08-2003 20:46:00 23.9 C 7.79 g/m*3 23.9 C 0 km/h
1846 26-08-2003 20:58:00 23.4 C 7.99 g/m*3 23.4 C 0 km/h
1847 26-08-2003 21:10:01 22.9 C 8.38 g/m*3 22.9 C 0 km/h
1848 26-08-2003 21:22:01 22.4 C 8.34 g/m*3 22.4 C 0 km/h
1849 26-08-2003 21:34:00 21.9 C 8.68 g/m*3 21.9 C 0 km/h
1850 26-08-2003 21:46:00 21.5 C 8.67 g/m*3 21.5 C 0 km/h
Sensor: Nr:Datum:Temp:Abs-Feuchte:Windchill:Wind:
Aussen-T/F 1851 26-08-2003 21:58:00 21 C 8.61 g/m*3 21 C 0 km/h
1852 26-08-2003 22:11:02 20.6 C 8.77 g/m*3 20.6 C 0 km/h
1853 26-08-2003 22:23:02 20.5 C 8.72 g/m*3 20.5 C 0 km/h
1854 26-08-2003 22:35:02 20.3 C 8.79 g/m*3 20.3 C 0 km/h
1855 26-08-2003 22:47:02 20.1 C 8.87 g/m*3 20.1 C 0 km/h
1856 26-08-2003 22:59:02 20.1 C 8.87 g/m*3 20.1 C 0 km/h
1857 26-08-2003 23:11:02 19.9 C 9.11 g/m*3 19.9 C 0 km/h
1858 26-08-2003 23:23:02 19.6 C 8.95 g/m*3 19.6 C 0 km/h
1859 26-08-2003 23:35:02 19.5 C 9.06 g/m*3 19.5 C 0 km/h
1860 26-08-2003 23:47:02 19.1 C 9.02 g/m*3 19.1 C 0 km/h
1861 26-08-2003 23:59:02 18.9 C 9.07 g/m*3 18.9 C 0 km/h
1862 27-08-2003 00:11:02 18.7 C 9.13 g/m*3 18.7 C 0 km/h
1863 27-08-2003 00:23:02 18.5 C 9.18 g/m*3 18.5 C 0 km/h
1864 27-08-2003 00:35:02 18.2 C 9.17 g/m*3 18.2 C 0 km/h
1865 27-08-2003 00:47:02 18 C 9.22 g/m*3 18 C 0 km/h
1866 27-08-2003 00:59:02 17.8 C 9.41 g/m*3 17.8 C 0 km/h
1867 27-08-2003 01:11:02 18.1 C 9.43 g/m*3 18.1 C 0 km/h
1868 27-08-2003 01:23:02 18.3 C 9.38 g/m*3 18.3 C 0 km/h
1869 27-08-2003 01:35:02 18.3 C 9.38 g/m*3 18.3 C 0 km/h
1870 27-08-2003 01:47:02 18.1 C 9.27 g/m*3 18.1 C 0 km/h
1871 27-08-2003 01:59:02 17.9 C 9.31 g/m*3 17.9 C 0 km/h
1872 27-08-2003 02:11:02 17.7 C 9.35 g/m*3 17.7 C 0 km/h
1873 27-08-2003 02:23:02 17.5 C 9.24 g/m*3 17.5 C 0 km/h
1874 27-08-2003 02:35:02 17.2 C 9.23 g/m*3 17.2 C 0 km/h
1875 27-08-2003 02:47:02 17.1 C 9.32 g/m*3 17.1 C 0 km/h
Sensor: Nr:Datum:Temp:Abs-Feuchte:Windchill:Wind:
Aussen-T/F 1876 27-08-2003 02:59:02 16.8 C 9.44 g/m*3 16.8 C 0 km/h
1877 27-08-2003 03:11:02 16.6 C 9.46 g/m*3 16.6 C 0 km/h
1878 27-08-2003 03:23:02 16.4 C 9.35 g/m*3 16.4 C 0 km/h
1879 27-08-2003 03:35:02 16.2 C 9.52 g/m*3 16.2 C 0 km/h
1880 27-08-2003 03:47:02 16.1 C 9.46 g/m*3 16.1 C 0 km/h
1881 27-08-2003 03:59:02 15.7 C 9.63 g/m*3 15.7 C 0 km/h
1882 27-08-2003 04:11:02 15.5 C 9.65 g/m*3 15.5 C 0 km/h
1883 27-08-2003 04:23:02 15.3 C 9.53 g/m*3 15.3 C 0 km/h
1884 27-08-2003 04:35:02 15.1 C 9.55 g/m*3 15.1 C 0 km/h
1885 27-08-2003 04:47:02 14.8 C 9.75 g/m*3 14.8 C 0 km/h
1886 27-08-2003 04:59:02 14.8 C 9.75 g/m*3 14.8 C 0 km/h
1887 27-08-2003 05:11:02 14.5 C 9.7 g/m*3 14.5 C 0 km/h
1888 27-08-2003 05:23:02 14.3 C 9.71 g/m*3 14.3 C 0 km/h
1889 27-08-2003 05:35:02 14.5 C 9.7 g/m*3 14.5 C 0 km/h
1890 27-08-2003 05:47:02 14.9 C 9.81 g/m*3 14.9 C 0 km/h
1891 27-08-2003 05:59:02 15.1 C 9.55 g/m*3 15.1 C 0 km/h
1892 27-08-2003 06:11:02 15 C 9.49 g/m*3 15 C 0 km/h
1893 27-08-2003 06:23:02 15 C 9.49 g/m*3 15 C 0 km/h
1894 27-08-2003 06:35:02 14.7 C 9.57 g/m*3 14.7 C 0 km/h
1895 27-08-2003 06:47:02 15.1 C 9.55 g/m*3 15.1 C 0 km/h
1896 27-08-2003 06:59:02 15.4 C 9.59 g/m*3 15.4 C 0 km/h
1897 27-08-2003 07:11:02 15.2 C 9.48 g/m*3 15.2 C 0 km/h
1898 27-08-2003 07:23:02 15.2 C 9.48 g/m*3 15.2 C 0 km/h
1899 27-08-2003 07:35:02 15.4 C 9.59 g/m*3 15.4 C 0 km/h
1900 27-08-2003 07:47:02 15.4 C 9.59 g/m*3 15.4 C 0 km/h
Sensor: Nr:Datum:Temp:Abs-Feuchte:Windchill:Wind:
Aussen-T/F 1901 27-08-2003 07:59:02 15.6 C 9.58 g/m*3 15.6 C 0 km/h
1902 27-08-2003 08:11:02 15.8 C 9.56 g/m*3 15.8 C 0 km/h
1903 27-08-2003 08:23:02 16 C 9.54 g/m*3 16 C 0 km/h
1904 27-08-2003 08:35:02 16.2 C 9.52 g/m*3 16.2 C 0 km/h
1905 27-08-2003 08:47:02 16.3 C 9.57 g/m*3 16.3 C 0 km/h
1906 27-08-2003 08:59:02 16.5 C 9.55 g/m*3 16.5 C 0 km/h
1907 27-08-2003 09:11:02 16.8 C 9.58 g/m*3 16.8 C 0 km/h
1908 27-08-2003 09:23:02 16.9 C 9.64 g/m*3 16.9 C 0 km/h
1909 27-08-2003 09:35:01 17.1 C 9.46 g/m*3 17.1 C 0 km/h
1910 27-08-2003 09:47:01 17.2 C 9.67 g/m*3 17.2 C 0 km/h
1911 27-08-2003 09:59:01 17.5 C 9.69 g/m*3 17.5 C 0 km/h
1912 27-08-2003 10:11:01 17.8 C 9.71 g/m*3 17.8 C 0 km/h
1913 27-08-2003 10:23:01 17.6 C 9.6 g/m*3 17.6 C 0 km/h
1914 27-08-2003 10:35:01 17.9 C 9.77 g/m*3 17.9 C 0 km/h
1915 27-08-2003 10:47:01 17.5 C 9.69 g/m*3 17.5 C 0 km/h
1916 27-08-2003 10:59:01 16 C 10.08 g/m*3 16 C 0 km/h
1917 27-08-2003 11:11:00 16.3 C 10.41 g/m*3 16.3 C 0 km/h
1918 27-08-2003 11:23:00 17.3 C 10.02 g/m*3 17.3 C 0 km/h
1919 27-08-2003 11:35:00 17.9 C 9.62 g/m*3 17.9 C 0 km/h
1920 27-08-2003 11:47:00 18.6 C 9.55 g/m*3 18.6 C 0 km/h
1921 27-08-2003 11:59:00 18.6 C 8.91 g/m*3 18.6 C 0 km/h
1922 27-08-2003 11:59:01 18.6 C 8.91 g/m*3 18.6 C 0 km/h
1923 27-08-2003 12:11:01 18.7 C 8.97 g/m*3 18.7 C 0 km/h
1924 27-08-2003 12:23:01 19.2 C 8.9 g/m*3 19.2 C 0 km/h
1925 27-08-2003 12:35:02 20 C 8.81 g/m*3 20 C 0 km/h
Sensor: Nr:Datum:Temp:Abs-Feuchte:Windchill:Wind:
Aussen-T/F 1926 27-08-2003 12:47:02 20.4 C 8.49 g/m*3 20.4 C 0 km/h
1927 27-08-2003 12:59:02 20.5 C 8.54 g/m*3 20.5 C 0 km/h
1928 27-08-2003 13:11:01 20 C 8.12 g/m*3 20 C 0 km/h
1929 27-08-2003 13:23:01 20.5 C 8.19 g/m*3 20.5 C 0 km/h
1930 27-08-2003 13:35:02 21.1 C 8.11 g/m*3 21.1 C 0 km/h
1931 27-08-2003 13:47:02 21.8 C 8.63 g/m*3 21.8 C 0 km/h
1932 27-08-2003 13:59:02 22 C 7.76 g/m*3 22 C 0 km/h
1933 27-08-2003 14:11:01 21.7 C 7.63 g/m*3 21.7 C 0 km/h
1934 27-08-2003 14:23:01 21.4 C 7.5 g/m*3 21.4 C 0 km/h
1935 27-08-2003 14:35:01 21.5 C 7.54 g/m*3 21.5 C 0 km/h
1936 27-08-2003 14:47:01 21.9 C 7.91 g/m*3 21.9 C 0 km/h
1937 27-08-2003 14:59:01 21.1 C 7.37 g/m*3 21.1 C 0 km/h
1938 27-08-2003 15:11:01 21.7 C 7.82 g/m*3 21.7 C 0 km/h
1939 27-08-2003 15:23:01 22.8 C 7.72 g/m*3 22.8 C 0 km/h
1940 27-08-2003 15:35:02 22.8 C 7.72 g/m*3 22.8 C 0 km/h
1941 27-08-2003 15:47:02 22.2 C 7.85 g/m*3 22.2 C 0 km/h
1942 27-08-2003 15:59:02 21.9 C 7.91 g/m*3 21.9 C 0 km/h
1943 27-08-2003 16:11:00 21.8 C 7.87 g/m*3 21.8 C 0 km/h
1944 27-08-2003 16:23:00 21.6 C 7.97 g/m*3 21.6 C 0 km/h
1945 27-08-2003 16:35:01 21.7 C 7.82 g/m*3 21.7 C 0 km/h
1946 27-08-2003 16:47:01 21.8 C 7.87 g/m*3 21.8 C 0 km/h
1947 27-08-2003 16:59:01 22 C 7.76 g/m*3 22 C 0 km/h
1948 27-08-2003 17:11:01 21.6 C 7.59 g/m*3 21.6 C 0 km/h
1949 27-08-2003 17:23:01 21.9 C 7.91 g/m*3 21.9 C 0 km/h
1950 27-08-2003 17:35:04 21.1 C 7.74 g/m*3 21.1 C 0 km/h
Sensor: Nr:Datum:Temp:Abs-Feuchte:Windchill:Wind:
Aussen-T/F 1951 27-08-2003 17:47:04 21.4 C 7.69 g/m*3 21.4 C 0 km/h
1952 27-08-2003 17:59:04 21.6 C 7.97 g/m*3 21.6 C 0 km/h
1953 27-08-2003 18:11:04 21.6 C 7.97 g/m*3 21.6 C 0 km/h
1954 27-08-2003 18:23:04 21.4 C 8.06 g/m*3 21.4 C 0 km/h
1955 27-08-2003 18:35:02 21.4 C 8.06 g/m*3 21.4 C 0 km/h
1956 27-08-2003 18:47:02 20.9 C 8.2 g/m*3 20.9 C 0 km/h
1957 27-08-2003 18:59:02 20.6 C 8.23 g/m*3 20.6 C 0 km/h
1958 27-08-2003 19:11:03 20.1 C 8.17 g/m*3 20.1 C 0 km/h
1959 27-08-2003 19:23:03 20.1 C 8.34 g/m*3 20.1 C 0 km/h
1960 27-08-2003 19:35:01 19.8 C 8.37 g/m*3 19.8 C 0 km/h
1961 27-08-2003 19:47:01 19.4 C 8.34 g/m*3 19.4 C 0 km/h
1962 27-08-2003 19:59:01 18.9 C 8.42 g/m*3 18.9 C 0 km/h
1963 27-08-2003 20:11:00 18.6 C 8.44 g/m*3 18.6 C 0 km/h
1964 27-08-2003 20:23:00 18.5 C 8.54 g/m*3 18.5 C 0 km/h
1965 27-08-2003 20:35:01 18.5 C 8.7 g/m*3 18.5 C 0 km/h
1966 27-08-2003 20:47:01 18.5 C 8.7 g/m*3 18.5 C 0 km/h
1967 27-08-2003 20:59:01 18.5 C 8.7 g/m*3 18.5 C 0 km/h
1968 27-08-2003 21:12:00 18.4 C 8.81 g/m*3 18.4 C 0 km/h
1969 27-08-2003 21:24:00 18.3 C 8.76 g/m*3 18.3 C 0 km/h
1970 27-08-2003 21:36:00 18 C 8.75 g/m*3 18 C 0 km/h
1971 27-08-2003 21:48:00 17.7 C 9.05 g/m*3 17.7 C 0 km/h
1972 27-08-2003 22:00:00 17.2 C 8.79 g/m*3 17.2 C 0 km/h
1973 27-08-2003 22:12:00 16.9 C 8.92 g/m*3 16.9 C 0 km/h
1974 27-08-2003 22:24:00 16.4 C 8.79 g/m*3 16.4 C 0 km/h
1975 27-08-2003 22:36:00 16.2 C 8.83 g/m*3 16.2 C 0 km/h
Sensor: Nr:Datum:Temp:Abs-Feuchte:Windchill:Wind:
Aussen-T/F 1976 27-08-2003 22:48:00 16 C 8.86 g/m*3 16 C 0 km/h
1977 27-08-2003 23:00:00 15.7 C 8.96 g/m*3 15.7 C 0 km/h
1978 27-08-2003 23:12:00 15.6 C 8.91 g/m*3 15.6 C 0 km/h
1979 27-08-2003 23:24:00 15.5 C 8.99 g/m*3 15.5 C 0 km/h
1980 27-08-2003 23:36:00 15.3 C 8.88 g/m*3 15.3 C 0 km/h
1981 27-08-2003 23:48:00 15.2 C 8.83 g/m*3 15.2 C 0 km/h
1982 28-08-2003 00:00:00 15 C 8.85 g/m*3 15 C 0 km/h
1983 28-08-2003 00:12:00 14.9 C 8.92 g/m*3 14.9 C 0 km/h
1984 28-08-2003 00:24:00 14.6 C 8.76 g/m*3 14.6 C 0 km/h
1985 28-08-2003 00:36:00 14.4 C 8.9 g/m*3 14.4 C 0 km/h
1986 28-08-2003 00:48:00 14.3 C 8.97 g/m*3 14.3 C 0 km/h
1987 28-08-2003 01:00:00 14.1 C 8.74 g/m*3 14.1 C 0 km/h
1988 28-08-2003 01:12:00 13.8 C 8.7 g/m*3 13.8 C 0 km/h
1989 28-08-2003 01:24:00 13.7 C 8.76 g/m*3 13.7 C 0 km/h
1990 28-08-2003 01:36:00 13.5 C 8.77 g/m*3 13.5 C 0 km/h
1991 28-08-2003 01:48:00 13.4 C 8.83 g/m*3 13.4 C 0 km/h
1992 28-08-2003 02:00:00 13.3 C 9.01 g/m*3 13.3 C 0 km/h
1993 28-08-2003 02:12:00 13.2 C 8.96 g/m*3 13.2 C 0 km/h
1994 28-08-2003 02:24:00 13.1 C 9.01 g/m*3 13.1 C 0 km/h
1995 28-08-2003 02:36:00 12.9 C 9.02 g/m*3 12.9 C 0 km/h
1996 28-08-2003 02:48:00 12.8 C 8.96 g/m*3 12.8 C 0 km/h
1997 28-08-2003 03:00:00 12.7 C 9.02 g/m*3 12.7 C 0 km/h
1998 28-08-2003 03:12:00 12.5 C 8.91 g/m*3 12.5 C 0 km/h
1999 28-08-2003 03:24:00 12.4 C 8.96 g/m*3 12.4 C 0 km/h
2000 28-08-2003 03:36:00 12.3 C 8.9 g/m*3 12.3 C 0 km/h
Sensor: Nr:Datum:Temp:Abs-Feuchte:Windchill:Wind:
Aussen-T/F 2001 28-08-2003 03:48:00 12.2 C 8.85 g/m*3 12.2 C 0 km/h
2002 28-08-2003 04:00:00 12 C 8.74 g/m*3 12 C 0 km/h
2003 28-08-2003 04:12:00 11.9 C 8.79 g/m*3 11.9 C 0 km/h
2004 28-08-2003 04:24:00 11.7 C 8.79 g/m*3 11.7 C 0 km/h
2005 28-08-2003 04:36:00 11.8 C 8.84 g/m*3 11.8 C 0 km/h
2006 28-08-2003 04:48:00 11.7 C 8.89 g/m*3 11.7 C 0 km/h
2007 28-08-2003 05:00:00 11.6 C 8.94 g/m*3 11.6 C 0 km/h
2008 28-08-2003 05:12:00 11.5 C 8.88 g/m*3 11.5 C 0 km/h
2009 28-08-2003 05:24:00 11.4 C 8.83 g/m*3 11.4 C 0 km/h
2010 28-08-2003 05:36:00 11.3 C 8.67 g/m*3 11.3 C 0 km/h
2011 28-08-2003 05:48:00 11.2 C 8.72 g/m*3 11.2 C 0 km/h
2012 28-08-2003 06:00:00 11.1 C 8.76 g/m*3 11.1 C 0 km/h
2013 28-08-2003 06:12:00 11 C 8.71 g/m*3 11 C 0 km/h
2014 28-08-2003 06:24:00 10.9 C 8.65 g/m*3 10.9 C 0 km/h
2015 28-08-2003 06:36:00 11.3 C 8.87 g/m*3 11.3 C 0 km/h
2016 28-08-2003 06:48:00 11.5 C 8.88 g/m*3 11.5 C 0 km/h
2017 28-08-2003 07:00:00 11.5 C 8.78 g/m*3 11.5 C 0 km/h
2018 28-08-2003 07:12:00 11.5 C 8.78 g/m*3 11.5 C 0 km/h
2019 28-08-2003 07:24:00 11.5 C 8.78 g/m*3 11.5 C 0 km/h
2020 28-08-2003 07:36:00 12 C 8.95 g/m*3 12 C 0 km/h
2021 28-08-2003 07:48:00 12.1 C 8.9 g/m*3 12.1 C 0 km/h
2022 28-08-2003 08:00:00 12.5 C 8.91 g/m*3 12.5 C 0 km/h
2023 28-08-2003 08:12:01 12.6 C 8.85 g/m*3 12.6 C 0 km/h
2024 28-08-2003 08:24:01 12.6 C 8.85 g/m*3 12.6 C 0 km/h
2025 28-08-2003 08:36:00 12.6 C 8.96 g/m*3 12.6 C 0 km/h
Sensor: Nr:Datum:Temp:Abs-Feuchte:Windchill:Wind:
Aussen-T/F 2026 28-08-2003 08:48:00 12.7 C 9.02 g/m*3 12.7 C 0 km/h
2027 28-08-2003 09:00:00 13 C 8.96 g/m*3 13 C 0 km/h
2028 28-08-2003 09:12:01 13.2 C 9.07 g/m*3 13.2 C 0 km/h
2029 28-08-2003 09:24:01 13.6 C 9.3 g/m*3 13.6 C 0 km/h
2030 28-08-2003 09:36:00 14.1 C 9.34 g/m*3 14.1 C 0 km/h
2031 28-08-2003 09:48:00 14.6 C 9.51 g/m*3 14.6 C 0 km/h
2032 28-08-2003 10:00:00 15.2 C 9.61 g/m*3 15.2 C 0 km/h
2033 28-08-2003 10:12:00 15.8 C 9.69 g/m*3 15.8 C 0 km/h
2034 28-08-2003 10:24:00 16.4 C 9.63 g/m*3 16.4 C 0 km/h
2035 28-08-2003 10:36:01 17.2 C 9.52 g/m*3 17.2 C 0 km/h
2036 28-08-2003 10:48:01 18 C 9.37 g/m*3 18 C 0 km/h
2037 28-08-2003 11:00:01 18.5 C 8.86 g/m*3 18.5 C 0 km/h
2038 28-08-2003 11:12:01 19 C 8.8 g/m*3 19 C 0 km/h
2039 28-08-2003 11:24:01 19.5 C 8.73 g/m*3 19.5 C 0 km/h
2040 28-08-2003 11:36:01 19.9 C 8.93 g/m*3 19.9 C 0 km/h
2041 28-08-2003 11:48:01 21.1 C 8.66 g/m*3 21.1 C 0 km/h
2042 28-08-2003 12:00:01 21.9 C 9.07 g/m*3 21.9 C 0 km/h
2043 28-08-2003 12:12:02 22.3 C 8.89 g/m*3 22.3 C 0 km/h
2044 28-08-2003 12:24:02 22.9 C 8.79 g/m*3 22.9 C 0 km/h
2045 28-08-2003 12:36:01 23.6 C 8.51 g/m*3 23.6 C 0 km/h
2046 28-08-2003 12:48:01 23.4 C 8.2 g/m*3 23.4 C 0 km/h
2047 28-08-2003 13:00:01 23.7 C 8.56 g/m*3 23.7 C 0 km/h
2048 28-08-2003 13:12:02 24.1 C 7.88 g/m*3 24.1 C 0 km/h
2049 28-08-2003 13:24:02 25.2 C 7.68 g/m*3 25.2 C 0 km/h
2050 28-08-2003 13:36:01 26 C 8.03 g/m*3 26 C 0 km/h
Sensor: Nr:Datum:Temp:Abs-Feuchte:Windchill:Wind:
Aussen-T/F 2051 28-08-2003 13:48:01 26.7 C 8.1 g/m*3 26.7 C 0 km/h
2052 28-08-2003 14:00:01 27.3 C 8.11 g/m*3 27.3 C 0 km/h
2053 28-08-2003 14:12:00 27.2 C 7.81 g/m*3 27.2 C 0 km/h
2054 28-08-2003 14:24:00 26.6 C 7.8 g/m*3 26.6 C 0 km/h
2055 28-08-2003 14:36:01 27.1 C 7.76 g/m*3 27.1 C 0 km/h
2056 28-08-2003 14:48:01 27.1 C 7.76 g/m*3 27.1 C 0 km/h
2057 28-08-2003 15:00:01 27.2 C 7.81 g/m*3 27.2 C 0 km/h
2058 28-08-2003 15:12:01 27.3 C 7.85 g/m*3 27.3 C 0 km/h
2059 28-08-2003 15:24:01 27.6 C 7.98 g/m*3 27.6 C 0 km/h
2060 28-08-2003 15:36:00 27.8 C 7.8 g/m*3 27.8 C 0 km/h
2061 28-08-2003 15:48:00 27.6 C 7.98 g/m*3 27.6 C 0 km/h
2062 28-08-2003 16:00:00 28.1 C 7.93 g/m*3 28.1 C 0 km/h
2063 28-08-2003 16:12:00 28.4 C 8.06 g/m*3 28.4 C 0 km/h
2064 28-08-2003 16:24:00 28.3 C 8.02 g/m*3 28.3 C 0 km/h
2065 28-08-2003 16:36:29 28.7 C 8.48 g/m*3 28.7 C 0 km/h
2066 28-08-2003 16:48:29 28.7 C 8.19 g/m*3 28.7 C 0 km/h
2067 28-08-2003 17:00:01 28.7 C 8.19 g/m*3 28.7 C 0 km/h
2068 28-08-2003 17:12:02 29.5 C 8.26 g/m*3 29.5 C 0 km/h
2069 28-08-2003 17:24:02 29.3 C 8.17 g/m*3 29.3 C 0 km/h
2070 28-08-2003 17:36:01 29.2 C 8.42 g/m*3 29.2 C 0 km/h
2071 28-08-2003 17:48:01 29 C 8.62 g/m*3 29 C 0 km/h
2072 28-08-2003 18:00:01 29.2 C 8.71 g/m*3 29.2 C 0 km/h
2073 28-08-2003 18:12:01 28.6 C 8.71 g/m*3 28.6 C 0 km/h
2074 28-08-2003 18:24:01 27.7 C 9.36 g/m*3 27.7 C 0 km/h
2075 28-08-2003 18:36:01 27.2 C 9.11 g/m*3 27.2 C 0 km/h
Sensor: Nr:Datum:Temp:Abs-Feuchte:Windchill:Wind:
Aussen-T/F 2076 28-08-2003 18:48:01 26.7 C 9.37 g/m*3 26.7 C 0 km/h
2077 28-08-2003 19:00:01 26.2 C 9.35 g/m*3 26.2 C 0 km/h
2078 28-08-2003 19:12:01 25.6 C 9.76 g/m*3 25.6 C 0 km/h
2079 28-08-2003 19:24:01 25.2 C 9.78 g/m*3 25.2 C 0 km/h
2080 28-08-2003 19:36:01 24.5 C 9.18 g/m*3 24.5 C 0 km/h
2081 28-08-2003 19:48:01 22.9 C 10.63 g/m*3 22.9 C 0 km/h
2082 28-08-2003 20:00:01 20.7 C 10.8 g/m*3 20.7 C 0 km/h
2083 28-08-2003 20:12:01 20.7 C 10.8 g/m*3 20.7 C 0 km/h
2084 28-08-2003 20:24:01 20.5 C 11.03 g/m*3 20.5 C 0 km/h
2085 28-08-2003 20:36:01 20.4 C 10.97 g/m*3 20.4 C 0 km/h
2086 28-08-2003 20:48:01 20.4 C 11.14 g/m*3 20.4 C 0 km/h
2087 28-08-2003 21:00:01 19.9 C 12.54 g/m*3 19.9 C 0 km/h
2088 28-08-2003 21:12:02 18.2 C 12.9 g/m*3 18.2 C 0 km/h
2089 28-08-2003 21:24:02 17.7 C 13.43 g/m*3 17.7 C 0 km/h
2090 28-08-2003 21:37:01 17.4 C 13.34 g/m*3 17.4 C 0 km/h
2091 28-08-2003 21:49:01 17.5 C 13.57 g/m*3 17.5 C 0 km/h
2092 28-08-2003 22:01:01 17.5 C 13.57 g/m*3 17.5 C 0 km/h
2093 28-08-2003 22:13:01 17.6 C 13.65 g/m*3 17.6 C 0 km/h
2094 28-08-2003 22:25:01 17.5 C 13.42 g/m*3 17.5 C 0 km/h
2095 28-08-2003 22:37:01 17.5 C 13.42 g/m*3 17.5 C 0 km/h
2096 28-08-2003 22:49:01 17.6 C 13.35 g/m*3 17.6 C 0 km/h
2097 28-08-2003 23:01:01 17.5 C 13.27 g/m*3 17.5 C 0 km/h
2098 28-08-2003 23:13:01 17.5 C 13.27 g/m*3 17.5 C 0 km/h
2099 28-08-2003 23:25:01 17.5 C 13.12 g/m*3 17.5 C 0 km/h
2100 28-08-2003 23:37:01 17.6 C 13.2 g/m*3 17.6 C 0 km/h
Sensor: Nr:Datum:Temp:Abs-Feuchte:Windchill:Wind:
Aussen-T/F 2101 28-08-2003 23:49:01 17.4 C 12.89 g/m*3 17.4 C 0 km/h
2102 29-08-2003 00:01:01 17.5 C 13.12 g/m*3 17.5 C 0 km/h
2103 29-08-2003 00:13:01 17.3 C 12.82 g/m*3 17.3 C 0 km/h
2104 29-08-2003 00:25:01 17.5 C 13.12 g/m*3 17.5 C 0 km/h
2105 29-08-2003 00:37:01 17.3 C 13.11 g/m*3 17.3 C 0 km/h
2106 29-08-2003 00:49:01 17.2 C 13.18 g/m*3 17.2 C 0 km/h
2107 29-08-2003 01:01:01 17 C 13.02 g/m*3 17 C 0 km/h
2108 29-08-2003 01:13:01 17.1 C 13.39 g/m*3 17.1 C 0 km/h
2109 29-08-2003 01:25:01 17.1 C 13.39 g/m*3 17.1 C 0 km/h
2110 29-08-2003 01:37:01 17 C 13.31 g/m*3 17 C 0 km/h
2111 29-08-2003 01:49:01 17 C 13.46 g/m*3 17 C 0 km/h
2112 29-08-2003 02:01:01 17 C 13.46 g/m*3 17 C 0 km/h
2113 29-08-2003 02:13:01 17 C 13.46 g/m*3 17 C 0 km/h
2114 29-08-2003 02:25:01 17 C 13.46 g/m*3 17 C 0 km/h
2115 29-08-2003 02:37:01 17 C 13.46 g/m*3 17 C 0 km/h
2116 29-08-2003 02:49:01 16.8 C 13.44 g/m*3 16.8 C 0 km/h
2117 29-08-2003 03:01:01 16.8 C 13.44 g/m*3 16.8 C 0 km/h
2118 29-08-2003 03:13:01 16.8 C 13.44 g/m*3 16.8 C 0 km/h
2119 29-08-2003 03:25:01 16.8 C 13.44 g/m*3 16.8 C 0 km/h
2120 29-08-2003 03:37:01 16.7 C 13.36 g/m*3 16.7 C 0 km/h
2121 29-08-2003 03:49:01 16.7 C 13.36 g/m*3 16.7 C 0 km/h
2122 29-08-2003 04:01:01 16.8 C 13.44 g/m*3 16.8 C 0 km/h
2123 29-08-2003 04:13:01 16.6 C 13.28 g/m*3 16.6 C 0 km/h
2124 29-08-2003 04:25:01 16.7 C 13.36 g/m*3 16.7 C 0 km/h
2125 29-08-2003 04:37:01 16.7 C 13.36 g/m*3 16.7 C 0 km/h
Sensor: Nr:Datum:Temp:Abs-Feuchte:Windchill:Wind:
Aussen-T/F 2126 29-08-2003 04:49:01 16.6 C 13.28 g/m*3 16.6 C 0 km/h
2127 29-08-2003 05:01:01 16.6 C 13.28 g/m*3 16.6 C 0 km/h
2128 29-08-2003 05:13:01 16.4 C 13.12 g/m*3 16.4 C 0 km/h
2129 29-08-2003 05:25:01 16.2 C 12.96 g/m*3 16.2 C 0 km/h
2130 29-08-2003 05:37:01 16.2 C 12.96 g/m*3 16.2 C 0 km/h
2131 29-08-2003 05:49:01 16.3 C 13.04 g/m*3 16.3 C 0 km/h
2132 29-08-2003 06:01:01 16.5 C 13.2 g/m*3 16.5 C 0 km/h
2133 29-08-2003 06:13:01 16.7 C 13.36 g/m*3 16.7 C 0 km/h
2134 29-08-2003 06:25:01 16.7 C 13.5 g/m*3 16.7 C 0 km/h
2135 29-08-2003 06:37:01 16.7 C 13.5 g/m*3 16.7 C 0 km/h
2136 29-08-2003 06:49:01 16.8 C 13.58 g/m*3 16.8 C 0 km/h
2137 29-08-2003 07:01:01 16.9 C 13.66 g/m*3 16.9 C 0 km/h
2138 29-08-2003 07:13:01 16.9 C 13.52 g/m*3 16.9 C 0 km/h
2139 29-08-2003 07:25:01 17.1 C 13.68 g/m*3 17.1 C 0 km/h
2140 29-08-2003 07:37:01 17.2 C 13.77 g/m*3 17.2 C 0 km/h
2141 29-08-2003 07:49:01 17.5 C 13.87 g/m*3 17.5 C 0 km/h
2142 29-08-2003 08:01:01 17.9 C 14.05 g/m*3 17.9 C 0 km/h
2143 29-08-2003 08:13:01 18.3 C 13.6 g/m*3 18.3 C 0 km/h
2144 29-08-2003 08:25:01 18.7 C 13.45 g/m*3 18.7 C 0 km/h
2145 29-08-2003 08:37:01 19 C 13.69 g/m*3 19 C 0 km/h
2146 29-08-2003 08:49:01 19.3 C 14.1 g/m*3 19.3 C 0 km/h
2147 29-08-2003 09:01:01 19.4 C 13.85 g/m*3 19.4 C 0 km/h
2148 29-08-2003 09:13:01 19.7 C 14.09 g/m*3 19.7 C 0 km/h
2149 29-08-2003 09:25:01 19.7 C 14.09 g/m*3 19.7 C 0 km/h
2150 29-08-2003 09:37:01 19.8 C 13.49 g/m*3 19.8 C 0 km/h
Sensor: Nr:Datum:Temp:Abs-Feuchte:Windchill:Wind:
Aussen-T/F 2151 29-08-2003 09:49:01 20.1 C 13.39 g/m*3 20.1 C 0 km/h
2152 29-08-2003 10:01:01 20.4 C 13.09 g/m*3 20.4 C 0 km/h
2153 29-08-2003 10:13:01 20.1 C 13.04 g/m*3 20.1 C 0 km/h
2154 29-08-2003 10:25:01 19.9 C 13.06 g/m*3 19.9 C 0 km/h
2155 29-08-2003 10:37:01 19.7 C 13.08 g/m*3 19.7 C 0 km/h
2156 29-08-2003 10:49:01 18.9 C 13.45 g/m*3 18.9 C 0 km/h
2157 29-08-2003 11:01:01 18.7 C 13.93 g/m*3 18.7 C 0 km/h
2158 29-08-2003 11:13:00 19 C 14.18 g/m*3 19 C 0 km/h
2159 29-08-2003 11:25:00 19.2 C 14.18 g/m*3 19.2 C 0 km/h
2160 29-08-2003 11:37:01 19.5 C 14.1 g/m*3 19.5 C 0 km/h
2161 29-08-2003 11:49:01 19.4 C 13.68 g/m*3 19.4 C 0 km/h
2162 29-08-2003 12:01:01 19 C 13.53 g/m*3 19 C 0 km/h
2163 29-08-2003 12:13:02 18.9 C 13.77 g/m*3 18.9 C 0 km/h
2164 29-08-2003 12:25:02 19 C 13.53 g/m*3 19 C 0 km/h
2165 29-08-2003 12:37:01 18.6 C 13.05 g/m*3 18.6 C 0 km/h
2166 29-08-2003 12:49:01 17.8 C 12.9 g/m*3 17.8 C 0 km/h
2167 29-08-2003 13:01:01 17.2 C 12.89 g/m*3 17.2 C 0 km/h
2168 29-08-2003 13:13:02 17.5 C 13.12 g/m*3 17.5 C 0 km/h
2169 29-08-2003 13:25:02 19.5 C 14.43 g/m*3 19.5 C 0 km/h
2170 29-08-2003 13:37:01 20.4 C 13.62 g/m*3 20.4 C 0 km/h
2171 29-08-2003 13:49:01 20.5 C 13.17 g/m*3 20.5 C 0 km/h
2172 29-08-2003 14:01:01 20.9 C 13.11 g/m*3 20.9 C 0 km/h
2173 29-08-2003 14:13:02 19.4 C 12.51 g/m*3 19.4 C 0 km/h
2174 29-08-2003 14:25:02 18.5 C 12.02 g/m*3 18.5 C 0 km/h
2175 29-08-2003 14:37:01 18.6 C 12.26 g/m*3 18.6 C 0 km/h
Sensor: Nr:Datum:Temp:Abs-Feuchte:Windchill:Wind:
Aussen-T/F 2176 29-08-2003 14:49:01 19.4 C 11.85 g/m*3 19.4 C 0 km/h
2177 29-08-2003 15:01:01 20.2 C 11.71 g/m*3 20.2 C 0 km/h
2178 29-08-2003 15:13:01 20.6 C 11.63 g/m*3 20.6 C 0 km/h
2179 29-08-2003 15:25:01 21.1 C 11.61 g/m*3 21.1 C 0 km/h
2180 29-08-2003 15:37:01 21.6 C 11 g/m*3 21.6 C 0 km/h
2181 29-08-2003 15:49:01 21.5 C 10.75 g/m*3 21.5 C 0 km/h
2182 29-08-2003 16:01:01 21.3 C 10.25 g/m*3 21.3 C 0 km/h
2183 29-08-2003 16:13:01 21.1 C 10.32 g/m*3 21.1 C 0 km/h
2184 29-08-2003 16:25:01 21.8 C 10.36 g/m*3 21.8 C 0 km/h
2185 29-08-2003 16:37:00 22.2 C 10.01 g/m*3 22.2 C 0 km/h
2186 29-08-2003 16:49:00 22.1 C 10.15 g/m*3 22.1 C 0 km/h
2187 29-08-2003 17:01:00 21.2 C 10.56 g/m*3 21.2 C 0 km/h
2188 29-08-2003 17:13:01 19 C 10.76 g/m*3 19 C 0 km/h
2189 29-08-2003 17:25:01 17.7 C 10.56 g/m*3 17.7 C 0 km/h
2190 29-08-2003 17:37:22 15.8 C 11.31 g/m*3 15.8 C 0 km/h
2191 29-08-2003 17:49:02 15.5 C 11.76 g/m*3 15.5 C 0 km/h
2192 29-08-2003 18:01:02 15 C 11.41 g/m*3 15 C 0 km/h
2193 29-08-2003 18:13:01 14.9 C 11.47 g/m*3 14.9 C 0 km/h
2194 29-08-2003 18:25:01 14.7 C 11.21 g/m*3 14.7 C 0 km/h
2195 29-08-2003 18:37:01 14.5 C 11.19 g/m*3 14.5 C 0 km/h
2196 29-08-2003 18:49:01 14.4 C 11 g/m*3 14.4 C 0 km/h
2197 29-08-2003 19:01:01 14.7 C 11.08 g/m*3 14.7 C 0 km/h
2198 29-08-2003 19:13:54 14.7 C 10.83 g/m*3 14.7 C 0 km/h
2199 29-08-2003 19:25:02 14.7 C 10.83 g/m*3 14.7 C 0 km/h
2200 29-08-2003 19:37:01 14.6 C 10.76 g/m*3 14.6 C 0 km/h
Sensor: Nr:Datum:Temp:Abs-Feuchte:Windchill:Wind:
Aussen-T/F 2201 29-08-2003 19:49:01 14.6 C 10.64 g/m*3 14.6 C 0 km/h
2202 29-08-2003 20:01:01 14.6 C 10.76 g/m*3 14.6 C 0 km/h
2203 29-08-2003 20:13:01 14.5 C 10.57 g/m*3 14.5 C 0 km/h
2204 29-08-2003 20:25:01 14.5 C 10.57 g/m*3 14.5 C 0 km/h
2205 29-08-2003 20:37:01 14.4 C 10.63 g/m*3 14.4 C 0 km/h
2206 29-08-2003 20:49:01 14.5 C 10.57 g/m*3 14.5 C 0 km/h
2207 29-08-2003 21:01:01 14.5 C 10.45 g/m*3 14.5 C 0 km/h
2208 29-08-2003 21:13:01 14.5 C 10.45 g/m*3 14.5 C 0 km/h
2209 29-08-2003 21:25:01 14.5 C 10.45 g/m*3 14.5 C 0 km/h
2210 29-08-2003 21:37:02 14.4 C 10.63 g/m*3 14.4 C 0 km/h
2211 29-08-2003 21:49:02 14 C 10.61 g/m*3 14 C 0 km/h
2212 29-08-2003 22:01:02 13.9 C 10.67 g/m*3 13.9 C 0 km/h
2213 29-08-2003 22:14:05 13.9 C 10.67 g/m*3 13.9 C 0 km/h
2214 29-08-2003 22:26:05 14 C 10.61 g/m*3 14 C 0 km/h
2215 29-08-2003 22:38:05 14 C 10.61 g/m*3 14 C 0 km/h
2216 29-08-2003 22:50:05 14.3 C 10.81 g/m*3 14.3 C 0 km/h
2217 29-08-2003 23:02:05 13.9 C 10.67 g/m*3 13.9 C 0 km/h
2218 29-08-2003 23:14:05 14.1 C 10.68 g/m*3 14.1 C 0 km/h
2219 29-08-2003 23:26:05 14.2 C 10.38 g/m*3 14.2 C 0 km/h
2220 29-08-2003 23:38:05 14.2 C 10.26 g/m*3 14.2 C 0 km/h
2221 29-08-2003 23:50:05 14.2 C 10.26 g/m*3 14.2 C 0 km/h
2222 30-08-2003 00:02:05 14.2 C 10.26 g/m*3 14.2 C 0 km/h
2223 30-08-2003 00:14:05 14.2 C 10.26 g/m*3 14.2 C 0 km/h
2224 30-08-2003 00:26:05 14.2 C 10.14 g/m*3 14.2 C 0 km/h
2225 30-08-2003 00:38:05 14.2 C 10.01 g/m*3 14.2 C 0 km/h
Sensor: Nr:Datum:Temp:Abs-Feuchte:Windchill:Wind:
Aussen-T/F 2226 30-08-2003 00:50:05 14.2 C 10.01 g/m*3 14.2 C 0 km/h
2227 30-08-2003 01:02:05 14.3 C 10.32 g/m*3 14.3 C 0 km/h
2228 30-08-2003 01:14:05 14.3 C 10.2 g/m*3 14.3 C 0 km/h
2229 30-08-2003 01:26:05 14.3 C 10.2 g/m*3 14.3 C 0 km/h
2230 30-08-2003 01:38:05 13.8 C 10.01 g/m*3 13.8 C 0 km/h
2231 30-08-2003 01:50:05 13.5 C 9.94 g/m*3 13.5 C 0 km/h
2232 30-08-2003 02:02:05 13.5 C 10.06 g/m*3 13.5 C 0 km/h
2233 30-08-2003 02:14:05 13.4 C 10 g/m*3 13.4 C 0 km/h
2234 30-08-2003 02:26:05 13.5 C 10.06 g/m*3 13.5 C 0 km/h
2235 30-08-2003 02:38:05 13.7 C 10.18 g/m*3 13.7 C 0 km/h
2236 30-08-2003 02:50:05 13.7 C 10.18 g/m*3 13.7 C 0 km/h
2237 30-08-2003 03:02:05 13.6 C 10.12 g/m*3 13.6 C 0 km/h
2238 30-08-2003 03:14:05 13.6 C 10.12 g/m*3 13.6 C 0 km/h
2239 30-08-2003 03:26:05 13.6 C 10 g/m*3 13.6 C 0 km/h
2240 30-08-2003 03:38:05 13.6 C 9.89 g/m*3 13.6 C 0 km/h
2241 30-08-2003 03:50:05 13.7 C 9.83 g/m*3 13.7 C 0 km/h
2242 30-08-2003 04:02:05 13.6 C 9.89 g/m*3 13.6 C 0 km/h
2243 30-08-2003 04:14:05 13.6 C 9.89 g/m*3 13.6 C 0 km/h
2244 30-08-2003 04:26:05 13.6 C 9.89 g/m*3 13.6 C 0 km/h
2245 30-08-2003 04:38:05 13.7 C 9.95 g/m*3 13.7 C 0 km/h
2246 30-08-2003 04:50:05 13.7 C 9.95 g/m*3 13.7 C 0 km/h
2247 30-08-2003 05:02:05 13.7 C 9.83 g/m*3 13.7 C 0 km/h
2248 30-08-2003 05:14:05 13.7 C 9.95 g/m*3 13.7 C 0 km/h
2249 30-08-2003 05:26:05 13.6 C 10 g/m*3 13.6 C 0 km/h
2250 30-08-2003 05:38:05 13.6 C 10.12 g/m*3 13.6 C 0 km/h
Sensor: Nr:Datum:Temp:Abs-Feuchte:Windchill:Wind:
Aussen-T/F 2251 30-08-2003 05:50:05 13.6 C 10.12 g/m*3 13.6 C 0 km/h
2252 30-08-2003 06:02:05 13.5 C 10.18 g/m*3 13.5 C 0 km/h
2253 30-08-2003 06:14:05 13.4 C 10.11 g/m*3 13.4 C 0 km/h
2254 30-08-2003 06:26:05 13.4 C 10.23 g/m*3 13.4 C 0 km/h
2255 30-08-2003 06:38:05 13.2 C 10.1 g/m*3 13.2 C 0 km/h
2256 30-08-2003 06:50:05 13.2 C 10.22 g/m*3 13.2 C 0 km/h
2257 30-08-2003 07:02:05 13.2 C 10.33 g/m*3 13.2 C 0 km/h
2258 30-08-2003 07:14:05 13.2 C 10.33 g/m*3 13.2 C 0 km/h
2259 30-08-2003 07:26:05 13.2 C 10.45 g/m*3 13.2 C 0 km/h
2260 30-08-2003 07:38:05 13.3 C 10.51 g/m*3 13.3 C 0 km/h
2261 30-08-2003 07:50:05 13.2 C 10.45 g/m*3 13.2 C 0 km/h
2262 30-08-2003 08:02:05 13.3 C 10.63 g/m*3 13.3 C 0 km/h
2263 30-08-2003 08:14:05 13.3 C 10.63 g/m*3 13.3 C 0 km/h
2264 30-08-2003 08:26:05 13.4 C 10.69 g/m*3 13.4 C 0 km/h
2265 30-08-2003 08:38:05 13.4 C 10.69 g/m*3 13.4 C 0 km/h
2266 30-08-2003 08:50:05 13.6 C 10.95 g/m*3 13.6 C 0 km/h
2267 30-08-2003 09:02:05 13.6 C 10.95 g/m*3 13.6 C 0 km/h
2268 30-08-2003 09:14:05 13.7 C 11.01 g/m*3 13.7 C 0 km/h
2269 30-08-2003 09:26:05 13.6 C 10.95 g/m*3 13.6 C 0 km/h
2270 30-08-2003 09:38:01 13.6 C 10.95 g/m*3 13.6 C 0 km/h
2271 30-08-2003 09:50:01 13.6 C 10.95 g/m*3 13.6 C 0 km/h
2272 30-08-2003 10:02:02 13.6 C 10.95 g/m*3 13.6 C 0 km/h
2273 30-08-2003 10:14:02 13.7 C 11.01 g/m*3 13.7 C 0 km/h
2274 30-08-2003 10:26:02 13.9 C 11.15 g/m*3 13.9 C 0 km/h
2275 30-08-2003 10:38:00 14.3 C 11.43 g/m*3 14.3 C 0 km/h
Sensor: Nr:Datum:Temp:Abs-Feuchte:Windchill:Wind:
Aussen-T/F 2276 30-08-2003 10:50:00 14.2 C 11.23 g/m*3 14.2 C 0 km/h
2277 30-08-2003 11:02:00 14.4 C 11 g/m*3 14.4 C 0 km/h
2278 30-08-2003 11:14:00 14.6 C 10.89 g/m*3 14.6 C 0 km/h
2279 30-08-2003 11:26:00 15 C 10.64 g/m*3 15 C 0 km/h
2280 30-08-2003 11:38:01 15.3 C 10.45 g/m*3 15.3 C 0 km/h
2281 30-08-2003 11:50:01 15.1 C 10.19 g/m*3 15.1 C 0 km/h
2282 30-08-2003 12:02:01 15 C 10 g/m*3 15 C 0 km/h
2283 30-08-2003 12:14:01 14.5 C 10.2 g/m*3 14.5 C 0 km/h
2284 30-08-2003 12:26:01 13.8 C 9.53 g/m*3 13.8 C 0 km/h
2285 30-08-2003 12:38:00 13.7 C 9.71 g/m*3 13.7 C 0 km/h
2286 30-08-2003 12:50:00 14.1 C 10.19 g/m*3 14.1 C 0 km/h
2287 30-08-2003 13:02:01 14.4 C 9.89 g/m*3 14.4 C 0 km/h
2288 30-08-2003 13:14:01 15.2 C 10.51 g/m*3 15.2 C 0 km/h
2289 30-08-2003 13:26:01 16.9 C 10.5 g/m*3 16.9 C 0 km/h
2290 30-08-2003 13:38:01 17.9 C 10.69 g/m*3 17.9 C 0 km/h
2291 30-08-2003 13:50:01 19 C 10.43 g/m*3 19 C 0 km/h
2292 30-08-2003 14:02:01 18.9 C 10.37 g/m*3 18.9 C 0 km/h
2293 30-08-2003 14:14:01 19.6 C 10.47 g/m*3 19.6 C 0 km/h
2294 30-08-2003 14:26:01 19.5 C 9.73 g/m*3 19.5 C 0 km/h
2295 30-08-2003 14:38:01 19.9 C 9.79 g/m*3 19.9 C 0 km/h
2296 30-08-2003 14:50:01 19 C 8.96 g/m*3 19 C 0 km/h
2297 30-08-2003 15:02:08 18.6 C 9.71 g/m*3 18.6 C 0 km/h
2298 30-08-2003 15:14:08 18.1 C 10.04 g/m*3 18.1 C 0 km/h
2299 30-08-2003 15:26:08 18.5 C 10.13 g/m*3 18.5 C 0 km/h
2300 30-08-2003 15:38:01 18.7 C 10.25 g/m*3 18.7 C 0 km/h
Sensor: Nr:Datum:Temp:Abs-Feuchte:Windchill:Wind:
Aussen-T/F 2301 30-08-2003 15:50:01 20.4 C 10.08 g/m*3 20.4 C 0 km/h
2302 30-08-2003 16:02:00 21.5 C 9.99 g/m*3 21.5 C 0 km/h
2303 30-08-2003 16:14:00 22.5 C 8.59 g/m*3 22.5 C 0 km/h
2304 30-08-2003 16:26:00 21.9 C 8.68 g/m*3 21.9 C 0 km/h
2305 30-08-2003 16:38:02 21.2 C 8.9 g/m*3 21.2 C 0 km/h
2306 30-08-2003 16:50:02 20.4 C 9.38 g/m*3 20.4 C 0 km/h
2307 30-08-2003 17:02:58 19.5 C 9.4 g/m*3 19.5 C 0 km/h
2308 30-08-2003 17:14:58 18.9 C 9.4 g/m*3 18.9 C 0 km/h
2309 30-08-2003 17:26:02 17 C 10.42 g/m*3 17 C 0 km/h
2310 30-08-2003 17:38:44 15.7 C 11.24 g/m*3 15.7 C 0 km/h
2311 30-08-2003 17:50:44 15.2 C 11.29 g/m*3 15.2 C 0 km/h
2312 30-08-2003 18:02:37 15.1 C 11.48 g/m*3 15.1 C 0 km/h
2313 30-08-2003 18:14:01 15.4 C 11.69 g/m*3 15.4 C 0 km/h
2314 30-08-2003 18:26:01 15.6 C 11.84 g/m*3 15.6 C 0 km/h
2315 30-08-2003 18:38:01 15.6 C 11.44 g/m*3 15.6 C 0 km/h
2316 30-08-2003 18:50:01 15.3 C 11.23 g/m*3 15.3 C 0 km/h
2317 30-08-2003 19:02:01 15.3 C 11.23 g/m*3 15.3 C 0 km/h
2318 30-08-2003 19:14:01 15.3 C 10.84 g/m*3 15.3 C 0 km/h
2319 30-08-2003 19:26:01 14.9 C 10.71 g/m*3 14.9 C 0 km/h
2320 30-08-2003 19:38:01 14.5 C 10.7 g/m*3 14.5 C 0 km/h
2321 30-08-2003 19:50:01 14.5 C 10.94 g/m*3 14.5 C 0 km/h
2322 30-08-2003 20:02:00 14.5 C 10.94 g/m*3 14.5 C 0 km/h
2323 30-08-2003 20:14:00 14.5 C 10.94 g/m*3 14.5 C 0 km/h
2324 30-08-2003 20:26:00 14.5 C 10.82 g/m*3 14.5 C 0 km/h
2325 30-08-2003 20:38:00 14.3 C 10.57 g/m*3 14.3 C 0 km/h
Sensor: Nr:Datum:Temp:Abs-Feuchte:Windchill:Wind:
Aussen-T/F 2326 30-08-2003 20:50:00 14.1 C 10.56 g/m*3 14.1 C 0 km/h
2327 30-08-2003 21:02:01 13.9 C 10.55 g/m*3 13.9 C 0 km/h
2328 30-08-2003 21:14:01 13.9 C 10.67 g/m*3 13.9 C 0 km/h
2329 30-08-2003 21:26:01 14 C 10.61 g/m*3 14 C 0 km/h
2330 30-08-2003 21:39:03 13.8 C 10.6 g/m*3 13.8 C 0 km/h
2331 30-08-2003 21:51:03 13.7 C 10.42 g/m*3 13.7 C 0 km/h
2332 30-08-2003 22:03:03 13.6 C 10.36 g/m*3 13.6 C 0 km/h
2333 30-08-2003 22:15:03 13.4 C 10.23 g/m*3 13.4 C 0 km/h
2334 30-08-2003 22:27:03 13.5 C 10.41 g/m*3 13.5 C 0 km/h
2335 30-08-2003 22:39:03 13.5 C 10.29 g/m*3 13.5 C 0 km/h
2336 30-08-2003 22:51:03 13.5 C 10.18 g/m*3 13.5 C 0 km/h
2337 30-08-2003 23:03:03 13.4 C 10.11 g/m*3 13.4 C 0 km/h
2338 30-08-2003 23:15:03 13.1 C 9.93 g/m*3 13.1 C 0 km/h
2339 30-08-2003 23:27:03 13.2 C 9.76 g/m*3 13.2 C 0 km/h
2340 30-08-2003 23:39:03 13.2 C 9.76 g/m*3 13.2 C 0 km/h
2341 30-08-2003 23:51:03 13 C 9.75 g/m*3 13 C 0 km/h
2342 31-08-2003 00:03:03 13 C 9.53 g/m*3 13 C 0 km/h
2343 31-08-2003 00:15:03 12.7 C 9.68 g/m*3 12.7 C 0 km/h
2344 31-08-2003 00:27:03 12.6 C 9.62 g/m*3 12.6 C 0 km/h
2345 31-08-2003 00:39:03 12.5 C 9.57 g/m*3 12.5 C 0 km/h
2346 31-08-2003 00:51:03 12.4 C 9.62 g/m*3 12.4 C 0 km/h
2347 31-08-2003 01:03:03 12.2 C 9.5 g/m*3 12.2 C 0 km/h
2348 31-08-2003 01:15:03 12.1 C 9.54 g/m*3 12.1 C 0 km/h
2349 31-08-2003 01:27:03 11.9 C 9.43 g/m*3 11.9 C 0 km/h
2350 31-08-2003 01:39:03 11.7 C 9.41 g/m*3 11.7 C 0 km/h
Sensor: Nr:Datum:Temp:Abs-Feuchte:Windchill:Wind:
Aussen-T/F 2351 31-08-2003 01:51:03 11.5 C 9.3 g/m*3 11.5 C 0 km/h
2352 31-08-2003 02:03:03 11.4 C 9.24 g/m*3 11.4 C 0 km/h
2353 31-08-2003 02:15:03 11.2 C 9.12 g/m*3 11.2 C 0 km/h
2354 31-08-2003 02:27:03 11.1 C 9.17 g/m*3 11.1 C 0 km/h
2355 31-08-2003 02:39:03 11 C 9.11 g/m*3 11 C 0 km/h
2356 31-08-2003 02:51:03 10.9 C 9.15 g/m*3 10.9 C 0 km/h
2357 31-08-2003 03:03:03 10.8 C 8.99 g/m*3 10.8 C 0 km/h
2358 31-08-2003 03:15:03 10.8 C 9.09 g/m*3 10.8 C 0 km/h
2359 31-08-2003 03:27:03 10.9 C 9.15 g/m*3 10.9 C 0 km/h
2360 31-08-2003 03:39:03 10.9 C 9.15 g/m*3 10.9 C 0 km/h
2361 31-08-2003 03:51:03 11 C 9.21 g/m*3 11 C 0 km/h
2362 31-08-2003 04:03:03 10.9 C 9.15 g/m*3 10.9 C 0 km/h
2363 31-08-2003 04:15:03 10.8 C 9.09 g/m*3 10.8 C 0 km/h
2364 31-08-2003 04:27:03 11 C 9.01 g/m*3 11 C 0 km/h
2365 31-08-2003 04:39:03 10.8 C 8.9 g/m*3 10.8 C 0 km/h
2366 31-08-2003 04:51:03 10.6 C 8.78 g/m*3 10.6 C 0 km/h
2367 31-08-2003 05:03:03 10.6 C 8.88 g/m*3 10.6 C 0 km/h
2368 31-08-2003 05:15:03 10.8 C 8.99 g/m*3 10.8 C 0 km/h
2369 31-08-2003 05:27:03 10.7 C 8.84 g/m*3 10.7 C 0 km/h
2370 31-08-2003 05:39:03 10.8 C 8.9 g/m*3 10.8 C 0 km/h
2371 31-08-2003 05:51:03 11 C 8.91 g/m*3 11 C 0 km/h
2372 31-08-2003 06:03:03 11 C 8.91 g/m*3 11 C 0 km/h
2373 31-08-2003 06:15:03 10.8 C 8.8 g/m*3 10.8 C 0 km/h
2374 31-08-2003 06:27:03 10.4 C 8.58 g/m*3 10.4 C 0 km/h
2375 31-08-2003 06:39:03 10.4 C 8.58 g/m*3 10.4 C 0 km/h
Sensor: Nr:Datum:Temp:Abs-Feuchte:Windchill:Wind:
Aussen-T/F 2376 31-08-2003 06:51:03 10.5 C 8.73 g/m*3 10.5 C 0 km/h
2377 31-08-2003 07:03:03 10.6 C 8.69 g/m*3 10.6 C 0 km/h
2378 31-08-2003 07:15:03 10.7 C 8.64 g/m*3 10.7 C 0 km/h
2379 31-08-2003 07:27:03 10.8 C 8.7 g/m*3 10.8 C 0 km/h
2380 31-08-2003 07:39:03 11.1 C 8.66 g/m*3 11.1 C 0 km/h
2381 31-08-2003 07:51:03 11.3 C 8.57 g/m*3 11.3 C 0 km/h
2382 31-08-2003 08:03:03 11.3 C 8.57 g/m*3 11.3 C 0 km/h
2383 31-08-2003 08:15:03 11.4 C 8.62 g/m*3 11.4 C 0 km/h
2384 31-08-2003 08:27:03 11.7 C 8.68 g/m*3 11.7 C 0 km/h
2385 31-08-2003 08:39:03 12 C 8.53 g/m*3 12 C 0 km/h
2386 31-08-2003 08:51:03 12 C 8.63 g/m*3 12 C 0 km/h
2387 31-08-2003 09:03:03 12 C 8.63 g/m*3 12 C 0 km/h
2388 31-08-2003 09:15:03 12.1 C 8.69 g/m*3 12.1 C 0 km/h
2389 31-08-2003 09:27:03 12.2 C 8.52 g/m*3 12.2 C 0 km/h
2390 31-08-2003 09:39:03 12.6 C 8.63 g/m*3 12.6 C 0 km/h
2391 31-08-2003 09:51:03 13.1 C 8.67 g/m*3 13.1 C 0 km/h
2392 31-08-2003 10:03:03 13.8 C 8.7 g/m*3 13.8 C 0 km/h
2393 31-08-2003 10:15:03 14.2 C 8.79 g/m*3 14.2 C 0 km/h
2394 31-08-2003 10:27:03 14.6 C 8.63 g/m*3 14.6 C 0 km/h
2395 31-08-2003 10:39:03 14.9 C 8.54 g/m*3 14.9 C 0 km/h
2396 31-08-2003 10:51:03 15.4 C 8.41 g/m*3 15.4 C 0 km/h
2397 31-08-2003 11:03:03 15.2 C 8.31 g/m*3 15.2 C 0 km/h
2398 31-08-2003 11:15:03 15.1 C 8.26 g/m*3 15.1 C 0 km/h
2399 31-08-2003 11:27:03 15.7 C 8.03 g/m*3 15.7 C 0 km/h
2400 31-08-2003 11:39:00 15.4 C 8.15 g/m*3 15.4 C 0 km/h
Sensor: Nr:Datum:Temp:Abs-Feuchte:Windchill:Wind:
Aussen-T/F 2401 31-08-2003 11:51:00 15.1 C 8.13 g/m*3 15.1 C 0 km/h
2402 31-08-2003 12:03:01 15.5 C 8.33 g/m*3 15.5 C 0 km/h
2403 31-08-2003 12:15:01 15.9 C 8.26 g/m*3 15.9 C 0 km/h
2404 31-08-2003 12:27:01 15.7 C 8.16 g/m*3 15.7 C 0 km/h
2405 31-08-2003 12:39:01 16.2 C 8 g/m*3 16.2 C 0 km/h
2406 31-08-2003 12:51:01 16.4 C 7.96 g/m*3 16.4 C 0 km/h
2407 31-08-2003 13:03:01 16.4 C 7.96 g/m*3 16.4 C 0 km/h
2408 31-08-2003 13:15:01 17 C 7.96 g/m*3 17 C 0 km/h
2409 31-08-2003 13:27:01 18 C 7.68 g/m*3 18 C 0 km/h
2410 31-08-2003 13:39:02 14.5 C 8.08 g/m*3 14.5 C 0 km/h
2411 31-08-2003 13:51:02 13.6 C 9.77 g/m*3 13.6 C 0 km/h
2412 31-08-2003 14:03:02 13.7 C 10.3 g/m*3 13.7 C 0 km/h
2413 31-08-2003 14:15:02 15.4 C 10.25 g/m*3 15.4 C 0 km/h
2414 31-08-2003 14:27:02 16.9 C 9.92 g/m*3 16.9 C 0 km/h
2415 31-08-2003 14:39:01 18.3 C 10.63 g/m*3 18.3 C 0 km/h
2416 31-08-2003 14:51:01 19.7 C 10.36 g/m*3 19.7 C 0 km/h
2417 31-08-2003 15:03:02 18.8 C 9.5 g/m*3 18.8 C 0 km/h
2418 31-08-2003 15:15:02 15.7 C 8.7 g/m*3 15.7 C 0 km/h
2419 31-08-2003 15:27:02 15.1 C 9.42 g/m*3 15.1 C 0 km/h
2420 31-08-2003 15:39:00 15.9 C 8.94 g/m*3 15.9 C 0 km/h
2421 31-08-2003 15:51:00 17.2 C 8.93 g/m*3 17.2 C 0 km/h
2422 31-08-2003 16:03:01 18.7 C 9.13 g/m*3 18.7 C 0 km/h
2423 31-08-2003 16:15:01 18.7 C 9.45 g/m*3 18.7 C 0 km/h
2424 31-08-2003 16:27:01 17.9 C 9.16 g/m*3 17.9 C 0 km/h
2425 31-08-2003 16:39:02 18 C 7.37 g/m*3 18 C 0 km/h
Sensor: Nr:Datum:Temp:Abs-Feuchte:Windchill:Wind:
Aussen-T/F 2426 31-08-2003 16:51:02 19.1 C 7.05 g/m*3 19.1 C 0 km/h
2427 31-08-2003 17:03:02 19.9 C 6.53 g/m*3 19.9 C 0 km/h
2428 31-08-2003 17:15:02 20.3 C 6.51 g/m*3 20.3 C 0 km/h
2429 31-08-2003 17:27:02 21.6 C 6.64 g/m*3 21.6 C 0 km/h
2430 31-08-2003 17:39:02 20 C 6.57 g/m*3 20 C 0 km/h
2431 31-08-2003 17:51:02 19.3 C 6.97 g/m*3 19.3 C 0 km/h
2432 31-08-2003 18:03:01 18.3 C 7.19 g/m*3 18.3 C 0 km/h
2433 31-08-2003 18:15:01 18.2 C 7.46 g/m*3 18.2 C 0 km/h
2434 31-08-2003 18:27:01 17.8 C 7.59 g/m*3 17.8 C 0 km/h
2435 31-08-2003 18:39:02 18.2 C 7.62 g/m*3 18.2 C 0 km/h
2436 31-08-2003 18:51:02 18.3 C 7.04 g/m*3 18.3 C 0 km/h
2437 31-08-2003 19:03:01 17.5 C 7.01 g/m*3 17.5 C 0 km/h
2438 31-08-2003 19:15:01 17.3 C 7.22 g/m*3 17.3 C 0 km/h
2439 31-08-2003 19:27:01 17.6 C 7.35 g/m*3 17.6 C 0 km/h
2440 31-08-2003 19:39:02 17 C 7.38 g/m*3 17 C 0 km/h
2441 31-08-2003 19:51:02 16.6 C 7.2 g/m*3 16.6 C 0 km/h
2442 31-08-2003 20:03:02 16.4 C 7.68 g/m*3 16.4 C 0 km/h
2443 31-08-2003 20:15:02 16 C 7.36 g/m*3 16 C 0 km/h
2444 31-08-2003 20:27:02 15.4 C 7.23 g/m*3 15.4 C 0 km/h
2445 31-08-2003 20:39:01 14.9 C 7.77 g/m*3 14.9 C 0 km/h
2446 31-08-2003 20:51:01 14.6 C 7.76 g/m*3 14.6 C 0 km/h
2447 31-08-2003 21:04:00 14.6 C 7.88 g/m*3 14.6 C 0 km/h
2448 31-08-2003 21:16:00 14.4 C 8.03 g/m*3 14.4 C 0 km/h
2449 31-08-2003 21:28:00 14.3 C 7.99 g/m*3 14.3 C 0 km/h
2450 31-08-2003 21:40:00 14.2 C 8.18 g/m*3 14.2 C 0 km/h
Sensor: Nr:Datum:Temp:Abs-Feuchte:Windchill:Wind:
Aussen-T/F 2451 31-08-2003 21:52:00 14.1 C 8.01 g/m*3 14.1 C 0 km/h
2452 31-08-2003 22:04:00 14.1 C 8.25 g/m*3 14.1 C 0 km/h
2453 31-08-2003 22:16:00 14.2 C 8.06 g/m*3 14.2 C 0 km/h
2454 31-08-2003 22:28:00 14.2 C 7.57 g/m*3 14.2 C 0 km/h
2455 31-08-2003 22:40:00 14.1 C 7.89 g/m*3 14.1 C 0 km/h
2456 31-08-2003 22:52:00 13.8 C 7.74 g/m*3 13.8 C 0 km/h
2457 31-08-2003 23:04:00 13.7 C 7.7 g/m*3 13.7 C 0 km/h
2458 31-08-2003 23:16:00 13.5 C 7.95 g/m*3 13.5 C 0 km/h
2459 31-08-2003 23:28:00 13.1 C 7.99 g/m*3 13.1 C 0 km/h
2460 31-08-2003 23:40:00 12.6 C 7.85 g/m*3 12.6 C 0 km/h
2461 31-08-2003 23:52:00 12.2 C 7.77 g/m*3 12.2 C 0 km/h
2462 01-09-2003 00:04:00 12 C 7.78 g/m*3 12 C 0 km/h
2463 01-09-2003 00:16:00 11.8 C 8.1 g/m*3 11.8 C 0 km/h
2464 01-09-2003 00:28:00 11.8 C 8.31 g/m*3 11.8 C 0 km/h
2465 01-09-2003 00:40:00 11.5 C 8.26 g/m*3 11.5 C 0 km/h
2466 01-09-2003 00:52:00 11.3 C 8.36 g/m*3 11.3 C 0 km/h
2467 01-09-2003 01:04:00 11.1 C 8.36 g/m*3 11.1 C 0 km/h
2468 01-09-2003 01:16:00 10.9 C 8.36 g/m*3 10.9 C 0 km/h
2469 01-09-2003 01:28:00 10.8 C 8.3 g/m*3 10.8 C 0 km/h
2470 01-09-2003 01:40:00 10.7 C 8.25 g/m*3 10.7 C 0 km/h
2471 01-09-2003 01:52:00 10.5 C 8.15 g/m*3 10.5 C 0 km/h
2472 01-09-2003 02:04:00 10.5 C 8.15 g/m*3 10.5 C 0 km/h
2473 01-09-2003 02:16:00 10.4 C 8.19 g/m*3 10.4 C 0 km/h
2474 01-09-2003 02:28:00 10.4 C 8.29 g/m*3 10.4 C 0 km/h
2475 01-09-2003 02:40:00 10.4 C 8.19 g/m*3 10.4 C 0 km/h
Sensor: Nr:Datum:Temp:Abs-Feuchte:Windchill:Wind:
Aussen-T/F 2476 01-09-2003 02:52:00 10.5 C 8.24 g/m*3 10.5 C 0 km/h
2477 01-09-2003 03:04:00 10.3 C 8.24 g/m*3 10.3 C 0 km/h
2478 01-09-2003 03:16:00 10.2 C 8.28 g/m*3 10.2 C 0 km/h
2479 01-09-2003 03:28:00 10.2 C 8.28 g/m*3 10.2 C 0 km/h
2480 01-09-2003 03:40:00 10.2 C 8.28 g/m*3 10.2 C 0 km/h
2481 01-09-2003 03:52:00 10.3 C 8.33 g/m*3 10.3 C 0 km/h
2482 01-09-2003 04:04:00 10.3 C 8.24 g/m*3 10.3 C 0 km/h
2483 01-09-2003 04:16:00 10.4 C 8.29 g/m*3 10.4 C 0 km/h
2484 01-09-2003 04:28:00 10.4 C 8.29 g/m*3 10.4 C 0 km/h
2485 01-09-2003 04:40:00 10.4 C 8.29 g/m*3 10.4 C 0 km/h
2486 01-09-2003 04:52:00 10.4 C 8.29 g/m*3 10.4 C 0 km/h
2487 01-09-2003 05:04:00 10.4 C 8.29 g/m*3 10.4 C 0 km/h
2488 01-09-2003 05:16:00 10.3 C 8.24 g/m*3 10.3 C 0 km/h
2489 01-09-2003 05:28:00 10.2 C 8.18 g/m*3 10.2 C 0 km/h
2490 01-09-2003 05:40:00 10.2 C 8.18 g/m*3 10.2 C 0 km/h
2491 01-09-2003 05:52:00 10.2 C 8.18 g/m*3 10.2 C 0 km/h
2492 01-09-2003 06:04:00 10.2 C 8.18 g/m*3 10.2 C 0 km/h
2493 01-09-2003 06:16:00 10.1 C 8.23 g/m*3 10.1 C 0 km/h
2494 01-09-2003 06:28:00 10 C 8.08 g/m*3 10 C 0 km/h
2495 01-09-2003 06:40:00 9.7 C 8.2 g/m*3 9.7 C 0 km/h
2496 01-09-2003 06:52:00 9.5 C 8.1 g/m*3 9.5 C 0 km/h
2497 01-09-2003 07:04:00 9.3 C 8 g/m*3 9.3 C 0 km/h
2498 01-09-2003 07:16:00 9.3 C 8 g/m*3 9.3 C 0 km/h
2499 01-09-2003 07:28:00 9.3 C 8.09 g/m*3 9.3 C 0 km/h
2500 01-09-2003 07:40:00 9.5 C 8.19 g/m*3 9.5 C 0 km/h
Sensor: Nr:Datum:Temp:Abs-Feuchte:Windchill:Wind:
Aussen-T/F 2501 01-09-2003 07:52:00 9.6 C 8.24 g/m*3 9.6 C 0 km/h
2502 01-09-2003 08:04:00 9.7 C 8.3 g/m*3 9.7 C 0 km/h
2503 01-09-2003 08:16:00 9.6 C 8.24 g/m*3 9.6 C 0 km/h
2504 01-09-2003 08:28:00 9.7 C 8.3 g/m*3 9.7 C 0 km/h
2505 01-09-2003 08:40:00 10 C 8.27 g/m*3 10 C 0 km/h
2506 01-09-2003 08:52:00 10.4 C 8.38 g/m*3 10.4 C 0 km/h
2507 01-09-2003 09:04:00 10.9 C 8.36 g/m*3 10.9 C 0 km/h
2508 01-09-2003 09:16:00 11.3 C 8.47 g/m*3 11.3 C 0 km/h
2509 01-09-2003 09:28:00 11.5 C 8.37 g/m*3 11.5 C 0 km/h
2510 01-09-2003 09:40:00 11.8 C 8.42 g/m*3 11.8 C 0 km/h
2511 01-09-2003 09:52:00 12 C 8.42 g/m*3 12 C 0 km/h
2512 01-09-2003 10:04:01 12.4 C 8.41 g/m*3 12.4 C 0 km/h
2513 01-09-2003 10:16:01 12.9 C 8.57 g/m*3 12.9 C 0 km/h
2514 01-09-2003 10:28:01 13.1 C 8.1 g/m*3 13.1 C 0 km/h
2515 01-09-2003 10:40:01 13.3 C 7.97 g/m*3 13.3 C 0 km/h
2516 01-09-2003 10:52:01 13.5 C 7.95 g/m*3 13.5 C 0 km/h
2517 01-09-2003 11:04:02 13.9 C 7.91 g/m*3 13.9 C 0 km/h
2518 01-09-2003 11:16:02 14.1 C 7.89 g/m*3 14.1 C 0 km/h
2519 01-09-2003 11:28:02 13.9 C 7.91 g/m*3 13.9 C 0 km/h
2520 01-09-2003 11:40:01 14.3 C 7.86 g/m*3 14.3 C 0 km/h
2521 01-09-2003 11:52:01 15.3 C 7.44 g/m*3 15.3 C 0 km/h
2522 01-09-2003 12:04:02 15.8 C 7.54 g/m*3 15.8 C 0 km/h
2523 01-09-2003 12:16:02 17 C 7.38 g/m*3 17 C 0 km/h
2524 01-09-2003 12:28:02 16.5 C 7.3 g/m*3 16.5 C 0 km/h
2525 01-09-2003 12:40:01 16.1 C 7.4 g/m*3 16.1 C 0 km/h
Sensor: Nr:Datum:Temp:Abs-Feuchte:Windchill:Wind:
Aussen-T/F 2526 01-09-2003 12:52:01 15.8 C 7.4 g/m*3 15.8 C 0 km/h
2527 01-09-2003 13:04:01 15.8 C 7.4 g/m*3 15.8 C 0 km/h
2528 01-09-2003 13:16:01 15.8 C 7 g/m*3 15.8 C 0 km/h
2529 01-09-2003 13:28:01 16.4 C 6.7 g/m*3 16.4 C 0 km/h
2530 01-09-2003 13:40:01 16.8 C 6.29 g/m*3 16.8 C 0 km/h
2531 01-09-2003 13:52:01 17.7 C 6.34 g/m*3 17.7 C 0 km/h
2532 01-09-2003 14:04:01 17.8 C 6.37 g/m*3 17.8 C 0 km/h
2533 01-09-2003 14:16:01 18.3 C 6.57 g/m*3 18.3 C 0 km/h
2534 01-09-2003 14:28:01 18.1 C 6.33 g/m*3 18.1 C 0 km/h
2535 01-09-2003 14:40:01 18 C 6.6 g/m*3 18 C 0 km/h
2536 01-09-2003 14:52:01 17.8 C 6.98 g/m*3 17.8 C 0 km/h
2537 01-09-2003 15:04:01 17.5 C 6.71 g/m*3 17.5 C 0 km/h
2538 01-09-2003 15:16:01 19.1 C 6.56 g/m*3 19.1 C 0 km/h
2539 01-09-2003 15:28:01 19.1 C 6.56 g/m*3 19.1 C 0 km/h
2540 01-09-2003 15:40:02 18.8 C 6.93 g/m*3 18.8 C 0 km/h
2541 01-09-2003 15:52:02 18.5 C 6.65 g/m*3 18.5 C 0 km/h
2542 01-09-2003 16:04:01 18.4 C 6.76 g/m*3 18.4 C 0 km/h
2543 01-09-2003 16:16:01 19.6 C 6.75 g/m*3 19.6 C 0 km/h
2544 01-09-2003 16:28:01 20.5 C 6.23 g/m*3 20.5 C 0 km/h
2545 01-09-2003 16:40:01 19.8 C 6.66 g/m*3 19.8 C 0 km/h
2546 01-09-2003 16:52:01 18.9 C 7.29 g/m*3 18.9 C 0 km/h
2547 01-09-2003 17:04:01 18.2 C 6.68 g/m*3 18.2 C 0 km/h
2548 01-09-2003 17:16:01 18 C 6.76 g/m*3 18 C 0 km/h
2549 01-09-2003 17:28:01 17.9 C 6.87 g/m*3 17.9 C 0 km/h
2550 01-09-2003 17:40:01 17.5 C 6.86 g/m*3 17.5 C 0 km/h
Sensor: Nr:Datum:Temp:Abs-Feuchte:Windchill:Wind:
Aussen-T/F 2551 01-09-2003 17:52:01 16.4 C 7.82 g/m*3 16.4 C 0 km/h
2552 01-09-2003 18:04:00 14.4 C 8.41 g/m*3 14.4 C 0 km/h
2553 01-09-2003 18:16:00 14.6 C 9.01 g/m*3 14.6 C 0 km/h
2554 01-09-2003 18:28:00 15.2 C 8.83 g/m*3 15.2 C 0 km/h
2555 01-09-2003 18:40:02 15.6 C 8.51 g/m*3 15.6 C 0 km/h
2556 01-09-2003 18:52:02 15.2 C 7.79 g/m*3 15.2 C 0 km/h
2557 01-09-2003 19:04:01 14.7 C 8.06 g/m*3 14.7 C 0 km/h
2558 01-09-2003 19:16:01 14.5 C 8.08 g/m*3 14.5 C 0 km/h
2559 01-09-2003 19:28:01 13.8 C 8.34 g/m*3 13.8 C 0 km/h
2560 01-09-2003 19:40:01 13.5 C 8.42 g/m*3 13.5 C 0 km/h
2561 01-09-2003 19:52:01 13.5 C 8.3 g/m*3 13.5 C 0 km/h
2562 01-09-2003 20:04:01 13.4 C 8.25 g/m*3 13.4 C 0 km/h
2563 01-09-2003 20:16:01 13.2 C 8.15 g/m*3 13.2 C 0 km/h
2564 01-09-2003 20:28:01 12.9 C 8.23 g/m*3 12.9 C 0 km/h
2565 01-09-2003 20:41:04 12.5 C 8.14 g/m*3 12.5 C 0 km/h
2566 01-09-2003 20:53:04 12.2 C 8.09 g/m*3 12.2 C 0 km/h
2567 01-09-2003 21:05:04 12.3 C 8.04 g/m*3 12.3 C 0 km/h
2568 01-09-2003 21:17:04 12.3 C 7.93 g/m*3 12.3 C 0 km/h
2569 01-09-2003 21:29:04 12.1 C 7.94 g/m*3 12.1 C 0 km/h
2570 01-09-2003 21:41:04 11.8 C 8 g/m*3 11.8 C 0 km/h
2571 01-09-2003 21:53:04 11.6 C 7.9 g/m*3 11.6 C 0 km/h
2572 01-09-2003 22:05:04 11.7 C 8.05 g/m*3 11.7 C 0 km/h
2573 01-09-2003 22:17:04 12 C 7.99 g/m*3 12 C 0 km/h
2574 01-09-2003 22:29:04 12.4 C 8.19 g/m*3 12.4 C 0 km/h
2575 01-09-2003 22:41:04 12 C 8.53 g/m*3 12 C 0 km/h
Sensor: Nr:Datum:Temp:Abs-Feuchte:Windchill:Wind:
Aussen-T/F 2576 01-09-2003 22:53:04 11.6 C 8.73 g/m*3 11.6 C 0 km/h
2577 01-09-2003 23:05:04 11.3 C 8.77 g/m*3 11.3 C 0 km/h
2578 01-09-2003 23:17:04 11 C 8.71 g/m*3 11 C 0 km/h
2579 01-09-2003 23:29:04 10.6 C 8.59 g/m*3 10.6 C 0 km/h
2580 01-09-2003 23:41:04 10.5 C 8.63 g/m*3 10.5 C 0 km/h
2581 01-09-2003 23:53:04 10.3 C 8.62 g/m*3 10.3 C 0 km/h
2582 02-09-2003 00:05:04 10.2 C 8.56 g/m*3 10.2 C 0 km/h
2583 02-09-2003 00:17:04 10.1 C 8.51 g/m*3 10.1 C 0 km/h
2584 02-09-2003 00:29:04 9.9 C 8.59 g/m*3 9.9 C 0 km/h
2585 02-09-2003 00:41:04 10 C 8.55 g/m*3 10 C 0 km/h
2586 02-09-2003 00:53:04 10 C 8.55 g/m*3 10 C 0 km/h
2587 02-09-2003 01:05:04 9.8 C 8.54 g/m*3 9.8 C 0 km/h
2588 02-09-2003 01:17:04 9.9 C 8.59 g/m*3 9.9 C 0 km/h
2589 02-09-2003 01:29:04 9.7 C 8.48 g/m*3 9.7 C 0 km/h
2590 02-09-2003 01:41:04 9.4 C 8.23 g/m*3 9.4 C 0 km/h
2591 02-09-2003 01:53:04 9.3 C 8.18 g/m*3 9.3 C 0 km/h
2592 02-09-2003 02:05:04 9.2 C 8.13 g/m*3 9.2 C 0 km/h
2593 02-09-2003 02:17:04 9.1 C 8.07 g/m*3 9.1 C 0 km/h
2594 02-09-2003 02:29:04 9.1 C 8.16 g/m*3 9.1 C 0 km/h
2595 02-09-2003 02:41:04 9 C 8.11 g/m*3 9 C 0 km/h
2596 02-09-2003 02:53:04 9 C 8.11 g/m*3 9 C 0 km/h
2597 02-09-2003 03:05:04 9 C 8.11 g/m*3 9 C 0 km/h
2598 02-09-2003 03:17:04 9 C 8.2 g/m*3 9 C 0 km/h
2599 02-09-2003 03:29:04 9.1 C 8.25 g/m*3 9.1 C 0 km/h
2600 02-09-2003 03:41:04 9.1 C 8.25 g/m*3 9.1 C 0 km/h
Sensor: Nr:Datum:Temp:Abs-Feuchte:Windchill:Wind:
Aussen-T/F 2601 02-09-2003 03:53:04 9.1 C 8.25 g/m*3 9.1 C 0 km/h
2602 02-09-2003 04:05:04 9 C 8.2 g/m*3 9 C 0 km/h
2603 02-09-2003 04:17:04 9.1 C 8.25 g/m*3 9.1 C 0 km/h
2604 02-09-2003 04:29:04 9.1 C 8.25 g/m*3 9.1 C 0 km/h
2605 02-09-2003 04:41:04 9.2 C 8.3 g/m*3 9.2 C 0 km/h
2606 02-09-2003 04:53:04 9.2 C 8.3 g/m*3 9.2 C 0 km/h
2607 02-09-2003 05:05:04 9.2 C 8.3 g/m*3 9.2 C 0 km/h
2608 02-09-2003 05:17:04 9 C 8.11 g/m*3 9 C 0 km/h
2609 02-09-2003 05:29:04 9.1 C 8.16 g/m*3 9.1 C 0 km/h
2610 02-09-2003 05:41:04 9 C 8.11 g/m*3 9 C 0 km/h
2611 02-09-2003 05:53:04 8.9 C 8.15 g/m*3 8.9 C 0 km/h
2612 02-09-2003 06:05:04 8.8 C 8.09 g/m*3 8.8 C 0 km/h
2613 02-09-2003 06:17:04 8.7 C 8.04 g/m*3 8.7 C 0 km/h
2614 02-09-2003 06:29:04 8.7 C 8.04 g/m*3 8.7 C 0 km/h
2615 02-09-2003 06:41:04 8.5 C 7.94 g/m*3 8.5 C 0 km/h
2616 02-09-2003 06:53:04 8.6 C 7.99 g/m*3 8.6 C 0 km/h
2617 02-09-2003 07:05:04 8.6 C 7.99 g/m*3 8.6 C 0 km/h
2618 02-09-2003 07:17:04 8.5 C 7.94 g/m*3 8.5 C 0 km/h
2619 02-09-2003 07:29:04 8.6 C 7.99 g/m*3 8.6 C 0 km/h
2620 02-09-2003 07:41:04 9 C 8.11 g/m*3 9 C 0 km/h
2621 02-09-2003 07:53:04 9.2 C 8.22 g/m*3 9.2 C 0 km/h
2622 02-09-2003 08:05:04 9.3 C 8.27 g/m*3 9.3 C 0 km/h
2623 02-09-2003 08:17:04 9.3 C 8.18 g/m*3 9.3 C 0 km/h
2624 02-09-2003 08:29:04 9.4 C 8.23 g/m*3 9.4 C 0 km/h
2625 02-09-2003 08:41:04 9.8 C 8.63 g/m*3 9.8 C 0 km/h
Sensor: Nr:Datum:Temp:Abs-Feuchte:Windchill:Wind:
Aussen-T/F 2626 02-09-2003 08:53:04 10.3 C 8.71 g/m*3 10.3 C 0 km/h
2627 02-09-2003 09:05:04 10.5 C 8.83 g/m*3 10.5 C 0 km/h
2628 02-09-2003 09:17:04 11.4 C 9.34 g/m*3 11.4 C 0 km/h
2629 02-09-2003 09:29:04 11.9 C 9.53 g/m*3 11.9 C 0 km/h
2630 02-09-2003 09:41:01 12 C 9.27 g/m*3 12 C 0 km/h
2631 02-09-2003 09:53:01 12.5 C 9.35 g/m*3 12.5 C 0 km/h
2632 02-09-2003 10:05:00 12.7 C 9.02 g/m*3 12.7 C 0 km/h
2633 02-09-2003 10:17:00 13 C 8.96 g/m*3 13 C 0 km/h
2634 02-09-2003 10:29:00 13.1 C 8.9 g/m*3 13.1 C 0 km/h
2635 02-09-2003 10:41:01 13.6 C 8.59 g/m*3 13.6 C 0 km/h
2636 02-09-2003 10:53:01 13.8 C 8.82 g/m*3 13.8 C 0 km/h
2637 02-09-2003 11:05:01 14.8 C 9.12 g/m*3 14.8 C 0 km/h
2638 02-09-2003 11:17:01 15.4 C 8.8 g/m*3 15.4 C 0 km/h
2639 02-09-2003 11:29:01 15.5 C 8.72 g/m*3 15.5 C 0 km/h
2640 02-09-2003 11:41:01 16.2 C 8.55 g/m*3 16.2 C 0 km/h
2641 02-09-2003 11:53:01 16 C 8.31 g/m*3 16 C 0 km/h
2642 02-09-2003 12:05:01 16 C 8.72 g/m*3 16 C 0 km/h
2643 02-09-2003 12:17:01 17.4 C 8.6 g/m*3 17.4 C 0 km/h
2644 02-09-2003 12:29:01 18.3 C 8.29 g/m*3 18.3 C 0 km/h
2645 02-09-2003 12:41:01 17.7 C 8 g/m*3 17.7 C 0 km/h
2646 02-09-2003 12:53:01 16.8 C 8.01 g/m*3 16.8 C 0 km/h
2647 02-09-2003 13:05:01 17.1 C 8.15 g/m*3 17.1 C 0 km/h
2648 02-09-2003 13:17:01 17.6 C 8.25 g/m*3 17.6 C 0 km/h
2649 02-09-2003 13:29:01 18.6 C 7.48 g/m*3 18.6 C 0 km/h
2650 02-09-2003 13:41:02 19.9 C 7.39 g/m*3 19.9 C 0 km/h
Sensor: Nr:Datum:Temp:Abs-Feuchte:Windchill:Wind:
Aussen-T/F 2651 02-09-2003 13:53:02 19.2 C 7.26 g/m*3 19.2 C 0 km/h
2652 02-09-2003 14:05:02 19.5 C 7.05 g/m*3 19.5 C 0 km/h
2653 02-09-2003 14:17:02 20.7 C 7.2 g/m*3 20.7 C 0 km/h
2654 02-09-2003 14:29:02 21.2 C 7.41 g/m*3 21.2 C 0 km/h
2655 02-09-2003 14:41:02 19.9 C 6.7 g/m*3 19.9 C 0 km/h
2656 02-09-2003 14:53:02 20.5 C 6.41 g/m*3 20.5 C 0 km/h
2657 02-09-2003 15:05:02 20.6 C 6.09 g/m*3 20.6 C 0 km/h
2658 02-09-2003 15:17:02 22.4 C 6.16 g/m*3 22.4 C 0 km/h
2659 02-09-2003 15:29:02 20.7 C 5.76 g/m*3 20.7 C 0 km/h
2660 02-09-2003 15:41:02 21.5 C 6.22 g/m*3 21.5 C 0 km/h
2661 02-09-2003 15:53:02 21.9 C 5.4 g/m*3 21.9 C 0 km/h
2662 02-09-2003 16:05:07 21.8 C 5.37 g/m*3 21.8 C 0 km/h
2663 02-09-2003 16:17:07 22.2 C 5.1 g/m*3 22.2 C 0 km/h
2664 02-09-2003 16:29:07 22.1 C 5.27 g/m*3 22.1 C 0 km/h
2665 02-09-2003 16:41:02 22.9 C 5.52 g/m*3 22.9 C 0 km/h
2666 02-09-2003 16:53:02 22 C 5.24 g/m*3 22 C 0 km/h
2667 02-09-2003 17:05:01 22.1 C 5.27 g/m*3 22.1 C 0 km/h
2668 02-09-2003 17:17:01 22.2 C 5.3 g/m*3 22.2 C 0 km/h
2669 02-09-2003 17:29:01 22.4 C 5.36 g/m*3 22.4 C 0 km/h
2670 02-09-2003 17:41:01 23 C 5.14 g/m*3 23 C 0 km/h
2671 02-09-2003 17:53:01 22.5 C 4.99 g/m*3 22.5 C 0 km/h
2672 02-09-2003 18:05:01 21.5 C 6.03 g/m*3 21.5 C 0 km/h
2673 02-09-2003 18:17:01 20.4 C 6.55 g/m*3 20.4 C 0 km/h
2674 02-09-2003 18:29:01 21.7 C 6.1 g/m*3 21.7 C 0 km/h
2675 02-09-2003 18:41:01 22.3 C 5.33 g/m*3 22.3 C 0 km/h
Sensor: Nr:Datum:Temp:Abs-Feuchte:Windchill:Wind:
Aussen-T/F 2676 02-09-2003 18:53:01 21.2 C 5.74 g/m*3 21.2 C 0 km/h
2677 02-09-2003 19:05:02 20.3 C 6.16 g/m*3 20.3 C 0 km/h
2678 02-09-2003 19:17:02 19.4 C 6.34 g/m*3 19.4 C 0 km/h
2679 02-09-2003 19:29:02 18.6 C 6.84 g/m*3 18.6 C 0 km/h
2680 02-09-2003 19:41:02 18.3 C 6.88 g/m*3 18.3 C 0 km/h
2681 02-09-2003 19:53:02 17.8 C 6.98 g/m*3 17.8 C 0 km/h
2682 02-09-2003 20:05:02 16.9 C 6.76 g/m*3 16.9 C 0 km/h
2683 02-09-2003 20:17:02 15.8 C 6.73 g/m*3 15.8 C 0 km/h
2684 02-09-2003 20:29:02 15.2 C 6.62 g/m*3 15.2 C 0 km/h
2685 02-09-2003 20:41:01 14.7 C 6.8 g/m*3 14.7 C 0 km/h
2686 02-09-2003 20:53:01 14.4 C 6.68 g/m*3 14.4 C 0 km/h
2687 02-09-2003 21:06:02 14.2 C 6.72 g/m*3 14.2 C 0 km/h
2688 02-09-2003 21:18:02 14 C 6.75 g/m*3 14 C 0 km/h
2689 02-09-2003 21:30:02 13.7 C 6.99 g/m*3 13.7 C 0 km/h
2690 02-09-2003 21:42:02 13.4 C 6.86 g/m*3 13.4 C 0 km/h
2691 02-09-2003 21:54:02 13.2 C 6.89 g/m*3 13.2 C 0 km/h
2692 02-09-2003 22:06:02 13.1 C 6.96 g/m*3 13.1 C 0 km/h
2693 02-09-2003 22:18:02 12.8 C 7.17 g/m*3 12.8 C 0 km/h
2694 02-09-2003 22:30:02 12.7 C 7.01 g/m*3 12.7 C 0 km/h
2695 02-09-2003 22:42:02 12.5 C 7.04 g/m*3 12.5 C 0 km/h
2696 02-09-2003 22:54:02 12.4 C 7.1 g/m*3 12.4 C 0 km/h
2697 02-09-2003 23:06:02 12.2 C 7.12 g/m*3 12.2 C 0 km/h
2698 02-09-2003 23:18:02 11.8 C 7.16 g/m*3 11.8 C 0 km/h
2699 02-09-2003 23:30:02 11.7 C 7.11 g/m*3 11.7 C 0 km/h
2700 02-09-2003 23:42:02 11.4 C 7.19 g/m*3 11.4 C 0 km/h
Sensor: Nr:Datum:Temp:Abs-Feuchte:Windchill:Wind:
Aussen-T/F 2701 02-09-2003 23:54:02 11.2 C 7.1 g/m*3 11.2 C 0 km/h
2702 03-09-2003 00:06:02 11 C 7.11 g/m*3 11 C 0 km/h
2703 03-09-2003 00:18:02 10.9 C 7.06 g/m*3 10.9 C 0 km/h
2704 03-09-2003 00:30:02 10.7 C 6.97 g/m*3 10.7 C 0 km/h
2705 03-09-2003 00:42:02 10.6 C 7.03 g/m*3 10.6 C 0 km/h
2706 03-09-2003 00:54:02 10.3 C 6.7 g/m*3 10.3 C 0 km/h
2707 03-09-2003 01:06:02 10.2 C 6.76 g/m*3 10.2 C 0 km/h
2708 03-09-2003 01:18:02 9.9 C 6.82 g/m*3 9.9 C 0 km/h
2709 03-09-2003 01:30:02 9.8 C 6.87 g/m*3 9.8 C 0 km/h
2710 03-09-2003 01:42:02 9.5 C 6.83 g/m*3 9.5 C 0 km/h
2711 03-09-2003 01:54:02 9.5 C 6.92 g/m*3 9.5 C 0 km/h
2712 03-09-2003 02:06:02 9.4 C 7.05 g/m*3 9.4 C 0 km/h
2713 03-09-2003 02:18:02 9.2 C 6.97 g/m*3 9.2 C 0 km/h
2714 03-09-2003 02:30:02 9 C 7.05 g/m*3 9 C 0 km/h
2715 03-09-2003 02:42:02 8.7 C 7.09 g/m*3 8.7 C 0 km/h
2716 03-09-2003 02:54:02 8.7 C 7.09 g/m*3 8.7 C 0 km/h
2717 03-09-2003 03:06:02 8.7 C 7.09 g/m*3 8.7 C 0 km/h
2718 03-09-2003 03:18:02 8.4 C 6.96 g/m*3 8.4 C 0 km/h
2719 03-09-2003 03:30:02 8.2 C 6.87 g/m*3 8.2 C 0 km/h
2720 03-09-2003 03:42:02 8.1 C 6.82 g/m*3 8.1 C 0 km/h
2721 03-09-2003 03:54:02 8 C 6.86 g/m*3 8 C 0 km/h
2722 03-09-2003 04:06:02 7.9 C 6.98 g/m*3 7.9 C 0 km/h
2723 03-09-2003 04:18:02 7.8 C 7.02 g/m*3 7.8 C 0 km/h
2724 03-09-2003 04:30:02 7.8 C 7.02 g/m*3 7.8 C 0 km/h
2725 03-09-2003 04:42:02 7.6 C 7.01 g/m*3 7.6 C 0 km/h
Sensor: Nr:Datum:Temp:Abs-Feuchte:Windchill:Wind:
Aussen-T/F 2726 03-09-2003 04:54:02 7.5 C 6.96 g/m*3 7.5 C 0 km/h
2727 03-09-2003 05:06:02 7.4 C 6.92 g/m*3 7.4 C 0 km/h
2728 03-09-2003 05:18:02 7.3 C 6.87 g/m*3 7.3 C 0 km/h
2729 03-09-2003 05:30:02 7.2 C 6.83 g/m*3 7.2 C 0 km/h
2730 03-09-2003 05:42:02 7 C 6.74 g/m*3 7 C 0 km/h
2731 03-09-2003 05:54:02 7 C 6.74 g/m*3 7 C 0 km/h
2732 03-09-2003 06:06:02 6.9 C 6.77 g/m*3 6.9 C 0 km/h
2733 03-09-2003 06:18:02 6.9 C 6.85 g/m*3 6.9 C 0 km/h
2734 03-09-2003 06:30:02 6.6 C 6.79 g/m*3 6.6 C 0 km/h
2735 03-09-2003 06:42:02 6.5 C 6.75 g/m*3 6.5 C 0 km/h
2736 03-09-2003 06:54:02 6.5 C 6.82 g/m*3 6.5 C 0 km/h
2737 03-09-2003 07:06:02 6.5 C 6.9 g/m*3 6.5 C 0 km/h
2738 03-09-2003 07:18:02 6.6 C 6.95 g/m*3 6.6 C 0 km/h
2739 03-09-2003 07:30:02 6.8 C 7.04 g/m*3 6.8 C 0 km/h
2740 03-09-2003 07:42:02 6.9 C 7.01 g/m*3 6.9 C 0 km/h
2741 03-09-2003 07:54:02 7.1 C 6.94 g/m*3 7.1 C 0 km/h
2742 03-09-2003 08:06:02 7.1 C 6.94 g/m*3 7.1 C 0 km/h
2743 03-09-2003 08:18:02 7.2 C 6.99 g/m*3 7.2 C 0 km/h
2744 03-09-2003 08:30:02 7.1 C 6.94 g/m*3 7.1 C 0 km/h
2745 03-09-2003 08:42:02 7.1 C 6.94 g/m*3 7.1 C 0 km/h
2746 03-09-2003 08:54:02 7.2 C 7.06 g/m*3 7.2 C 0 km/h
2747 03-09-2003 09:06:01 7.4 C 7.16 g/m*3 7.4 C 0 km/h
2748 03-09-2003 09:18:01 7.7 C 7.3 g/m*3 7.7 C 0 km/h
2749 03-09-2003 09:30:01 8 C 7.28 g/m*3 8 C 0 km/h
2750 03-09-2003 09:42:02 8.5 C 7.43 g/m*3 8.5 C 0 km/h
Sensor: Nr:Datum:Temp:Abs-Feuchte:Windchill:Wind:
Aussen-T/F 2751 03-09-2003 09:54:02 9.2 C 7.68 g/m*3 9.2 C 0 km/h
2752 03-09-2003 10:06:02 9.7 C 7.56 g/m*3 9.7 C 0 km/h
2753 03-09-2003 10:18:02 10.5 C 7.76 g/m*3 10.5 C 0 km/h
2754 03-09-2003 10:30:02 11.2 C 7.6 g/m*3 11.2 C 0 km/h
2755 03-09-2003 10:42:01 11.9 C 7.52 g/m*3 11.9 C 0 km/h
2756 03-09-2003 10:54:01 12.3 C 7.71 g/m*3 12.3 C 0 km/h
2757 03-09-2003 11:06:01 13.1 C 7.76 g/m*3 13.1 C 0 km/h
2758 03-09-2003 11:18:01 13.9 C 8.03 g/m*3 13.9 C 0 km/h
2759 03-09-2003 11:30:01 14.4 C 8.03 g/m*3 14.4 C 0 km/h
2760 03-09-2003 11:42:02 15.2 C 8.31 g/m*3 15.2 C 0 km/h
2761 03-09-2003 11:54:02 15.8 C 8.08 g/m*3 15.8 C 0 km/h
2762 03-09-2003 12:06:02 16.8 C 8.01 g/m*3 16.8 C 0 km/h
2763 03-09-2003 12:18:02 17.5 C 7.16 g/m*3 17.5 C 0 km/h
2764 03-09-2003 12:30:02 18 C 6.6 g/m*3 18 C 0 km/h
2765 03-09-2003 12:42:01 18.3 C 6.1 g/m*3 18.3 C 0 km/h
2766 03-09-2003 12:54:01 18.7 C 6.24 g/m*3 18.7 C 0 km/h
2767 03-09-2003 13:06:01 18.9 C 5.99 g/m*3 18.9 C 0 km/h
2768 03-09-2003 13:18:01 19.5 C 5.87 g/m*3 19.5 C 0 km/h
2769 03-09-2003 13:30:01 19.9 C 5.5 g/m*3 19.9 C 0 km/h
2770 03-09-2003 13:42:01 20.2 C 5.6 g/m*3 20.2 C 0 km/h
2771 03-09-2003 13:54:01 20.4 C 5.66 g/m*3 20.4 C 0 km/h
2772 03-09-2003 14:06:01 20.5 C 5.34 g/m*3 20.5 C 0 km/h
2773 03-09-2003 14:18:01 21.1 C 5.53 g/m*3 21.1 C 0 km/h
2774 03-09-2003 14:30:01 21.5 C 5.28 g/m*3 21.5 C 0 km/h
2775 03-09-2003 14:42:00 22.7 C 5.25 g/m*3 22.7 C 0 km/h
Sensor: Nr:Datum:Temp:Abs-Feuchte:Windchill:Wind:
Aussen-T/F 2776 03-09-2003 14:54:00 22.9 C 4.9 g/m*3 22.9 C 0 km/h
2777 03-09-2003 15:06:01 22.3 C 4.94 g/m*3 22.3 C 0 km/h
2778 03-09-2003 15:18:01 22 C 5.63 g/m*3 22 C 0 km/h
2779 03-09-2003 15:30:01 23.3 C 5.44 g/m*3 23.3 C 0 km/h
2780 03-09-2003 15:42:01 23.5 C 5.08 g/m*3 23.5 C 0 km/h
2781 03-09-2003 15:54:01 22.7 C 4.85 g/m*3 22.7 C 0 km/h
2782 03-09-2003 16:06:01 22.6 C 5.02 g/m*3 22.6 C 0 km/h
2783 03-09-2003 16:18:01 23.8 C 5.16 g/m*3 23.8 C 0 km/h
2784 03-09-2003 16:30:01 23 C 4.73 g/m*3 23 C 0 km/h
2785 03-09-2003 16:42:02 24.1 C 5.47 g/m*3 24.1 C 0 km/h
2786 03-09-2003 16:54:02 24.5 C 4.7 g/m*3 24.5 C 0 km/h
2787 03-09-2003 17:06:02 25 C 5.75 g/m*3 25 C 0 km/h
2788 03-09-2003 17:18:02 23.6 C 4.89 g/m*3 23.6 C 0 km/h
2789 03-09-2003 17:30:02 24.4 C 4.9 g/m*3 24.4 C 0 km/h
2790 03-09-2003 17:42:01 25.3 C 5.15 g/m*3 25.3 C 0 km/h
2791 03-09-2003 17:54:01 25 C 4.6 g/m*3 25 C 0 km/h
2792 03-09-2003 18:06:01 24.7 C 4.75 g/m*3 24.7 C 0 km/h
2793 03-09-2003 18:18:01 24.4 C 4.9 g/m*3 24.4 C 0 km/h
2794 03-09-2003 18:30:01 25.3 C 5.85 g/m*3 25.3 C 0 km/h
2795 03-09-2003 18:42:00 25.1 C 6.02 g/m*3 25.1 C 0 km/h
2796 03-09-2003 18:54:00 24.1 C 5.47 g/m*3 24.1 C 0 km/h
2797 03-09-2003 19:06:01 24 C 5.87 g/m*3 24 C 0 km/h
2798 03-09-2003 19:18:01 23.1 C 6.61 g/m*3 23.1 C 0 km/h
2799 03-09-2003 19:30:01 22.2 C 6.28 g/m*3 22.2 C 0 km/h
2800 03-09-2003 19:42:01 21.7 C 6.68 g/m*3 21.7 C 0 km/h
Sensor: Nr:Datum:Temp:Abs-Feuchte:Windchill:Wind:
Aussen-T/F 2801 03-09-2003 19:54:01 20.3 C 7.03 g/m*3 20.3 C 0 km/h
2802 03-09-2003 20:06:01 18.7 C 6.72 g/m*3 18.7 C 0 km/h
2803 03-09-2003 20:18:01 17.8 C 6.98 g/m*3 17.8 C 0 km/h
2804 03-09-2003 20:30:01 17.4 C 6.82 g/m*3 17.4 C 0 km/h
2805 03-09-2003 20:42:02 16.8 C 7.01 g/m*3 16.8 C 0 km/h
2806 03-09-2003 20:54:02 16.6 C 7.06 g/m*3 16.6 C 0 km/h
2807 03-09-2003 21:06:01 15.8 C 7 g/m*3 15.8 C 0 km/h
2808 03-09-2003 21:18:01 15.6 C 7.05 g/m*3 15.6 C 0 km/h
2809 03-09-2003 21:30:01 15.4 C 6.96 g/m*3 15.4 C 0 km/h
2810 03-09-2003 21:43:01 15.4 C 6.96 g/m*3 15.4 C 0 km/h
2811 03-09-2003 21:55:01 15.2 C 7.01 g/m*3 15.2 C 0 km/h
2812 03-09-2003 22:07:01 15.1 C 7.1 g/m*3 15.1 C 0 km/h
2813 03-09-2003 22:19:01 14.8 C 7.22 g/m*3 14.8 C 0 km/h
2814 03-09-2003 22:31:01 14.6 C 7.26 g/m*3 14.6 C 0 km/h
2815 03-09-2003 22:43:01 14.3 C 7.25 g/m*3 14.3 C 0 km/h
2816 03-09-2003 22:55:01 14.1 C 7.28 g/m*3 14.1 C 0 km/h
2817 03-09-2003 23:07:01 13.9 C 7.43 g/m*3 13.9 C 0 km/h
2818 03-09-2003 23:19:01 13.7 C 7.34 g/m*3 13.7 C 0 km/h
2819 03-09-2003 23:31:01 13.4 C 7.21 g/m*3 13.4 C 0 km/h
2820 03-09-2003 23:43:01 13.2 C 7.35 g/m*3 13.2 C 0 km/h
2821 03-09-2003 23:55:01 13 C 7.26 g/m*3 13 C 0 km/h
2822 04-09-2003 00:07:01 12.8 C 7.5 g/m*3 12.8 C 0 km/h
2823 04-09-2003 00:19:01 12.4 C 7.32 g/m*3 12.4 C 0 km/h
2824 04-09-2003 00:31:01 12.4 C 7.43 g/m*3 12.4 C 0 km/h
2825 04-09-2003 00:43:01 12.1 C 7.4 g/m*3 12.1 C 0 km/h
Sensor: Nr:Datum:Temp:Abs-Feuchte:Windchill:Wind:
Aussen-T/F 2826 04-09-2003 00:55:01 12 C 7.35 g/m*3 12 C 0 km/h
2827 04-09-2003 01:07:01 11.8 C 7.37 g/m*3 11.8 C 0 km/h
2828 04-09-2003 01:19:01 11.7 C 7.53 g/m*3 11.7 C 0 km/h
2829 04-09-2003 01:31:01 11.5 C 7.44 g/m*3 11.5 C 0 km/h
2830 04-09-2003 01:43:01 11.2 C 7.4 g/m*3 11.2 C 0 km/h
2831 04-09-2003 01:55:01 11.1 C 7.35 g/m*3 11.1 C 0 km/h
2832 04-09-2003 02:07:01 10.9 C 7.56 g/m*3 10.9 C 0 km/h
2833 04-09-2003 02:19:01 10.8 C 7.51 g/m*3 10.8 C 0 km/h
2834 04-09-2003 02:31:01 10.7 C 7.46 g/m*3 10.7 C 0 km/h
2835 04-09-2003 02:43:01 10.5 C 7.37 g/m*3 10.5 C 0 km/h
2836 04-09-2003 02:55:01 10.2 C 7.33 g/m*3 10.2 C 0 km/h
2837 04-09-2003 03:07:01 10 C 7.33 g/m*3 10 C 0 km/h
2838 04-09-2003 03:19:01 9.9 C 7.47 g/m*3 9.9 C 0 km/h
2839 04-09-2003 03:31:01 9.8 C 7.52 g/m*3 9.8 C 0 km/h
2840 04-09-2003 03:43:01 9.7 C 7.47 g/m*3 9.7 C 0 km/h
2841 04-09-2003 03:55:01 9.6 C 7.42 g/m*3 9.6 C 0 km/h
2842 04-09-2003 04:07:01 9.4 C 7.42 g/m*3 9.4 C 0 km/h
2843 04-09-2003 04:19:01 9.3 C 7.37 g/m*3 9.3 C 0 km/h
2844 04-09-2003 04:31:01 9.1 C 7.28 g/m*3 9.1 C 0 km/h
2845 04-09-2003 04:43:01 9 C 7.32 g/m*3 9 C 0 km/h
2846 04-09-2003 04:55:01 9 C 7.41 g/m*3 9 C 0 km/h
2847 04-09-2003 05:07:01 8.8 C 7.4 g/m*3 8.8 C 0 km/h
2848 04-09-2003 05:19:01 8.7 C 7.44 g/m*3 8.7 C 0 km/h
2849 04-09-2003 05:31:01 8.7 C 7.52 g/m*3 8.7 C 0 km/h
2850 04-09-2003 05:43:01 8.6 C 7.48 g/m*3 8.6 C 0 km/h
Sensor: Nr:Datum:Temp:Abs-Feuchte:Windchill:Wind:
Aussen-T/F 2851 04-09-2003 05:55:01 8.4 C 7.3 g/m*3 8.4 C 0 km/h
2852 04-09-2003 06:07:01 8.3 C 7.25 g/m*3 8.3 C 0 km/h
2853 04-09-2003 06:19:01 8.2 C 7.2 g/m*3 8.2 C 0 km/h
2854 04-09-2003 06:31:01 8.1 C 7.16 g/m*3 8.1 C 0 km/h
2855 04-09-2003 06:43:01 8 C 7.11 g/m*3 8 C 0 km/h
2856 04-09-2003 06:55:01 8 C 7.19 g/m*3 8 C 0 km/h
2857 04-09-2003 07:07:01 7.9 C 7.23 g/m*3 7.9 C 0 km/h
2858 04-09-2003 07:19:01 8 C 7.19 g/m*3 8 C 0 km/h
2859 04-09-2003 07:31:01 8 C 7.28 g/m*3 8 C 0 km/h
2860 04-09-2003 07:43:01 8 C 7.19 g/m*3 8 C 0 km/h
2861 04-09-2003 07:55:01 8 C 7.19 g/m*3 8 C 0 km/h
2862 04-09-2003 08:07:01 8.2 C 7.29 g/m*3 8.2 C 0 km/h
2863 04-09-2003 08:19:01 8.1 C 7.32 g/m*3 8.1 C 0 km/h
2864 04-09-2003 08:31:01 8.2 C 7.45 g/m*3 8.2 C 0 km/h
2865 04-09-2003 08:43:01 8.4 C 7.63 g/m*3 8.4 C 0 km/h
2866 04-09-2003 08:55:01 8.6 C 7.65 g/m*3 8.6 C 0 km/h
2867 04-09-2003 09:07:02 8.9 C 7.8 g/m*3 8.9 C 0 km/h
2868 04-09-2003 09:19:02 9.1 C 7.72 g/m*3 9.1 C 0 km/h
2869 04-09-2003 09:31:02 9.5 C 7.92 g/m*3 9.5 C 0 km/h
2870 04-09-2003 09:43:01 10 C 7.99 g/m*3 10 C 0 km/h
2871 04-09-2003 09:55:01 10.6 C 8.2 g/m*3 10.6 C 0 km/h
2872 04-09-2003 10:07:00 11.4 C 8.31 g/m*3 11.4 C 0 km/h
2873 04-09-2003 10:19:00 12.2 C 8.31 g/m*3 12.2 C 0 km/h
2874 04-09-2003 10:31:00 12.8 C 8.51 g/m*3 12.8 C 0 km/h
2875 04-09-2003 10:43:01 13.3 C 8.55 g/m*3 13.3 C 0 km/h
Sensor: Nr:Datum:Temp:Abs-Feuchte:Windchill:Wind:
Aussen-T/F 2876 04-09-2003 10:55:01 14.2 C 8.79 g/m*3 14.2 C 0 km/h
2877 04-09-2003 11:07:02 15 C 8.85 g/m*3 15 C 0 km/h
2878 04-09-2003 11:19:02 15.7 C 8.83 g/m*3 15.7 C 0 km/h
2879 04-09-2003 11:31:02 16.3 C 9.3 g/m*3 16.3 C 0 km/h
2880 04-09-2003 11:43:01 17 C 9.12 g/m*3 17 C 0 km/h
2881 04-09-2003 11:55:01 17.8 C 9.11 g/m*3 17.8 C 0 km/h
2882 04-09-2003 12:07:00 18.4 C 9.12 g/m*3 18.4 C 0 km/h
2883 04-09-2003 12:19:00 18.9 C 9.23 g/m*3 18.9 C 0 km/h
2884 04-09-2003 12:31:00 19.5 C 8.56 g/m*3 19.5 C 0 km/h
2885 04-09-2003 12:43:02 20 C 8.12 g/m*3 20 C 0 km/h
2886 04-09-2003 12:55:02 20.4 C 7.08 g/m*3 20.4 C 0 km/h
2887 04-09-2003 13:07:01 21 C 6.78 g/m*3 21 C 0 km/h
2888 04-09-2003 13:19:01 21.6 C 7.02 g/m*3 21.6 C 0 km/h
2889 04-09-2003 13:31:01 22.1 C 6.83 g/m*3 22.1 C 0 km/h
2890 04-09-2003 13:43:01 22.3 C 6.71 g/m*3 22.3 C 0 km/h
2891 04-09-2003 13:55:01 23.2 C 6.24 g/m*3 23.2 C 0 km/h
2892 04-09-2003 14:07:01 23.8 C 6.45 g/m*3 23.8 C 0 km/h
2893 04-09-2003 14:19:01 24.2 C 5.72 g/m*3 24.2 C 0 km/h
2894 04-09-2003 14:31:01 24.5 C 6.04 g/m*3 24.5 C 0 km/h
2895 04-09-2003 14:43:00 24.3 C 5.75 g/m*3 24.3 C 0 km/h
2896 04-09-2003 14:55:00 25.2 C 5.82 g/m*3 25.2 C 0 km/h
2897 04-09-2003 15:07:01 26.2 C 6.15 g/m*3 26.2 C 0 km/h
2898 04-09-2003 15:19:01 26.3 C 6.19 g/m*3 26.3 C 0 km/h
2899 04-09-2003 15:31:01 26.9 C 6.14 g/m*3 26.9 C 0 km/h
2900 04-09-2003 15:43:00 27.5 C 5.82 g/m*3 27.5 C 0 km/h
Sensor: Nr:Datum:Temp:Abs-Feuchte:Windchill:Wind:
Aussen-T/F 2901 04-09-2003 15:55:00 27.5 C 6.08 g/m*3 27.5 C 0 km/h
2902 04-09-2003 16:07:01 27.7 C 5.88 g/m*3 27.7 C 0 km/h
2903 04-09-2003 16:19:01 27.9 C 5.68 g/m*3 27.9 C 0 km/h
2904 04-09-2003 16:31:01 27.9 C 5.95 g/m*3 27.9 C 0 km/h
2905 04-09-2003 16:43:01 27.7 C 5.88 g/m*3 27.7 C 0 km/h
2906 04-09-2003 16:55:01 27.7 C 5.62 g/m*3 27.7 C 0 km/h
2907 04-09-2003 17:07:01 27.9 C 5.68 g/m*3 27.9 C 0 km/h
2908 04-09-2003 17:19:01 28.8 C 6.53 g/m*3 28.8 C 0 km/h
2909 04-09-2003 17:31:01 29 C 6.32 g/m*3 29 C 0 km/h
2910 04-09-2003 17:43:00 28.8 C 6.25 g/m*3 28.8 C 0 km/h
2911 04-09-2003 17:55:00 28.8 C 5.97 g/m*3 28.8 C 0 km/h
2912 04-09-2003 18:07:01 28.7 C 6.22 g/m*3 28.7 C 0 km/h
2913 04-09-2003 18:19:01 28.5 C 6.71 g/m*3 28.5 C 0 km/h
2914 04-09-2003 18:31:01 28.3 C 6.36 g/m*3 28.3 C 0 km/h
2915 04-09-2003 18:43:01 28.2 C 6.6 g/m*3 28.2 C 0 km/h
2916 04-09-2003 18:55:01 27.9 C 7.3 g/m*3 27.9 C 0 km/h
2917 04-09-2003 19:07:01 27.3 C 7.59 g/m*3 27.3 C 0 km/h
2918 04-09-2003 19:19:01 26.5 C 7.76 g/m*3 26.5 C 0 km/h
2919 04-09-2003 19:31:01 25.4 C 7.77 g/m*3 25.4 C 0 km/h
2920 04-09-2003 19:43:02 24.1 C 7.66 g/m*3 24.1 C 0 km/h
2921 04-09-2003 19:55:02 22.8 C 7.32 g/m*3 22.8 C 0 km/h
2922 04-09-2003 20:07:02 21.6 C 7.21 g/m*3 21.6 C 0 km/h
2923 04-09-2003 20:19:02 21 C 6.96 g/m*3 21 C 0 km/h
2924 04-09-2003 20:31:02 20.6 C 7.34 g/m*3 20.6 C 0 km/h
2925 04-09-2003 20:43:01 20.1 C 7.82 g/m*3 20.1 C 0 km/h
Sensor: Nr:Datum:Temp:Abs-Feuchte:Windchill:Wind:
Aussen-T/F 2926 04-09-2003 20:55:01 19.4 C 7.51 g/m*3 19.4 C 0 km/h
2927 04-09-2003 21:07:02 18.9 C 7.61 g/m*3 18.9 C 0 km/h
2928 04-09-2003 21:19:02 18.3 C 7.66 g/m*3 18.3 C 0 km/h
2929 04-09-2003 21:31:02 18.1 C 7.73 g/m*3 18.1 C 0 km/h
2930 04-09-2003 21:43:01 17.8 C 7.59 g/m*3 17.8 C 0 km/h
2931 04-09-2003 21:55:01 17.5 C 7.75 g/m*3 17.5 C 0 km/h
2932 04-09-2003 22:07:01 17.3 C 7.81 g/m*3 17.3 C 0 km/h
2933 04-09-2003 22:19:01 17 C 7.67 g/m*3 17 C 0 km/h
2934 04-09-2003 22:31:01 16.6 C 7.77 g/m*3 16.6 C 0 km/h
2935 04-09-2003 22:44:04 16.4 C 7.96 g/m*3 16.4 C 0 km/h
2936 04-09-2003 22:56:04 16.3 C 8.19 g/m*3 16.3 C 0 km/h
2937 04-09-2003 23:08:04 15.9 C 8.26 g/m*3 15.9 C 0 km/h
2938 04-09-2003 23:20:04 15.8 C 8.08 g/m*3 15.8 C 0 km/h
2939 04-09-2003 23:32:04 15.5 C 8.06 g/m*3 15.5 C 0 km/h
2940 04-09-2003 23:44:04 15.4 C 8.15 g/m*3 15.4 C 0 km/h
2941 04-09-2003 23:56:04 15 C 8.08 g/m*3 15 C 0 km/h
2942 05-09-2003 00:08:04 14.8 C 8.23 g/m*3 14.8 C 0 km/h
2943 05-09-2003 00:20:04 14.6 C 8.26 g/m*3 14.6 C 0 km/h
2944 05-09-2003 00:32:04 14.4 C 8.16 g/m*3 14.4 C 0 km/h
2945 05-09-2003 00:44:04 14.3 C 8.11 g/m*3 14.3 C 0 km/h
2946 05-09-2003 00:56:04 14 C 7.84 g/m*3 14 C 0 km/h
2947 05-09-2003 01:08:04 13.9 C 8.03 g/m*3 13.9 C 0 km/h
2948 05-09-2003 01:20:04 13.7 C 8.05 g/m*3 13.7 C 0 km/h
2949 05-09-2003 01:32:04 13.5 C 7.95 g/m*3 13.5 C 0 km/h
2950 05-09-2003 01:44:04 13.3 C 7.97 g/m*3 13.3 C 0 km/h
Sensor: Nr:Datum:Temp:Abs-Feuchte:Windchill:Wind:
Aussen-T/F 2951 05-09-2003 01:56:04 13.2 C 8.04 g/m*3 13.2 C 0 km/h
2952 05-09-2003 02:08:04 13 C 7.94 g/m*3 13 C 0 km/h
2953 05-09-2003 02:20:04 12.7 C 8.13 g/m*3 12.7 C 0 km/h
2954 05-09-2003 02:32:04 12.6 C 8.08 g/m*3 12.6 C 0 km/h
2955 05-09-2003 02:44:04 12.6 C 8.19 g/m*3 12.6 C 0 km/h
2956 05-09-2003 02:56:04 12.2 C 8.09 g/m*3 12.2 C 0 km/h
2957 05-09-2003 03:08:04 12.1 C 8.26 g/m*3 12.1 C 0 km/h
2958 05-09-2003 03:20:04 11.9 C 8.15 g/m*3 11.9 C 0 km/h
2959 05-09-2003 03:32:04 11.6 C 8.11 g/m*3 11.6 C 0 km/h
2960 05-09-2003 03:44:04 11.5 C 8.26 g/m*3 11.5 C 0 km/h
2961 05-09-2003 03:56:04 11.3 C 8.47 g/m*3 11.3 C 0 km/h
2962 05-09-2003 04:08:04 11.2 C 8.31 g/m*3 11.2 C 0 km/h
2963 05-09-2003 04:20:04 11.1 C 8.16 g/m*3 11.1 C 0 km/h
2964 05-09-2003 04:32:04 11 C 8.21 g/m*3 11 C 0 km/h
2965 05-09-2003 04:44:04 10.9 C 8.26 g/m*3 10.9 C 0 km/h
2966 05-09-2003 04:56:04 10.7 C 8.05 g/m*3 10.7 C 0 km/h
2967 05-09-2003 05:08:04 10.7 C 8.05 g/m*3 10.7 C 0 km/h
2968 05-09-2003 05:20:04 10.6 C 8.1 g/m*3 10.6 C 0 km/h
2969 05-09-2003 05:32:04 10.5 C 8.05 g/m*3 10.5 C 0 km/h
2970 05-09-2003 05:44:04 10.3 C 8.04 g/m*3 10.3 C 0 km/h
2971 05-09-2003 05:56:04 10.2 C 7.99 g/m*3 10.2 C 0 km/h
2972 05-09-2003 06:08:04 10.1 C 7.94 g/m*3 10.1 C 0 km/h
2973 05-09-2003 06:20:04 10 C 7.99 g/m*3 10 C 0 km/h
2974 05-09-2003 06:32:04 9.8 C 7.98 g/m*3 9.8 C 0 km/h
2975 05-09-2003 06:44:04 9.7 C 8.11 g/m*3 9.7 C 0 km/h
Sensor: Nr:Datum:Temp:Abs-Feuchte:Windchill:Wind:
Aussen-T/F 2976 05-09-2003 06:56:04 9.5 C 7.92 g/m*3 9.5 C 0 km/h
2977 05-09-2003 07:08:04 9.5 C 7.92 g/m*3 9.5 C 0 km/h
2978 05-09-2003 07:20:04 9.5 C 7.83 g/m*3 9.5 C 0 km/h
2979 05-09-2003 07:32:04 9.5 C 7.92 g/m*3 9.5 C 0 km/h
2980 05-09-2003 07:44:04 9.6 C 7.97 g/m*3 9.6 C 0 km/h
2981 05-09-2003 07:56:04 9.7 C 8.02 g/m*3 9.7 C 0 km/h
2982 05-09-2003 08:08:04 9.7 C 8.11 g/m*3 9.7 C 0 km/h
2983 05-09-2003 08:20:04 9.6 C 8.15 g/m*3 9.6 C 0 km/h
2984 05-09-2003 08:32:04 9.8 C 8.26 g/m*3 9.8 C 0 km/h
2985 05-09-2003 08:44:04 10 C 8.27 g/m*3 10 C 0 km/h
2986 05-09-2003 08:56:04 10.3 C 8.43 g/m*3 10.3 C 0 km/h
2987 05-09-2003 09:08:04 10.7 C 8.64 g/m*3 10.7 C 0 km/h
2988 05-09-2003 09:20:04 11 C 8.71 g/m*3 11 C 0 km/h
2989 05-09-2003 09:32:01 11.5 C 8.78 g/m*3 11.5 C 0 km/h
2990 05-09-2003 09:44:01 12.2 C 8.96 g/m*3 12.2 C 0 km/h
2991 05-09-2003 09:56:01 12.8 C 8.96 g/m*3 12.8 C 0 km/h
2992 05-09-2003 10:08:01 13.3 C 8.9 g/m*3 13.3 C 0 km/h
2993 05-09-2003 10:20:01 14.4 C 9.02 g/m*3 14.4 C 0 km/h
2994 05-09-2003 10:32:01 14.9 C 9.05 g/m*3 14.9 C 0 km/h
2995 05-09-2003 10:44:01 15.8 C 8.88 g/m*3 15.8 C 0 km/h
2996 05-09-2003 10:56:01 16.4 C 9.07 g/m*3 16.4 C 0 km/h
2997 05-09-2003 11:08:01 17.2 C 8.2 g/m*3 17.2 C 0 km/h
2998 05-09-2003 11:20:01 17.9 C 8.4 g/m*3 17.9 C 0 km/h
2999 05-09-2003 11:32:01 18.6 C 8.44 g/m*3 18.6 C 0 km/h
3000 05-09-2003 11:44:01 19 C 8.64 g/m*3 19 C 0 km/h
Sensor: Nr:Datum:Temp:Abs-Feuchte:Windchill:Wind:
Aussen-T/F 3001 05-09-2003 11:56:01 19.5 C 8.56 g/m*3 19.5 C 0 km/h
3002 05-09-2003 12:08:01 20.5 C 8.54 g/m*3 20.5 C 0 km/h
3003 05-09-2003 12:20:01 21.3 C 8.39 g/m*3 21.3 C 0 km/h
3004 05-09-2003 12:32:02 22 C 7.96 g/m*3 22 C 0 km/h
3005 05-09-2003 12:44:02 22.5 C 7.39 g/m*3 22.5 C 0 km/h
3006 05-09-2003 12:56:02 22.8 C 7.52 g/m*3 22.8 C 0 km/h
3007 05-09-2003 13:08:01 23.3 C 6.9 g/m*3 23.3 C 0 km/h
3008 05-09-2003 13:20:01 23.9 C 6.49 g/m*3 23.9 C 0 km/h
3009 05-09-2003 13:32:02 24.5 C 6.04 g/m*3 24.5 C 0 km/h
3010 05-09-2003 13:44:02 25.1 C 5.79 g/m*3 25.1 C 0 km/h
3011 05-09-2003 13:56:02 25.7 C 5.03 g/m*3 25.7 C 0 km/h
3012 05-09-2003 14:08:01 26.1 C 5.14 g/m*3 26.1 C 0 km/h
3013 05-09-2003 14:20:01 26.4 C 4.98 g/m*3 26.4 C 0 km/h
3014 05-09-2003 14:32:13 25.9 C 4.84 g/m*3 25.9 C 0 km/h
3015 05-09-2003 14:44:13 27.1 C 5.69 g/m*3 27.1 C 0 km/h
3016 05-09-2003 14:56:13 27.8 C 5.65 g/m*3 27.8 C 0 km/h
3017 05-09-2003 15:08:03 27.3 C 5.23 g/m*3 27.3 C 0 km/h
3018 05-09-2003 15:20:03 27.7 C 5.88 g/m*3 27.7 C 0 km/h
3019 05-09-2003 15:32:02 27.4 C 5.26 g/m*3 27.4 C 0 km/h
3020 05-09-2003 15:44:02 27.5 C 5.29 g/m*3 27.5 C 0 km/h
3021 05-09-2003 15:56:02 27.7 C 5.35 g/m*3 27.7 C 0 km/h
3022 05-09-2003 16:08:02 27.6 C 6.12 g/m*3 27.6 C 0 km/h
3023 05-09-2003 16:20:02 28.2 C 5.77 g/m*3 28.2 C 0 km/h
3024 05-09-2003 16:32:01 28 C 5.44 g/m*3 28 C 0 km/h
3025 05-09-2003 16:44:01 29 C 5.74 g/m*3 29 C 0 km/h
Sensor: Nr:Datum:Temp:Abs-Feuchte:Windchill:Wind:
Aussen-T/F 3026 05-09-2003 16:56:01 28.4 C 5.56 g/m*3 28.4 C 0 km/h
3027 05-09-2003 17:08:02 28.7 C 5.65 g/m*3 28.7 C 0 km/h
3028 05-09-2003 17:20:02 29.3 C 5.84 g/m*3 29.3 C 0 km/h
3029 05-09-2003 17:32:03 28.9 C 5.71 g/m*3 28.9 C 0 km/h
3030 05-09-2003 17:44:03 27.8 C 5.65 g/m*3 27.8 C 0 km/h
3031 05-09-2003 17:56:03 27.2 C 7.03 g/m*3 27.2 C 0 km/h
3032 05-09-2003 18:08:03 26 C 8.03 g/m*3 26 C 0 km/h
3033 05-09-2003 18:20:03 24.3 C 7.75 g/m*3 24.3 C 0 km/h
3034 05-09-2003 18:32:03 23.4 C 7.57 g/m*3 23.4 C 0 km/h
3035 05-09-2003 18:44:33 22.9 C 7.77 g/m*3 22.9 C 0 km/h
3036 05-09-2003 18:56:33 22.6 C 7.43 g/m*3 22.6 C 0 km/h
3037 05-09-2003 19:08:03 22.5 C 7.39 g/m*3 22.5 C 0 km/h
3038 05-09-2003 19:20:03 22.3 C 7.31 g/m*3 22.3 C 0 km/h
3039 05-09-2003 19:32:11 22 C 7.18 g/m*3 22 C 0 km/h
3040 05-09-2003 19:44:11 21.6 C 7.4 g/m*3 21.6 C 0 km/h
3041 05-09-2003 19:56:11 21 C 7.33 g/m*3 21 C 0 km/h
3042 05-09-2003 20:08:11 20.5 C 7.12 g/m*3 20.5 C 0 km/h
3043 05-09-2003 20:20:11 20 C 6.91 g/m*3 20 C 0 km/h
3044 05-09-2003 20:32:11 19.6 C 7.09 g/m*3 19.6 C 0 km/h
3045 05-09-2003 20:44:41 19.4 C 7.34 g/m*3 19.4 C 0 km/h
3046 05-09-2003 20:56:41 19.2 C 7.26 g/m*3 19.2 C 0 km/h
3047 05-09-2003 21:09:02 19 C 7.17 g/m*3 19 C 0 km/h
3048 05-09-2003 21:21:02 18.9 C 7.29 g/m*3 18.9 C 0 km/h
3049 05-09-2003 21:33:02 18.7 C 7.2 g/m*3 18.7 C 0 km/h
3050 05-09-2003 21:45:02 18.5 C 7.28 g/m*3 18.5 C 0 km/h
Sensor: Nr:Datum:Temp:Abs-Feuchte:Windchill:Wind:
Aussen-T/F 3051 05-09-2003 21:57:02 18.4 C 7.24 g/m*3 18.4 C 0 km/h
3052 05-09-2003 22:09:02 18.1 C 7.26 g/m*3 18.1 C 0 km/h
3053 05-09-2003 22:21:02 17.9 C 7.63 g/m*3 17.9 C 0 km/h
3054 05-09-2003 22:33:02 17.8 C 7.29 g/m*3 17.8 C 0 km/h
3055 05-09-2003 22:45:02 18.1 C 7.42 g/m*3 18.1 C 0 km/h
3056 05-09-2003 22:57:02 18.3 C 7.35 g/m*3 18.3 C 0 km/h
3057 05-09-2003 23:09:02 18.5 C 7.44 g/m*3 18.5 C 0 km/h
3058 05-09-2003 23:21:02 18.4 C 7.71 g/m*3 18.4 C 0 km/h
3059 05-09-2003 23:33:02 18.6 C 8.28 g/m*3 18.6 C 0 km/h
3060 05-09-2003 23:45:02 18.9 C 8.75 g/m*3 18.9 C 0 km/h
3061 05-09-2003 23:57:02 18.9 C 8.75 g/m*3 18.9 C 0 km/h
3062 06-09-2003 00:09:02 19 C 8.8 g/m*3 19 C 0 km/h
3063 06-09-2003 00:21:02 19 C 8.8 g/m*3 19 C 0 km/h
3064 06-09-2003 00:33:02 18.9 C 9.07 g/m*3 18.9 C 0 km/h
3065 06-09-2003 00:45:02 18.5 C 9.02 g/m*3 18.5 C 0 km/h
3066 06-09-2003 00:57:02 18.5 C 9.18 g/m*3 18.5 C 0 km/h
3067 06-09-2003 01:09:02 18.4 C 8.97 g/m*3 18.4 C 0 km/h
3068 06-09-2003 01:21:02 18.3 C 9.38 g/m*3 18.3 C 0 km/h
3069 06-09-2003 01:33:02 18.2 C 9.48 g/m*3 18.2 C 0 km/h
3070 06-09-2003 01:45:02 18 C 9.37 g/m*3 18 C 0 km/h
3071 06-09-2003 01:57:02 17.9 C 9.62 g/m*3 17.9 C 0 km/h
3072 06-09-2003 02:09:02 17.7 C 9.96 g/m*3 17.7 C 0 km/h
3073 06-09-2003 02:21:02 17.6 C 10.5 g/m*3 17.6 C 0 km/h
3074 06-09-2003 02:33:02 17 C 11 g/m*3 17 C 0 km/h
3075 06-09-2003 02:45:02 16.4 C 11.31 g/m*3 16.4 C 0 km/h
Sensor: Nr:Datum:Temp:Abs-Feuchte:Windchill:Wind:
Aussen-T/F 3076 06-09-2003 02:57:02 16.2 C 11.58 g/m*3 16.2 C 0 km/h
3077 06-09-2003 03:09:02 16.1 C 11.79 g/m*3 16.1 C 0 km/h
3078 06-09-2003 03:21:02 16.1 C 11.79 g/m*3 16.1 C 0 km/h
3079 06-09-2003 03:33:02 16 C 11.72 g/m*3 16 C 0 km/h
3080 06-09-2003 03:45:02 15.9 C 11.92 g/m*3 15.9 C 0 km/h
3081 06-09-2003 03:57:02 15.9 C 11.92 g/m*3 15.9 C 0 km/h
3082 06-09-2003 04:09:02 15.9 C 11.92 g/m*3 15.9 C 0 km/h
3083 06-09-2003 04:21:02 16 C 11.58 g/m*3 16 C 0 km/h
3084 06-09-2003 04:33:02 15.9 C 11.51 g/m*3 15.9 C 0 km/h
3085 06-09-2003 04:45:02 15.8 C 11.17 g/m*3 15.8 C 0 km/h
3086 06-09-2003 04:57:02 15.9 C 11.38 g/m*3 15.9 C 0 km/h
3087 06-09-2003 05:09:02 15.9 C 11.24 g/m*3 15.9 C 0 km/h
3088 06-09-2003 05:21:02 15.8 C 11.17 g/m*3 15.8 C 0 km/h
3089 06-09-2003 05:33:02 15.8 C 11.17 g/m*3 15.8 C 0 km/h
3090 06-09-2003 05:45:02 15.8 C 11.17 g/m*3 15.8 C 0 km/h
3091 06-09-2003 05:57:02 15.8 C 10.9 g/m*3 15.8 C 0 km/h
3092 06-09-2003 06:09:02 15.8 C 10.9 g/m*3 15.8 C 0 km/h
3093 06-09-2003 06:21:02 15.7 C 10.97 g/m*3 15.7 C 0 km/h
3094 06-09-2003 06:33:02 15.5 C 10.97 g/m*3 15.5 C 0 km/h
3095 06-09-2003 06:45:02 15.1 C 11.09 g/m*3 15.1 C 0 km/h
3096 06-09-2003 06:57:02 15 C 11.16 g/m*3 15 C 0 km/h
3097 06-09-2003 07:09:02 15 C 11.16 g/m*3 15 C 0 km/h
3098 06-09-2003 07:21:02 15.3 C 11.49 g/m*3 15.3 C 0 km/h
3099 06-09-2003 07:33:02 15.3 C 11.36 g/m*3 15.3 C 0 km/h
3100 06-09-2003 07:45:02 15.4 C 11.3 g/m*3 15.4 C 0 km/h
Sensor: Nr:Datum:Temp:Abs-Feuchte:Windchill:Wind:
Aussen-T/F 3101 06-09-2003 07:57:02 15.6 C 11.17 g/m*3 15.6 C 0 km/h
3102 06-09-2003 08:09:02 15.9 C 11.1 g/m*3 15.9 C 0 km/h
3103 06-09-2003 08:21:02 15.9 C 11.1 g/m*3 15.9 C 0 km/h
3104 06-09-2003 08:33:02 16.2 C 11.03 g/m*3 16.2 C 0 km/h
3105 06-09-2003 08:45:02 16.4 C 11.03 g/m*3 16.4 C 0 km/h
3106 06-09-2003 08:57:02 16.6 C 11.02 g/m*3 16.6 C 0 km/h
3107 06-09-2003 09:09:02 16.7 C 10.8 g/m*3 16.7 C 0 km/h
3108 06-09-2003 09:21:02 17 C 10.71 g/m*3 17 C 0 km/h
3109 06-09-2003 09:33:00 17 C 10.56 g/m*3 17 C 0 km/h
3110 06-09-2003 09:45:00 17.3 C 11.05 g/m*3 17.3 C 0 km/h
3111 06-09-2003 09:57:00 17.2 C 11.13 g/m*3 17.2 C 0 km/h
3112 06-09-2003 10:09:57 17.2 C 11.28 g/m*3 17.2 C 0 km/h
3113 06-09-2003 10:21:57 17 C 11.14 g/m*3 17 C 0 km/h
3114 06-09-2003 10:33:01 17.6 C 11.25 g/m*3 17.6 C 0 km/h
3115 06-09-2003 10:45:01 18.9 C 10.69 g/m*3 18.9 C 0 km/h
3116 06-09-2003 10:57:01 19.7 C 10.53 g/m*3 19.7 C 0 km/h
3117 06-09-2003 11:09:00 20.5 C 10.14 g/m*3 20.5 C 0 km/h
3118 06-09-2003 11:21:00 20.5 C 9.96 g/m*3 20.5 C 0 km/h
3119 06-09-2003 11:33:01 20.6 C 9.84 g/m*3 20.6 C 0 km/h
3120 06-09-2003 11:45:01 20.7 C 10.26 g/m*3 20.7 C 0 km/h
3121 06-09-2003 11:57:01 20.8 C 10.14 g/m*3 20.8 C 0 km/h
3122 06-09-2003 12:09:02 21 C 10.08 g/m*3 21 C 0 km/h
3123 06-09-2003 12:21:02 21.5 C 9.99 g/m*3 21.5 C 0 km/h
3124 06-09-2003 12:33:01 21.8 C 10.36 g/m*3 21.8 C 0 km/h
3125 06-09-2003 12:45:01 22 C 10.09 g/m*3 22 C 0 km/h
Sensor: Nr:Datum:Temp:Abs-Feuchte:Windchill:Wind:
Aussen-T/F 3126 06-09-2003 12:57:01 22.2 C 9.82 g/m*3 22.2 C 0 km/h
3127 06-09-2003 13:09:00 22.9 C 9.81 g/m*3 22.9 C 0 km/h
3128 06-09-2003 13:21:00 23.6 C 8.93 g/m*3 23.6 C 0 km/h
3129 06-09-2003 13:33:02 24.2 C 8.8 g/m*3 24.2 C 0 km/h
3130 06-09-2003 13:45:02 24.4 C 9.12 g/m*3 24.4 C 0 km/h
3131 06-09-2003 13:57:02 25.3 C 9.13 g/m*3 25.3 C 0 km/h
3132 06-09-2003 14:09:01 25.3 C 8.43 g/m*3 25.3 C 0 km/h
3133 06-09-2003 14:21:01 25.4 C 8.71 g/m*3 25.4 C 0 km/h
3134 06-09-2003 14:33:01 25 C 8.75 g/m*3 25 C 0 km/h
3135 06-09-2003 14:45:01 25.2 C 8.61 g/m*3 25.2 C 0 km/h
3136 06-09-2003 14:57:01 25.7 C 8.86 g/m*3 25.7 C 0 km/h
3137 06-09-2003 15:09:02 25.3 C 8.66 g/m*3 25.3 C 0 km/h
3138 06-09-2003 15:21:02 25.6 C 8.57 g/m*3 25.6 C 0 km/h
3139 06-09-2003 15:33:01 25.4 C 8.95 g/m*3 25.4 C 0 km/h
3140 06-09-2003 15:45:01 24.9 C 8.47 g/m*3 24.9 C 0 km/h
3141 06-09-2003 15:57:01 24.9 C 8.47 g/m*3 24.9 C 0 km/h
3142 06-09-2003 16:09:01 24.7 C 9.28 g/m*3 24.7 C 0 km/h
3143 06-09-2003 16:21:01 24.6 C 9 g/m*3 24.6 C 0 km/h
3144 06-09-2003 16:33:01 24.7 C 9.05 g/m*3 24.7 C 0 km/h
3145 06-09-2003 16:45:01 24.7 C 9.05 g/m*3 24.7 C 0 km/h
3146 06-09-2003 16:57:01 25 C 8.75 g/m*3 25 C 0 km/h
3147 06-09-2003 17:09:01 24.9 C 8.93 g/m*3 24.9 C 0 km/h
3148 06-09-2003 17:21:01 24.6 C 9 g/m*3 24.6 C 0 km/h
3149 06-09-2003 17:33:01 25.3 C 8.9 g/m*3 25.3 C 0 km/h
3150 06-09-2003 17:45:01 24.7 C 9.05 g/m*3 24.7 C 0 km/h
Sensor: Nr:Datum:Temp:Abs-Feuchte:Windchill:Wind:
Aussen-T/F 3151 06-09-2003 17:57:01 24.2 C 8.58 g/m*3 24.2 C 0 km/h
3152 06-09-2003 18:09:02 24.1 C 9.19 g/m*3 24.1 C 0 km/h
3153 06-09-2003 18:21:02 23.8 C 8.82 g/m*3 23.8 C 0 km/h
3154 06-09-2003 18:33:01 23.3 C 8.99 g/m*3 23.3 C 0 km/h
3155 06-09-2003 18:45:01 23.1 C 8.89 g/m*3 23.1 C 0 km/h
3156 06-09-2003 18:57:01 23.1 C 8.89 g/m*3 23.1 C 0 km/h
3157 06-09-2003 19:09:01 23.3 C 9.2 g/m*3 23.3 C 0 km/h
3158 06-09-2003 19:21:01 23.3 C 9.2 g/m*3 23.3 C 0 km/h
3159 06-09-2003 19:33:01 23 C 9.25 g/m*3 23 C 0 km/h
3160 06-09-2003 19:45:01 22.7 C 9.5 g/m*3 22.7 C 0 km/h
3161 06-09-2003 19:57:01 22.1 C 9.76 g/m*3 22.1 C 0 km/h
3162 06-09-2003 20:09:02 21.8 C 9.98 g/m*3 21.8 C 0 km/h
3163 06-09-2003 20:21:02 21.5 C 10.37 g/m*3 21.5 C 0 km/h
3164 06-09-2003 20:34:08 21.2 C 10.56 g/m*3 21.2 C 0 km/h
3165 06-09-2003 20:46:08 21 C 10.62 g/m*3 21 C 0 km/h
3166 06-09-2003 20:58:08 20.8 C 10.68 g/m*3 20.8 C 0 km/h
3167 06-09-2003 21:10:08 20.8 C 10.86 g/m*3 20.8 C 0 km/h
3168 06-09-2003 21:22:08 20.7 C 10.98 g/m*3 20.7 C 0 km/h
3169 06-09-2003 21:34:08 20.4 C 11.14 g/m*3 20.4 C 0 km/h
3170 06-09-2003 21:46:08 20.2 C 11.02 g/m*3 20.2 C 0 km/h
3171 06-09-2003 21:58:08 20 C 11.06 g/m*3 20 C 0 km/h
3172 06-09-2003 22:10:08 19.7 C 11.21 g/m*3 19.7 C 0 km/h
3173 06-09-2003 22:22:08 19.4 C 11.18 g/m*3 19.4 C 0 km/h
3174 06-09-2003 22:34:08 19.1 C 11.15 g/m*3 19.1 C 0 km/h
3175 06-09-2003 22:46:08 18.9 C 11.18 g/m*3 18.9 C 0 km/h
Sensor: Nr:Datum:Temp:Abs-Feuchte:Windchill:Wind:
Aussen-T/F 3176 06-09-2003 22:58:08 18.9 C 11.34 g/m*3 18.9 C 0 km/h
3177 06-09-2003 23:10:08 18.4 C 11.17 g/m*3 18.4 C 0 km/h
3178 06-09-2003 23:22:08 18 C 11.21 g/m*3 18 C 0 km/h
3179 06-09-2003 23:34:08 17.6 C 11.25 g/m*3 17.6 C 0 km/h
3180 06-09-2003 23:46:08 17.5 C 11.33 g/m*3 17.5 C 0 km/h
3181 06-09-2003 23:58:08 17.1 C 11.06 g/m*3 17.1 C 0 km/h
3182 07-09-2003 00:10:08 17 C 11.14 g/m*3 17 C 0 km/h
3183 07-09-2003 00:22:08 17.1 C 11.35 g/m*3 17.1 C 0 km/h
3184 07-09-2003 00:34:08 17 C 11.14 g/m*3 17 C 0 km/h
3185 07-09-2003 00:46:08 17.1 C 11.35 g/m*3 17.1 C 0 km/h
3186 07-09-2003 00:58:08 17.1 C 11.35 g/m*3 17.1 C 0 km/h
3187 07-09-2003 01:10:08 17.2 C 11.42 g/m*3 17.2 C 0 km/h
3188 07-09-2003 01:22:08 17.3 C 11.49 g/m*3 17.3 C 0 km/h
3189 07-09-2003 01:34:08 17.2 C 11.57 g/m*3 17.2 C 0 km/h
3190 07-09-2003 01:46:08 17 C 11.43 g/m*3 17 C 0 km/h
3191 07-09-2003 01:58:08 17 C 11.43 g/m*3 17 C 0 km/h
3192 07-09-2003 02:10:08 16.8 C 11.58 g/m*3 16.8 C 0 km/h
3193 07-09-2003 02:22:08 16.7 C 11.65 g/m*3 16.7 C 0 km/h
3194 07-09-2003 02:34:08 16.7 C 11.65 g/m*3 16.7 C 0 km/h
3195 07-09-2003 02:46:08 16.8 C 11.58 g/m*3 16.8 C 0 km/h
3196 07-09-2003 02:58:08 16.7 C 11.51 g/m*3 16.7 C 0 km/h
3197 07-09-2003 03:10:08 16.6 C 11.44 g/m*3 16.6 C 0 km/h
3198 07-09-2003 03:22:08 16.5 C 11.37 g/m*3 16.5 C 0 km/h
3199 07-09-2003 03:34:08 16.4 C 11.45 g/m*3 16.4 C 0 km/h
3200 07-09-2003 03:46:08 16.5 C 11.51 g/m*3 16.5 C 0 km/h
Sensor: Nr:Datum:Temp:Abs-Feuchte:Windchill:Wind:
Aussen-T/F 3201 07-09-2003 03:58:08 16.5 C 11.37 g/m*3 16.5 C 0 km/h
3202 07-09-2003 04:10:08 16.5 C 11.37 g/m*3 16.5 C 0 km/h
3203 07-09-2003 04:22:08 16.6 C 11.16 g/m*3 16.6 C 0 km/h
3204 07-09-2003 04:34:08 16.4 C 11.17 g/m*3 16.4 C 0 km/h
3205 07-09-2003 04:46:08 16.4 C 11.31 g/m*3 16.4 C 0 km/h
3206 07-09-2003 04:58:08 16.2 C 11.03 g/m*3 16.2 C 0 km/h
3207 07-09-2003 05:10:08 16.2 C 11.03 g/m*3 16.2 C 0 km/h
3208 07-09-2003 05:22:08 16.1 C 10.83 g/m*3 16.1 C 0 km/h
3209 07-09-2003 05:34:08 16.2 C 10.89 g/m*3 16.2 C 0 km/h
3210 07-09-2003 05:46:08 16.1 C 11.1 g/m*3 16.1 C 0 km/h
3211 07-09-2003 05:58:08 16 C 11.04 g/m*3 16 C 0 km/h
3212 07-09-2003 06:10:08 16 C 11.04 g/m*3 16 C 0 km/h
3213 07-09-2003 06:22:08 15.8 C 11.04 g/m*3 15.8 C 0 km/h
3214 07-09-2003 06:34:08 15.5 C 10.84 g/m*3 15.5 C 0 km/h
3215 07-09-2003 06:46:08 15.2 C 10.64 g/m*3 15.2 C 0 km/h
3216 07-09-2003 06:58:08 14.9 C 10.58 g/m*3 14.9 C 0 km/h
3217 07-09-2003 07:10:08 14.8 C 10.64 g/m*3 14.8 C 0 km/h
3218 07-09-2003 07:22:08 14.8 C 10.64 g/m*3 14.8 C 0 km/h
3219 07-09-2003 07:34:08 15 C 10.64 g/m*3 15 C 0 km/h
3220 07-09-2003 07:46:08 15.3 C 10.71 g/m*3 15.3 C 0 km/h
3221 07-09-2003 07:58:08 15.5 C 10.84 g/m*3 15.5 C 0 km/h
3222 07-09-2003 08:10:08 15.6 C 10.91 g/m*3 15.6 C 0 km/h
3223 07-09-2003 08:22:08 15.8 C 10.9 g/m*3 15.8 C 0 km/h
3224 07-09-2003 08:34:08 15.9 C 10.97 g/m*3 15.9 C